<?xml version="1.0" encoding="UTF-8" standalone="no" ?>
<gpx xmlns="http://www.topografix.com/GPX/1/1" xmlns:xsi="http://www.w3.org/2001/XMLSchema-instance" xsi:schemaLocation="http://www.topografix.com/GPX/1/1 http://www.topografix.com/GPX/1/1/gpx.xsd" version="1.1" creator="VisuGPX - https://www.visugpx.com">
  <metadata>
    <name>montgilbert rocher saint vincent</name>
    <desc><![CDATA[rando au depart des ruines de mongilbert ,sortie a refaire pour trouver une sortie sur matichard]]></desc>
  </metadata>
  <trk>
    <name><![CDATA[2012-09-08 14:04]]></name>
    <desc><![CDATA[<h1>OruxMaps</h1><br /><hr align="center" width="480" style="height: 2px; width: 517px"/><h2>Nom: 2012-09-08 14:04</h2><br /><p>Temps de départ: 09/08/2012 14:04</p><p>Temps d'arrivée: 09/08/2012 17:26</p><p>Distance: 28,9 km (03:21)</p><p>Temps déplacement: 01:39</p><p>Vitesse moyenne: 8,6 km/h</p><p>Vitesse moyenne: 17,5 km/h</p><p>Vitess Max.: 70 km/h</p><p>Altitude minimale: 466 m</p><p>Altitude maximale: 965 m</p><p>Vitesse d'élévation: 511,8 m/h</p><p>Vitesse de descente: -749,7 m/h</p><p>Gain Altitude: 957 m</p><p>Perte Altitude: -949 m</p><p>Temps d'élévation: 01:52</p><p>Temps de descente: 01:15</p><hr align="center" width="480" style="height: 2px; width: 517px"/>]]></desc>
    <trkseg>
      <trkpt lat="46.03726" lon="3.62345">
        <ele>549.553</ele>
        <time>2012-09-08T12:05:33Z</time>
      </trkpt>
      <trkpt lat="46.03724" lon="3.62371">
        <ele>542.4529</ele>
        <time>2012-09-08T12:09:56Z</time>
      </trkpt>
      <trkpt lat="46.03734" lon="3.62394">
        <ele>541.8652</ele>
        <time>2012-09-08T12:10:07Z</time>
      </trkpt>
      <trkpt lat="46.03747" lon="3.62414">
        <ele>539.3049</ele>
        <time>2012-09-08T12:10:17Z</time>
      </trkpt>
      <trkpt lat="46.03766" lon="3.62422">
        <ele>536.19604</ele>
        <time>2012-09-08T12:10:24Z</time>
      </trkpt>
      <trkpt lat="46.03784" lon="3.62433">
        <ele>533.43115</ele>
        <time>2012-09-08T12:10:29Z</time>
      </trkpt>
      <trkpt lat="46.03803" lon="3.62442">
        <ele>528.5074</ele>
        <time>2012-09-08T12:10:37Z</time>
      </trkpt>
      <trkpt lat="46.03818" lon="3.62457">
        <ele>523.4359</ele>
        <time>2012-09-08T12:10:45Z</time>
      </trkpt>
      <trkpt lat="46.03834" lon="3.62469">
        <ele>516.1199</ele>
        <time>2012-09-08T12:11:01Z</time>
      </trkpt>
      <trkpt lat="46.0385" lon="3.62482">
        <ele>512.9316</ele>
        <time>2012-09-08T12:11:12Z</time>
      </trkpt>
      <trkpt lat="46.03867" lon="3.62495">
        <ele>512.5909</ele>
        <time>2012-09-08T12:11:20Z</time>
      </trkpt>
      <trkpt lat="46.03886" lon="3.62502">
        <ele>513.89325</ele>
        <time>2012-09-08T12:11:29Z</time>
      </trkpt>
      <trkpt lat="46.03907" lon="3.62506">
        <ele>515.4776</ele>
        <time>2012-09-08T12:11:36Z</time>
      </trkpt>
      <trkpt lat="46.03926" lon="3.62504">
        <ele>516.4095</ele>
        <time>2012-09-08T12:11:43Z</time>
      </trkpt>
      <trkpt lat="46.03942" lon="3.62484">
        <ele>516.5338</ele>
        <time>2012-09-08T12:11:50Z</time>
      </trkpt>
      <trkpt lat="46.03959" lon="3.62469">
        <ele>514.45184</ele>
        <time>2012-09-08T12:12:00Z</time>
      </trkpt>
      <trkpt lat="46.03975" lon="3.62454">
        <ele>510.02533</ele>
        <time>2012-09-08T12:12:16Z</time>
      </trkpt>
      <trkpt lat="46.03986" lon="3.62433">
        <ele>508.56406</ele>
        <time>2012-09-08T12:12:33Z</time>
      </trkpt>
      <trkpt lat="46.03995" lon="3.62409">
        <ele>507.56647</ele>
        <time>2012-09-08T12:12:49Z</time>
      </trkpt>
      <trkpt lat="46.04" lon="3.62384">
        <ele>508.53964</ele>
        <time>2012-09-08T12:13:24Z</time>
      </trkpt>
      <trkpt lat="46.04016" lon="3.62371">
        <ele>512.5165</ele>
        <time>2012-09-08T12:13:58Z</time>
      </trkpt>
      <trkpt lat="46.04033" lon="3.62358">
        <ele>517.5712</ele>
        <time>2012-09-08T12:14:24Z</time>
      </trkpt>
      <trkpt lat="46.04049" lon="3.62343">
        <ele>519.9757</ele>
        <time>2012-09-08T12:14:34Z</time>
      </trkpt>
      <trkpt lat="46.04064" lon="3.62326">
        <ele>521.387</ele>
        <time>2012-09-08T12:14:44Z</time>
      </trkpt>
      <trkpt lat="46.04076" lon="3.62304">
        <ele>521.54596</ele>
        <time>2012-09-08T12:14:55Z</time>
      </trkpt>
      <trkpt lat="46.04082" lon="3.62278">
        <ele>520.8692</ele>
        <time>2012-09-08T12:15:07Z</time>
      </trkpt>
      <trkpt lat="46.0408" lon="3.62251">
        <ele>519.65735</ele>
        <time>2012-09-08T12:15:22Z</time>
      </trkpt>
      <trkpt lat="46.04084" lon="3.62225">
        <ele>519.5549</ele>
        <time>2012-09-08T12:15:36Z</time>
      </trkpt>
      <trkpt lat="46.04078" lon="3.62199">
        <ele>518.2157</ele>
        <time>2012-09-08T12:15:47Z</time>
      </trkpt>
      <trkpt lat="46.04068" lon="3.62173">
        <ele>517.6028</ele>
        <time>2012-09-08T12:15:56Z</time>
      </trkpt>
      <trkpt lat="46.04059" lon="3.6215">
        <ele>517.55963</ele>
        <time>2012-09-08T12:16:03Z</time>
      </trkpt>
      <trkpt lat="46.04044" lon="3.62135">
        <ele>518.543</ele>
        <time>2012-09-08T12:16:21Z</time>
      </trkpt>
      <trkpt lat="46.04031" lon="3.62115">
        <ele>513.5921</ele>
        <time>2012-09-08T12:18:08Z</time>
      </trkpt>
      <trkpt lat="46.04029" lon="3.6209">
        <ele>508.09995</ele>
        <time>2012-09-08T12:18:21Z</time>
      </trkpt>
      <trkpt lat="46.04021" lon="3.62066">
        <ele>499.83203</ele>
        <time>2012-09-08T12:18:33Z</time>
      </trkpt>
      <trkpt lat="46.04018" lon="3.6204">
        <ele>491.96628</ele>
        <time>2012-09-08T12:18:56Z</time>
      </trkpt>
      <trkpt lat="46.0403" lon="3.62019">
        <ele>493.74698</ele>
        <time>2012-09-08T12:19:16Z</time>
      </trkpt>
      <trkpt lat="46.04033" lon="3.61993">
        <ele>498.8164</ele>
        <time>2012-09-08T12:19:33Z</time>
      </trkpt>
      <trkpt lat="46.04039" lon="3.61967">
        <ele>505.00613</ele>
        <time>2012-09-08T12:20:07Z</time>
      </trkpt>
      <trkpt lat="46.04056" lon="3.61957">
        <ele>511.3948</ele>
        <time>2012-09-08T12:20:42Z</time>
      </trkpt>
      <trkpt lat="46.04073" lon="3.61948">
        <ele>517.5528</ele>
        <time>2012-09-08T12:21:34Z</time>
      </trkpt>
      <trkpt lat="46.04057" lon="3.61935">
        <ele>521.0378</ele>
        <time>2012-09-08T12:22:08Z</time>
      </trkpt>
      <trkpt lat="46.04039" lon="3.61944">
        <ele>523.168</ele>
        <time>2012-09-08T12:22:21Z</time>
      </trkpt>
      <trkpt lat="46.04019" lon="3.61942">
        <ele>524.4898</ele>
        <time>2012-09-08T12:22:35Z</time>
      </trkpt>
      <trkpt lat="46.04001" lon="3.61933">
        <ele>523.7247</ele>
        <time>2012-09-08T12:22:43Z</time>
      </trkpt>
      <trkpt lat="46.03982" lon="3.61924">
        <ele>522.49817</ele>
        <time>2012-09-08T12:22:51Z</time>
      </trkpt>
      <trkpt lat="46.03963" lon="3.61912">
        <ele>521.62396</ele>
        <time>2012-09-08T12:23:00Z</time>
      </trkpt>
      <trkpt lat="46.03946" lon="3.61903">
        <ele>521.55597</ele>
        <time>2012-09-08T12:23:11Z</time>
      </trkpt>
      <trkpt lat="46.03935" lon="3.61879">
        <ele>521.553</ele>
        <time>2012-09-08T12:23:33Z</time>
      </trkpt>
      <trkpt lat="46.03936" lon="3.61849">
        <ele>519.4279</ele>
        <time>2012-09-08T12:23:43Z</time>
      </trkpt>
      <trkpt lat="46.03935" lon="3.61819">
        <ele>516.2959</ele>
        <time>2012-09-08T12:23:49Z</time>
      </trkpt>
      <trkpt lat="46.03932" lon="3.61791">
        <ele>512.97943</ele>
        <time>2012-09-08T12:23:55Z</time>
      </trkpt>
      <trkpt lat="46.03926" lon="3.61763">
        <ele>509.2065</ele>
        <time>2012-09-08T12:24:01Z</time>
      </trkpt>
      <trkpt lat="46.03922" lon="3.61736">
        <ele>505.65417</ele>
        <time>2012-09-08T12:24:07Z</time>
      </trkpt>
      <trkpt lat="46.03918" lon="3.6171">
        <ele>501.30603</ele>
        <time>2012-09-08T12:24:15Z</time>
      </trkpt>
      <trkpt lat="46.03909" lon="3.61686">
        <ele>496.3274</ele>
        <time>2012-09-08T12:24:24Z</time>
      </trkpt>
      <trkpt lat="46.03896" lon="3.61665">
        <ele>491.6752</ele>
        <time>2012-09-08T12:24:41Z</time>
      </trkpt>
      <trkpt lat="46.03878" lon="3.61663">
        <ele>489.63126</ele>
        <time>2012-09-08T12:25:17Z</time>
      </trkpt>
      <trkpt lat="46.03858" lon="3.6166">
        <ele>487.83502</ele>
        <time>2012-09-08T12:25:29Z</time>
      </trkpt>
      <trkpt lat="46.0384" lon="3.61654">
        <ele>486.68134</ele>
        <time>2012-09-08T12:25:37Z</time>
      </trkpt>
      <trkpt lat="46.03822" lon="3.6165">
        <ele>485.66034</ele>
        <time>2012-09-08T12:25:47Z</time>
      </trkpt>
      <trkpt lat="46.03804" lon="3.6165">
        <ele>486.52277</ele>
        <time>2012-09-08T12:26:02Z</time>
      </trkpt>
      <trkpt lat="46.03785" lon="3.61645">
        <ele>488.63687</ele>
        <time>2012-09-08T12:26:14Z</time>
      </trkpt>
      <trkpt lat="46.03767" lon="3.61637">
        <ele>491.7897</ele>
        <time>2012-09-08T12:26:26Z</time>
      </trkpt>
      <trkpt lat="46.0375" lon="3.61628">
        <ele>496.2967</ele>
        <time>2012-09-08T12:26:36Z</time>
      </trkpt>
      <trkpt lat="46.03732" lon="3.61618">
        <ele>499.0107</ele>
        <time>2012-09-08T12:26:44Z</time>
      </trkpt>
      <trkpt lat="46.03715" lon="3.61609">
        <ele>500.00244</ele>
        <time>2012-09-08T12:26:49Z</time>
      </trkpt>
      <trkpt lat="46.03695" lon="3.61603">
        <ele>500.72952</ele>
        <time>2012-09-08T12:26:56Z</time>
      </trkpt>
      <trkpt lat="46.03678" lon="3.61594">
        <ele>501.69308</ele>
        <time>2012-09-08T12:27:03Z</time>
      </trkpt>
      <trkpt lat="46.0366" lon="3.6159">
        <ele>503.4005</ele>
        <time>2012-09-08T12:27:11Z</time>
      </trkpt>
      <trkpt lat="46.03641" lon="3.61583">
        <ele>505.7921</ele>
        <time>2012-09-08T12:27:21Z</time>
      </trkpt>
      <trkpt lat="46.03623" lon="3.61575">
        <ele>508.12936</ele>
        <time>2012-09-08T12:27:32Z</time>
      </trkpt>
      <trkpt lat="46.03605" lon="3.61566">
        <ele>509.85858</ele>
        <time>2012-09-08T12:27:41Z</time>
      </trkpt>
      <trkpt lat="46.03587" lon="3.6156">
        <ele>511.42355</ele>
        <time>2012-09-08T12:27:52Z</time>
      </trkpt>
      <trkpt lat="46.03569" lon="3.61557">
        <ele>511.30246</ele>
        <time>2012-09-08T12:28:11Z</time>
      </trkpt>
      <trkpt lat="46.0355" lon="3.61555">
        <ele>509.90106</ele>
        <time>2012-09-08T12:28:22Z</time>
      </trkpt>
      <trkpt lat="46.03532" lon="3.61549">
        <ele>510.20868</ele>
        <time>2012-09-08T12:28:37Z</time>
      </trkpt>
      <trkpt lat="46.03514" lon="3.61547">
        <ele>512.81445</ele>
        <time>2012-09-08T12:28:49Z</time>
      </trkpt>
      <trkpt lat="46.03495" lon="3.61542">
        <ele>513.47906</ele>
        <time>2012-09-08T12:28:57Z</time>
      </trkpt>
      <trkpt lat="46.03475" lon="3.61542">
        <ele>513.7956</ele>
        <time>2012-09-08T12:29:05Z</time>
      </trkpt>
      <trkpt lat="46.03457" lon="3.6154">
        <ele>515.2126</ele>
        <time>2012-09-08T12:29:17Z</time>
      </trkpt>
      <trkpt lat="46.03439" lon="3.6154">
        <ele>516.90106</ele>
        <time>2012-09-08T12:29:28Z</time>
      </trkpt>
      <trkpt lat="46.03421" lon="3.61538">
        <ele>518.64197</ele>
        <time>2012-09-08T12:29:39Z</time>
      </trkpt>
      <trkpt lat="46.03403" lon="3.6153">
        <ele>520.8615</ele>
        <time>2012-09-08T12:29:51Z</time>
      </trkpt>
      <trkpt lat="46.03385" lon="3.61521">
        <ele>522.3458</ele>
        <time>2012-09-08T12:30:02Z</time>
      </trkpt>
      <trkpt lat="46.03366" lon="3.61515">
        <ele>523.1224</ele>
        <time>2012-09-08T12:30:13Z</time>
      </trkpt>
      <trkpt lat="46.03348" lon="3.61521">
        <ele>525.3683</ele>
        <time>2012-09-08T12:30:24Z</time>
      </trkpt>
      <trkpt lat="46.0333" lon="3.61534">
        <ele>527.83453</ele>
        <time>2012-09-08T12:30:32Z</time>
      </trkpt>
      <trkpt lat="46.03314" lon="3.61547">
        <ele>530.2812</ele>
        <time>2012-09-08T12:30:40Z</time>
      </trkpt>
      <trkpt lat="46.03297" lon="3.61562">
        <ele>532.8258</ele>
        <time>2012-09-08T12:30:48Z</time>
      </trkpt>
      <trkpt lat="46.03278" lon="3.6157">
        <ele>534.9006</ele>
        <time>2012-09-08T12:30:55Z</time>
      </trkpt>
      <trkpt lat="46.03259" lon="3.61575">
        <ele>536.5379</ele>
        <time>2012-09-08T12:31:02Z</time>
      </trkpt>
      <trkpt lat="46.03238" lon="3.61581">
        <ele>537.855</ele>
        <time>2012-09-08T12:31:09Z</time>
      </trkpt>
      <trkpt lat="46.03219" lon="3.61588">
        <ele>538.4831</ele>
        <time>2012-09-08T12:31:17Z</time>
      </trkpt>
      <trkpt lat="46.03202" lon="3.61598">
        <ele>539.36975</ele>
        <time>2012-09-08T12:31:26Z</time>
      </trkpt>
      <trkpt lat="46.03189" lon="3.6162">
        <ele>539.54266</ele>
        <time>2012-09-08T12:31:36Z</time>
      </trkpt>
      <trkpt lat="46.03178" lon="3.61643">
        <ele>539.5527</ele>
        <time>2012-09-08T12:31:48Z</time>
      </trkpt>
      <trkpt lat="46.03166" lon="3.61665">
        <ele>539.553</ele>
        <time>2012-09-08T12:31:59Z</time>
      </trkpt>
      <trkpt lat="46.03156" lon="3.61686">
        <ele>540.4967</ele>
        <time>2012-09-08T12:32:09Z</time>
      </trkpt>
      <trkpt lat="46.03142" lon="3.61706">
        <ele>541.4171</ele>
        <time>2012-09-08T12:32:20Z</time>
      </trkpt>
      <trkpt lat="46.03126" lon="3.61723">
        <ele>542.6207</ele>
        <time>2012-09-08T12:32:32Z</time>
      </trkpt>
      <trkpt lat="46.03111" lon="3.6174">
        <ele>546.0887</ele>
        <time>2012-09-08T12:32:43Z</time>
      </trkpt>
      <trkpt lat="46.03091" lon="3.61738">
        <ele>549.16205</ele>
        <time>2012-09-08T12:32:51Z</time>
      </trkpt>
      <trkpt lat="46.03073" lon="3.61736">
        <ele>551.5675</ele>
        <time>2012-09-08T12:32:58Z</time>
      </trkpt>
      <trkpt lat="46.03054" lon="3.61731">
        <ele>554.081</ele>
        <time>2012-09-08T12:33:08Z</time>
      </trkpt>
      <trkpt lat="46.03035" lon="3.61731">
        <ele>556.1537</ele>
        <time>2012-09-08T12:33:18Z</time>
      </trkpt>
      <trkpt lat="46.03017" lon="3.61736">
        <ele>557.70544</ele>
        <time>2012-09-08T12:33:28Z</time>
      </trkpt>
      <trkpt lat="46.02999" lon="3.61742">
        <ele>558.7672</ele>
        <time>2012-09-08T12:33:39Z</time>
      </trkpt>
      <trkpt lat="46.0298" lon="3.61736">
        <ele>560.59186</ele>
        <time>2012-09-08T12:33:50Z</time>
      </trkpt>
      <trkpt lat="46.02962" lon="3.61727">
        <ele>562.1825</ele>
        <time>2012-09-08T12:34:00Z</time>
      </trkpt>
      <trkpt lat="46.02945" lon="3.61718">
        <ele>563.6041</ele>
        <time>2012-09-08T12:34:10Z</time>
      </trkpt>
      <trkpt lat="46.02928" lon="3.61727">
        <ele>575.76074</ele>
        <time>2012-09-08T12:38:45Z</time>
      </trkpt>
      <trkpt lat="46.02919" lon="3.61751">
        <ele>577.82355</ele>
        <time>2012-09-08T12:38:56Z</time>
      </trkpt>
      <trkpt lat="46.02908" lon="3.61772">
        <ele>579.07635</ele>
        <time>2012-09-08T12:39:05Z</time>
      </trkpt>
      <trkpt lat="46.02893" lon="3.61787">
        <ele>579.7553</ele>
        <time>2012-09-08T12:39:13Z</time>
      </trkpt>
      <trkpt lat="46.02877" lon="3.61802">
        <ele>580.47314</ele>
        <time>2012-09-08T12:39:21Z</time>
      </trkpt>
      <trkpt lat="46.02861" lon="3.61817">
        <ele>580.545</ele>
        <time>2012-09-08T12:39:29Z</time>
      </trkpt>
      <trkpt lat="46.02842" lon="3.61828">
        <ele>581.41846</ele>
        <time>2012-09-08T12:39:36Z</time>
      </trkpt>
      <trkpt lat="46.02825" lon="3.61839">
        <ele>582.69403</ele>
        <time>2012-09-08T12:39:40Z</time>
      </trkpt>
      <trkpt lat="46.02808" lon="3.61847">
        <ele>586.05</ele>
        <time>2012-09-08T12:39:43Z</time>
      </trkpt>
      <trkpt lat="46.02784" lon="3.61854">
        <ele>589.48145</ele>
        <time>2012-09-08T12:39:46Z</time>
      </trkpt>
      <trkpt lat="46.02759" lon="3.6186">
        <ele>592.0853</ele>
        <time>2012-09-08T12:39:49Z</time>
      </trkpt>
      <trkpt lat="46.02734" lon="3.6186">
        <ele>593.94946</ele>
        <time>2012-09-08T12:39:52Z</time>
      </trkpt>
      <trkpt lat="46.02711" lon="3.61862">
        <ele>594.8765</ele>
        <time>2012-09-08T12:39:55Z</time>
      </trkpt>
      <trkpt lat="46.02689" lon="3.61871">
        <ele>595.2676</ele>
        <time>2012-09-08T12:39:58Z</time>
      </trkpt>
      <trkpt lat="46.02671" lon="3.61881">
        <ele>595.4326</ele>
        <time>2012-09-08T12:40:01Z</time>
      </trkpt>
      <trkpt lat="46.02652" lon="3.61886">
        <ele>594.9241</ele>
        <time>2012-09-08T12:40:04Z</time>
      </trkpt>
      <trkpt lat="46.02634" lon="3.61886">
        <ele>594.70953</ele>
        <time>2012-09-08T12:40:07Z</time>
      </trkpt>
      <trkpt lat="46.02615" lon="3.61879">
        <ele>594.0409</ele>
        <time>2012-09-08T12:40:10Z</time>
      </trkpt>
      <trkpt lat="46.02594" lon="3.61871">
        <ele>593.75885</ele>
        <time>2012-09-08T12:40:13Z</time>
      </trkpt>
      <trkpt lat="46.02577" lon="3.61858">
        <ele>593.1806</ele>
        <time>2012-09-08T12:40:17Z</time>
      </trkpt>
      <trkpt lat="46.02559" lon="3.61845">
        <ele>592.22723</ele>
        <time>2012-09-08T12:40:23Z</time>
      </trkpt>
      <trkpt lat="46.02538" lon="3.61834">
        <ele>590.6452</ele>
        <time>2012-09-08T12:40:27Z</time>
      </trkpt>
      <trkpt lat="46.02519" lon="3.61828">
        <ele>588.77747</ele>
        <time>2012-09-08T12:40:31Z</time>
      </trkpt>
      <trkpt lat="46.02498" lon="3.61828">
        <ele>586.56934</ele>
        <time>2012-09-08T12:40:35Z</time>
      </trkpt>
      <trkpt lat="46.02474" lon="3.6183">
        <ele>584.7161</ele>
        <time>2012-09-08T12:40:38Z</time>
      </trkpt>
      <trkpt lat="46.02452" lon="3.61836">
        <ele>583.0281</ele>
        <time>2012-09-08T12:40:41Z</time>
      </trkpt>
      <trkpt lat="46.02428" lon="3.61843">
        <ele>581.34717</ele>
        <time>2012-09-08T12:40:44Z</time>
      </trkpt>
      <trkpt lat="46.02404" lon="3.61847">
        <ele>578.6068</ele>
        <time>2012-09-08T12:40:47Z</time>
      </trkpt>
      <trkpt lat="46.02379" lon="3.61854">
        <ele>576.1538</ele>
        <time>2012-09-08T12:40:50Z</time>
      </trkpt>
      <trkpt lat="46.02356" lon="3.61862">
        <ele>574.2127</ele>
        <time>2012-09-08T12:40:53Z</time>
      </trkpt>
      <trkpt lat="46.02336" lon="3.61873">
        <ele>573.0032</ele>
        <time>2012-09-08T12:40:56Z</time>
      </trkpt>
      <trkpt lat="46.02316" lon="3.61881">
        <ele>571.7273</ele>
        <time>2012-09-08T12:40:59Z</time>
      </trkpt>
      <trkpt lat="46.02295" lon="3.61892">
        <ele>570.6109</ele>
        <time>2012-09-08T12:41:02Z</time>
      </trkpt>
      <trkpt lat="46.02279" lon="3.61914">
        <ele>569.4212</ele>
        <time>2012-09-08T12:41:05Z</time>
      </trkpt>
      <trkpt lat="46.02268" lon="3.61937">
        <ele>567.553</ele>
        <time>2012-09-08T12:42:49Z</time>
      </trkpt>
      <trkpt lat="46.02253" lon="3.61961">
        <ele>566.72485</ele>
        <time>2012-09-08T12:42:53Z</time>
      </trkpt>
      <trkpt lat="46.02237" lon="3.61982">
        <ele>565.21924</ele>
        <time>2012-09-08T12:42:56Z</time>
      </trkpt>
      <trkpt lat="46.02219" lon="3.6201">
        <ele>564.256</ele>
        <time>2012-09-08T12:42:59Z</time>
      </trkpt>
      <trkpt lat="46.02206" lon="3.6203">
        <ele>563.9484</ele>
        <time>2012-09-08T12:43:01Z</time>
      </trkpt>
      <trkpt lat="46.02194" lon="3.62053">
        <ele>564.2129</ele>
        <time>2012-09-08T12:43:03Z</time>
      </trkpt>
      <trkpt lat="46.02181" lon="3.62075">
        <ele>565.0492</ele>
        <time>2012-09-08T12:43:05Z</time>
      </trkpt>
      <trkpt lat="46.02164" lon="3.62092">
        <ele>565.7071</ele>
        <time>2012-09-08T12:43:07Z</time>
      </trkpt>
      <trkpt lat="46.02147" lon="3.62103">
        <ele>565.8272</ele>
        <time>2012-09-08T12:43:09Z</time>
      </trkpt>
      <trkpt lat="46.02126" lon="3.62113">
        <ele>565.2312</ele>
        <time>2012-09-08T12:43:12Z</time>
      </trkpt>
      <trkpt lat="46.02107" lon="3.62113">
        <ele>564.4016</ele>
        <time>2012-09-08T12:43:15Z</time>
      </trkpt>
      <trkpt lat="46.02089" lon="3.62113">
        <ele>563.4735</ele>
        <time>2012-09-08T12:43:18Z</time>
      </trkpt>
      <trkpt lat="46.02066" lon="3.62113">
        <ele>562.2661</ele>
        <time>2012-09-08T12:43:22Z</time>
      </trkpt>
      <trkpt lat="46.02045" lon="3.62115">
        <ele>560.5882</ele>
        <time>2012-09-08T12:43:25Z</time>
      </trkpt>
      <trkpt lat="46.02027" lon="3.62118">
        <ele>558.3228</ele>
        <time>2012-09-08T12:43:27Z</time>
      </trkpt>
      <trkpt lat="46.02005" lon="3.62118">
        <ele>555.736</ele>
        <time>2012-09-08T12:43:29Z</time>
      </trkpt>
      <trkpt lat="46.01985" lon="3.62115">
        <ele>553.21844</ele>
        <time>2012-09-08T12:43:31Z</time>
      </trkpt>
      <trkpt lat="46.01965" lon="3.62115">
        <ele>550.9273</ele>
        <time>2012-09-08T12:43:33Z</time>
      </trkpt>
      <trkpt lat="46.01948" lon="3.62107">
        <ele>549.45105</ele>
        <time>2012-09-08T12:43:35Z</time>
      </trkpt>
      <trkpt lat="46.01931" lon="3.62094">
        <ele>548.18317</ele>
        <time>2012-09-08T12:43:37Z</time>
      </trkpt>
      <trkpt lat="46.01915" lon="3.62079">
        <ele>547.47</ele>
        <time>2012-09-08T12:43:39Z</time>
      </trkpt>
      <trkpt lat="46.01895" lon="3.6206">
        <ele>546.6898</ele>
        <time>2012-09-08T12:43:42Z</time>
      </trkpt>
      <trkpt lat="46.01879" lon="3.62036">
        <ele>544.8971</ele>
        <time>2012-09-08T12:43:46Z</time>
      </trkpt>
      <trkpt lat="46.01867" lon="3.6201">
        <ele>542.8572</ele>
        <time>2012-09-08T12:43:50Z</time>
      </trkpt>
      <trkpt lat="46.01858" lon="3.61987">
        <ele>541.3875</ele>
        <time>2012-09-08T12:43:54Z</time>
      </trkpt>
      <trkpt lat="46.01846" lon="3.61963">
        <ele>540.31354</ele>
        <time>2012-09-08T12:43:59Z</time>
      </trkpt>
      <trkpt lat="46.01838" lon="3.61939">
        <ele>539.2155</ele>
        <time>2012-09-08T12:44:03Z</time>
      </trkpt>
      <trkpt lat="46.01831" lon="3.61916">
        <ele>537.9475</ele>
        <time>2012-09-08T12:44:08Z</time>
      </trkpt>
      <trkpt lat="46.01822" lon="3.61892">
        <ele>535.04114</ele>
        <time>2012-09-08T12:44:12Z</time>
      </trkpt>
      <trkpt lat="46.01808" lon="3.61871">
        <ele>531.5714</ele>
        <time>2012-09-08T12:44:15Z</time>
      </trkpt>
      <trkpt lat="46.01796" lon="3.61849">
        <ele>529.56335</ele>
        <time>2012-09-08T12:44:17Z</time>
      </trkpt>
      <trkpt lat="46.0178" lon="3.6183">
        <ele>527.55884</ele>
        <time>2012-09-08T12:44:19Z</time>
      </trkpt>
      <trkpt lat="46.01762" lon="3.61813">
        <ele>525.8063</ele>
        <time>2012-09-08T12:44:21Z</time>
      </trkpt>
      <trkpt lat="46.01742" lon="3.618">
        <ele>524.133</ele>
        <time>2012-09-08T12:44:23Z</time>
      </trkpt>
      <trkpt lat="46.01722" lon="3.61791">
        <ele>522.0667</ele>
        <time>2012-09-08T12:44:25Z</time>
      </trkpt>
      <trkpt lat="46.01699" lon="3.61776">
        <ele>518.7697</ele>
        <time>2012-09-08T12:44:28Z</time>
      </trkpt>
      <trkpt lat="46.01675" lon="3.61768">
        <ele>513.5374</ele>
        <time>2012-09-08T12:44:39Z</time>
      </trkpt>
      <trkpt lat="46.01657" lon="3.61757">
        <ele>511.45987</ele>
        <time>2012-09-08T12:44:52Z</time>
      </trkpt>
      <trkpt lat="46.01637" lon="3.61744">
        <ele>509.6311</ele>
        <time>2012-09-08T12:45:00Z</time>
      </trkpt>
      <trkpt lat="46.0162" lon="3.61731">
        <ele>507.64822</ele>
        <time>2012-09-08T12:45:08Z</time>
      </trkpt>
      <trkpt lat="46.01605" lon="3.61714">
        <ele>504.88727</ele>
        <time>2012-09-08T12:45:16Z</time>
      </trkpt>
      <trkpt lat="46.01585" lon="3.61701">
        <ele>501.4112</ele>
        <time>2012-09-08T12:45:24Z</time>
      </trkpt>
      <trkpt lat="46.01569" lon="3.61684">
        <ele>496.05106</ele>
        <time>2012-09-08T12:45:32Z</time>
      </trkpt>
      <trkpt lat="46.01548" lon="3.61669">
        <ele>491.33566</ele>
        <time>2012-09-08T12:45:39Z</time>
      </trkpt>
      <trkpt lat="46.0153" lon="3.61673">
        <ele>488.38522</ele>
        <time>2012-09-08T12:45:44Z</time>
      </trkpt>
      <trkpt lat="46.01512" lon="3.61699">
        <ele>485.46115</ele>
        <time>2012-09-08T12:45:56Z</time>
      </trkpt>
      <trkpt lat="46.01502" lon="3.61723">
        <ele>482.45605</ele>
        <time>2012-09-08T12:46:16Z</time>
      </trkpt>
      <trkpt lat="46.01494" lon="3.61748">
        <ele>480.74707</ele>
        <time>2012-09-08T12:46:30Z</time>
      </trkpt>
      <trkpt lat="46.01467" lon="3.61757">
        <ele>479.61392</ele>
        <time>2012-09-08T12:46:43Z</time>
      </trkpt>
      <trkpt lat="46.01447" lon="3.61757">
        <ele>478.68906</ele>
        <time>2012-09-08T12:46:54Z</time>
      </trkpt>
      <trkpt lat="46.01426" lon="3.61748">
        <ele>477.4383</ele>
        <time>2012-09-08T12:47:09Z</time>
      </trkpt>
      <trkpt lat="46.01408" lon="3.61744">
        <ele>476.64163</ele>
        <time>2012-09-08T12:47:17Z</time>
      </trkpt>
      <trkpt lat="46.01391" lon="3.61757">
        <ele>476.31482</ele>
        <time>2012-09-08T12:47:24Z</time>
      </trkpt>
      <trkpt lat="46.01374" lon="3.61774">
        <ele>475.2963</ele>
        <time>2012-09-08T12:47:29Z</time>
      </trkpt>
      <trkpt lat="46.01366" lon="3.61798">
        <ele>473.13855</ele>
        <time>2012-09-08T12:47:34Z</time>
      </trkpt>
      <trkpt lat="46.01357" lon="3.61821">
        <ele>471.35114</ele>
        <time>2012-09-08T12:47:39Z</time>
      </trkpt>
      <trkpt lat="46.0135" lon="3.61845">
        <ele>470.22742</ele>
        <time>2012-09-08T12:47:43Z</time>
      </trkpt>
      <trkpt lat="46.01342" lon="3.61875">
        <ele>468.98944</ele>
        <time>2012-09-08T12:47:49Z</time>
      </trkpt>
      <trkpt lat="46.01336" lon="3.61903">
        <ele>468.40656</ele>
        <time>2012-09-08T12:47:54Z</time>
      </trkpt>
      <trkpt lat="46.01333" lon="3.61931">
        <ele>467.75555</ele>
        <time>2012-09-08T12:47:59Z</time>
      </trkpt>
      <trkpt lat="46.01337" lon="3.61957">
        <ele>466.99515</ele>
        <time>2012-09-08T12:48:07Z</time>
      </trkpt>
      <trkpt lat="46.01341" lon="3.61982">
        <ele>466.8362</ele>
        <time>2012-09-08T12:48:16Z</time>
      </trkpt>
      <trkpt lat="46.01342" lon="3.62012">
        <ele>468.51187</ele>
        <time>2012-09-08T12:48:25Z</time>
      </trkpt>
      <trkpt lat="46.01341" lon="3.6204">
        <ele>471.59445</ele>
        <time>2012-09-08T12:48:35Z</time>
      </trkpt>
      <trkpt lat="46.01331" lon="3.62062">
        <ele>474.58112</ele>
        <time>2012-09-08T12:48:44Z</time>
      </trkpt>
      <trkpt lat="46.01317" lon="3.62079">
        <ele>479.3454</ele>
        <time>2012-09-08T12:49:01Z</time>
      </trkpt>
      <trkpt lat="46.013" lon="3.6209">
        <ele>485.04547</ele>
        <time>2012-09-08T12:49:24Z</time>
      </trkpt>
      <trkpt lat="46.01286" lon="3.62107">
        <ele>488.67728</ele>
        <time>2012-09-08T12:49:43Z</time>
      </trkpt>
      <trkpt lat="46.01275" lon="3.62128">
        <ele>489.46533</ele>
        <time>2012-09-08T12:49:51Z</time>
      </trkpt>
      <trkpt lat="46.01262" lon="3.6215">
        <ele>490.8453</ele>
        <time>2012-09-08T12:49:58Z</time>
      </trkpt>
      <trkpt lat="46.01247" lon="3.62167">
        <ele>492.62723</ele>
        <time>2012-09-08T12:50:04Z</time>
      </trkpt>
      <trkpt lat="46.01233" lon="3.62184">
        <ele>494.0169</ele>
        <time>2012-09-08T12:50:09Z</time>
      </trkpt>
      <trkpt lat="46.01219" lon="3.62208">
        <ele>494.42578</ele>
        <time>2012-09-08T12:50:14Z</time>
      </trkpt>
      <trkpt lat="46.01208" lon="3.62231">
        <ele>494.76276</ele>
        <time>2012-09-08T12:50:18Z</time>
      </trkpt>
      <trkpt lat="46.01199" lon="3.62255">
        <ele>495.61548</ele>
        <time>2012-09-08T12:50:23Z</time>
      </trkpt>
      <trkpt lat="46.0119" lon="3.62283">
        <ele>496.96426</ele>
        <time>2012-09-08T12:50:29Z</time>
      </trkpt>
      <trkpt lat="46.01177" lon="3.62304">
        <ele>498.6135</ele>
        <time>2012-09-08T12:50:34Z</time>
      </trkpt>
      <trkpt lat="46.01162" lon="3.62321">
        <ele>499.59415</ele>
        <time>2012-09-08T12:50:37Z</time>
      </trkpt>
      <trkpt lat="46.01147" lon="3.62343">
        <ele>500.14847</ele>
        <time>2012-09-08T12:50:40Z</time>
      </trkpt>
      <trkpt lat="46.01131" lon="3.62369">
        <ele>500.86252</ele>
        <time>2012-09-08T12:50:44Z</time>
      </trkpt>
      <trkpt lat="46.01117" lon="3.62403">
        <ele>502.9648</ele>
        <time>2012-09-08T12:50:47Z</time>
      </trkpt>
      <trkpt lat="46.01105" lon="3.62429">
        <ele>505.85516</ele>
        <time>2012-09-08T12:50:51Z</time>
      </trkpt>
      <trkpt lat="46.01096" lon="3.62454">
        <ele>507.1501</ele>
        <time>2012-09-08T12:50:56Z</time>
      </trkpt>
      <trkpt lat="46.01075" lon="3.62478">
        <ele>509.8655</ele>
        <time>2012-09-08T12:52:47Z</time>
      </trkpt>
      <trkpt lat="46.0106" lon="3.62461">
        <ele>517.43933</ele>
        <time>2012-09-08T12:52:56Z</time>
      </trkpt>
      <trkpt lat="46.01046" lon="3.62433">
        <ele>515.0021</ele>
        <time>2012-09-08T12:53:12Z</time>
      </trkpt>
      <trkpt lat="46.0103" lon="3.62418">
        <ele>511.28992</ele>
        <time>2012-09-08T12:53:23Z</time>
      </trkpt>
      <trkpt lat="46.01011" lon="3.62411">
        <ele>507.39334</ele>
        <time>2012-09-08T12:53:34Z</time>
      </trkpt>
      <trkpt lat="46.00992" lon="3.62416">
        <ele>504.36917</ele>
        <time>2012-09-08T12:53:43Z</time>
      </trkpt>
      <trkpt lat="46.00972" lon="3.62418">
        <ele>500.86765</ele>
        <time>2012-09-08T12:53:51Z</time>
      </trkpt>
      <trkpt lat="46.00952" lon="3.62418">
        <ele>497.31683</ele>
        <time>2012-09-08T12:54:01Z</time>
      </trkpt>
      <trkpt lat="46.00932" lon="3.62418">
        <ele>494.24237</ele>
        <time>2012-09-08T12:54:13Z</time>
      </trkpt>
      <trkpt lat="46.00913" lon="3.62418">
        <ele>492.11884</ele>
        <time>2012-09-08T12:54:31Z</time>
      </trkpt>
      <trkpt lat="46.00928" lon="3.62433">
        <ele>496.53732</ele>
        <time>2012-09-08T12:55:06Z</time>
      </trkpt>
      <trkpt lat="46.00945" lon="3.6245">
        <ele>501.98093</ele>
        <time>2012-09-08T12:55:11Z</time>
      </trkpt>
      <trkpt lat="46.00963" lon="3.62465">
        <ele>507.677</ele>
        <time>2012-09-08T12:55:16Z</time>
      </trkpt>
      <trkpt lat="46.00976" lon="3.62484">
        <ele>510.04114</ele>
        <time>2012-09-08T12:55:22Z</time>
      </trkpt>
      <trkpt lat="46.00985" lon="3.62517">
        <ele>509.7744</ele>
        <time>2012-09-08T12:55:28Z</time>
      </trkpt>
      <trkpt lat="46.00976" lon="3.62545">
        <ele>506.92755</ele>
        <time>2012-09-08T12:55:30Z</time>
      </trkpt>
      <trkpt lat="46.00963" lon="3.62575">
        <ele>503.45117</ele>
        <time>2012-09-08T12:55:32Z</time>
      </trkpt>
      <trkpt lat="46.00951" lon="3.626">
        <ele>500.87073</ele>
        <time>2012-09-08T12:55:34Z</time>
      </trkpt>
      <trkpt lat="46.00937" lon="3.62626">
        <ele>498.95267</ele>
        <time>2012-09-08T12:55:37Z</time>
      </trkpt>
      <trkpt lat="46.00922" lon="3.62656">
        <ele>497.88513</ele>
        <time>2012-09-08T12:55:42Z</time>
      </trkpt>
      <trkpt lat="46.00911" lon="3.62684">
        <ele>498.7607</ele>
        <time>2012-09-08T12:55:53Z</time>
      </trkpt>
      <trkpt lat="46.00898" lon="3.62703">
        <ele>499.88043</ele>
        <time>2012-09-08T12:55:57Z</time>
      </trkpt>
      <trkpt lat="46.00886" lon="3.62731">
        <ele>501.077</ele>
        <time>2012-09-08T12:56:02Z</time>
      </trkpt>
      <trkpt lat="46.00879" lon="3.62759">
        <ele>501.40237</ele>
        <time>2012-09-08T12:56:06Z</time>
      </trkpt>
      <trkpt lat="46.00879" lon="3.62789">
        <ele>502.3109</ele>
        <time>2012-09-08T12:56:18Z</time>
      </trkpt>
      <trkpt lat="46.00884" lon="3.62819">
        <ele>502.77878</ele>
        <time>2012-09-08T12:56:26Z</time>
      </trkpt>
      <trkpt lat="46.00891" lon="3.62845">
        <ele>505.88904</ele>
        <time>2012-09-08T12:56:40Z</time>
      </trkpt>
      <trkpt lat="46.00909" lon="3.62875">
        <ele>513.7103</ele>
        <time>2012-09-08T12:57:03Z</time>
      </trkpt>
      <trkpt lat="46.00922" lon="3.62896">
        <ele>518.7949</ele>
        <time>2012-09-08T12:57:17Z</time>
      </trkpt>
      <trkpt lat="46.00933" lon="3.6292">
        <ele>527.03467</ele>
        <time>2012-09-08T12:58:40Z</time>
      </trkpt>
      <trkpt lat="46.00947" lon="3.62942">
        <ele>530.6956</ele>
        <time>2012-09-08T12:58:46Z</time>
      </trkpt>
      <trkpt lat="46.00965" lon="3.62959">
        <ele>534.1655</ele>
        <time>2012-09-08T12:58:52Z</time>
      </trkpt>
      <trkpt lat="46.00981" lon="3.62972">
        <ele>537.63983</ele>
        <time>2012-09-08T12:58:58Z</time>
      </trkpt>
      <trkpt lat="46.00998" lon="3.62984">
        <ele>542.7221</ele>
        <time>2012-09-08T12:59:07Z</time>
      </trkpt>
      <trkpt lat="46.01015" lon="3.62993">
        <ele>545.70874</ele>
        <time>2012-09-08T12:59:14Z</time>
      </trkpt>
      <trkpt lat="46.01031" lon="3.63006">
        <ele>547.5568</ele>
        <time>2012-09-08T12:59:21Z</time>
      </trkpt>
      <trkpt lat="46.01047" lon="3.63019">
        <ele>548.4969</ele>
        <time>2012-09-08T12:59:31Z</time>
      </trkpt>
      <trkpt lat="46.01062" lon="3.63034">
        <ele>548.55066</ele>
        <time>2012-09-08T12:59:42Z</time>
      </trkpt>
      <trkpt lat="46.01073" lon="3.63055">
        <ele>550.0888</ele>
        <time>2012-09-08T12:59:54Z</time>
      </trkpt>
      <trkpt lat="46.01081" lon="3.63079">
        <ele>552.29913</ele>
        <time>2012-09-08T13:00:05Z</time>
      </trkpt>
      <trkpt lat="46.01091" lon="3.63102">
        <ele>554.6166</ele>
        <time>2012-09-08T13:00:16Z</time>
      </trkpt>
      <trkpt lat="46.01102" lon="3.63124">
        <ele>556.2761</ele>
        <time>2012-09-08T13:00:27Z</time>
      </trkpt>
      <trkpt lat="46.01109" lon="3.6315">
        <ele>558.5924</ele>
        <time>2012-09-08T13:00:40Z</time>
      </trkpt>
      <trkpt lat="46.01106" lon="3.63175">
        <ele>569.73645</ele>
        <time>2012-09-08T13:04:25Z</time>
      </trkpt>
      <trkpt lat="46.01117" lon="3.63199">
        <ele>571.93634</ele>
        <time>2012-09-08T13:04:34Z</time>
      </trkpt>
      <trkpt lat="46.01127" lon="3.63223">
        <ele>574.23987</ele>
        <time>2012-09-08T13:04:46Z</time>
      </trkpt>
      <trkpt lat="46.01136" lon="3.63246">
        <ele>575.93835</ele>
        <time>2012-09-08T13:04:58Z</time>
      </trkpt>
      <trkpt lat="46.01144" lon="3.6327">
        <ele>576.77704</ele>
        <time>2012-09-08T13:05:09Z</time>
      </trkpt>
      <trkpt lat="46.01155" lon="3.63293">
        <ele>578.10657</ele>
        <time>2012-09-08T13:05:21Z</time>
      </trkpt>
      <trkpt lat="46.01164" lon="3.63319">
        <ele>579.2177</ele>
        <time>2012-09-08T13:05:32Z</time>
      </trkpt>
      <trkpt lat="46.01173" lon="3.63343">
        <ele>580.2905</ele>
        <time>2012-09-08T13:05:41Z</time>
      </trkpt>
      <trkpt lat="46.01183" lon="3.63366">
        <ele>581.6881</ele>
        <time>2012-09-08T13:05:51Z</time>
      </trkpt>
      <trkpt lat="46.01189" lon="3.63392">
        <ele>583.50073</ele>
        <time>2012-09-08T13:06:00Z</time>
      </trkpt>
      <trkpt lat="46.012" lon="3.63414">
        <ele>585.296</ele>
        <time>2012-09-08T13:06:09Z</time>
      </trkpt>
      <trkpt lat="46.0121" lon="3.63435">
        <ele>587.0053</ele>
        <time>2012-09-08T13:06:17Z</time>
      </trkpt>
      <trkpt lat="46.01224" lon="3.63452">
        <ele>587.74817</ele>
        <time>2012-09-08T13:06:25Z</time>
      </trkpt>
      <trkpt lat="46.01241" lon="3.63469">
        <ele>588.4724</ele>
        <time>2012-09-08T13:06:33Z</time>
      </trkpt>
      <trkpt lat="46.01251" lon="3.63493">
        <ele>589.36426</ele>
        <time>2012-09-08T13:06:40Z</time>
      </trkpt>
      <trkpt lat="46.01259" lon="3.63517">
        <ele>590.2114</ele>
        <time>2012-09-08T13:06:47Z</time>
      </trkpt>
      <trkpt lat="46.01264" lon="3.63542">
        <ele>591.7517</ele>
        <time>2012-09-08T13:06:53Z</time>
      </trkpt>
      <trkpt lat="46.01272" lon="3.63566">
        <ele>593.094</ele>
        <time>2012-09-08T13:06:59Z</time>
      </trkpt>
      <trkpt lat="46.01282" lon="3.6359">
        <ele>595.4196</ele>
        <time>2012-09-08T13:07:07Z</time>
      </trkpt>
      <trkpt lat="46.01296" lon="3.63609">
        <ele>597.2022</ele>
        <time>2012-09-08T13:07:15Z</time>
      </trkpt>
      <trkpt lat="46.01311" lon="3.63626">
        <ele>598.9959</ele>
        <time>2012-09-08T13:07:23Z</time>
      </trkpt>
      <trkpt lat="46.01326" lon="3.63645">
        <ele>600.18085</ele>
        <time>2012-09-08T13:07:31Z</time>
      </trkpt>
      <trkpt lat="46.01341" lon="3.63662">
        <ele>601.81976</ele>
        <time>2012-09-08T13:07:39Z</time>
      </trkpt>
      <trkpt lat="46.01357" lon="3.63678">
        <ele>603.56995</ele>
        <time>2012-09-08T13:07:48Z</time>
      </trkpt>
      <trkpt lat="46.01372" lon="3.63693">
        <ele>605.2419</ele>
        <time>2012-09-08T13:07:57Z</time>
      </trkpt>
      <trkpt lat="46.01386" lon="3.63712">
        <ele>607.1628</ele>
        <time>2012-09-08T13:08:07Z</time>
      </trkpt>
      <trkpt lat="46.01399" lon="3.63733">
        <ele>608.63043</ele>
        <time>2012-09-08T13:08:15Z</time>
      </trkpt>
      <trkpt lat="46.01414" lon="3.63753">
        <ele>609.6388</ele>
        <time>2012-09-08T13:08:21Z</time>
      </trkpt>
      <trkpt lat="46.01428" lon="3.63772">
        <ele>610.8278</ele>
        <time>2012-09-08T13:08:27Z</time>
      </trkpt>
      <trkpt lat="46.01441" lon="3.63793">
        <ele>611.86145</ele>
        <time>2012-09-08T13:08:33Z</time>
      </trkpt>
      <trkpt lat="46.01453" lon="3.63815">
        <ele>612.42993</ele>
        <time>2012-09-08T13:08:39Z</time>
      </trkpt>
      <trkpt lat="46.01467" lon="3.63836">
        <ele>612.53107</ele>
        <time>2012-09-08T13:08:45Z</time>
      </trkpt>
      <trkpt lat="46.01478" lon="3.63858">
        <ele>612.9853</ele>
        <time>2012-09-08T13:08:50Z</time>
      </trkpt>
      <trkpt lat="46.01487" lon="3.63881">
        <ele>618.9353</ele>
        <time>2012-09-08T13:10:46Z</time>
      </trkpt>
      <trkpt lat="46.015" lon="3.63901">
        <ele>622.4798</ele>
        <time>2012-09-08T13:11:05Z</time>
      </trkpt>
      <trkpt lat="46.01515" lon="3.63916">
        <ele>622.9775</ele>
        <time>2012-09-08T13:11:11Z</time>
      </trkpt>
      <trkpt lat="46.01532" lon="3.63931">
        <ele>623.4762</ele>
        <time>2012-09-08T13:11:18Z</time>
      </trkpt>
      <trkpt lat="46.01551" lon="3.63941">
        <ele>623.79114</ele>
        <time>2012-09-08T13:11:27Z</time>
      </trkpt>
      <trkpt lat="46.01568" lon="3.6395">
        <ele>623.56305</ele>
        <time>2012-09-08T13:11:38Z</time>
      </trkpt>
      <trkpt lat="46.01583" lon="3.63965">
        <ele>623.55304</ele>
        <time>2012-09-08T13:11:57Z</time>
      </trkpt>
      <trkpt lat="46.01598" lon="3.63982">
        <ele>625.6561</ele>
        <time>2012-09-08T13:12:12Z</time>
      </trkpt>
      <trkpt lat="46.01606" lon="3.64006">
        <ele>628.45386</ele>
        <time>2012-09-08T13:12:28Z</time>
      </trkpt>
      <trkpt lat="46.01617" lon="3.64029">
        <ele>632.776</ele>
        <time>2012-09-08T13:12:40Z</time>
      </trkpt>
      <trkpt lat="46.0163" lon="3.64051">
        <ele>636.25305</ele>
        <time>2012-09-08T13:12:50Z</time>
      </trkpt>
      <trkpt lat="46.01644" lon="3.6407">
        <ele>639.058</ele>
        <time>2012-09-08T13:13:03Z</time>
      </trkpt>
      <trkpt lat="46.01655" lon="3.64092">
        <ele>640.34717</ele>
        <time>2012-09-08T13:13:13Z</time>
      </trkpt>
      <trkpt lat="46.01665" lon="3.64115">
        <ele>642.11584</ele>
        <time>2012-09-08T13:13:21Z</time>
      </trkpt>
      <trkpt lat="46.01672" lon="3.64141">
        <ele>644.4218</ele>
        <time>2012-09-08T13:13:29Z</time>
      </trkpt>
      <trkpt lat="46.01681" lon="3.64165">
        <ele>647.5329</ele>
        <time>2012-09-08T13:13:41Z</time>
      </trkpt>
      <trkpt lat="46.0169" lon="3.6419">
        <ele>649.16</ele>
        <time>2012-09-08T13:13:50Z</time>
      </trkpt>
      <trkpt lat="46.01692" lon="3.64216">
        <ele>651.107</ele>
        <time>2012-09-08T13:13:59Z</time>
      </trkpt>
      <trkpt lat="46.01694" lon="3.64242">
        <ele>652.8966</ele>
        <time>2012-09-08T13:14:10Z</time>
      </trkpt>
      <trkpt lat="46.01701" lon="3.6427">
        <ele>653.51605</ele>
        <time>2012-09-08T13:14:20Z</time>
      </trkpt>
      <trkpt lat="46.01709" lon="3.64295">
        <ele>653.54645</ele>
        <time>2012-09-08T13:14:26Z</time>
      </trkpt>
      <trkpt lat="46.01715" lon="3.64321">
        <ele>653.5521</ele>
        <time>2012-09-08T13:14:33Z</time>
      </trkpt>
      <trkpt lat="46.01702" lon="3.64343">
        <ele>654.4528</ele>
        <time>2012-09-08T13:14:41Z</time>
      </trkpt>
      <trkpt lat="46.01683" lon="3.64341">
        <ele>656.0485</ele>
        <time>2012-09-08T13:14:50Z</time>
      </trkpt>
      <trkpt lat="46.01664" lon="3.6433">
        <ele>657.375</ele>
        <time>2012-09-08T13:15:41Z</time>
      </trkpt>
      <trkpt lat="46.01644" lon="3.64328">
        <ele>658.3433</ele>
        <time>2012-09-08T13:15:47Z</time>
      </trkpt>
      <trkpt lat="46.01625" lon="3.64326">
        <ele>659.08136</ele>
        <time>2012-09-08T13:15:52Z</time>
      </trkpt>
      <trkpt lat="46.01605" lon="3.6433">
        <ele>659.4411</ele>
        <time>2012-09-08T13:15:57Z</time>
      </trkpt>
      <trkpt lat="46.01585" lon="3.64334">
        <ele>660.6475</ele>
        <time>2012-09-08T13:16:02Z</time>
      </trkpt>
      <trkpt lat="46.01563" lon="3.64338">
        <ele>661.2665</ele>
        <time>2012-09-08T13:16:06Z</time>
      </trkpt>
      <trkpt lat="46.01543" lon="3.64345">
        <ele>661.5148</ele>
        <time>2012-09-08T13:16:13Z</time>
      </trkpt>
      <trkpt lat="46.01526" lon="3.64356">
        <ele>660.7259</ele>
        <time>2012-09-08T13:16:20Z</time>
      </trkpt>
      <trkpt lat="46.01509" lon="3.64368">
        <ele>659.3313</ele>
        <time>2012-09-08T13:16:25Z</time>
      </trkpt>
      <trkpt lat="46.01493" lon="3.64381">
        <ele>658.11566</ele>
        <time>2012-09-08T13:16:29Z</time>
      </trkpt>
      <trkpt lat="46.01474" lon="3.64398">
        <ele>657.6865</ele>
        <time>2012-09-08T13:16:34Z</time>
      </trkpt>
      <trkpt lat="46.01458" lon="3.6442">
        <ele>656.82196</ele>
        <time>2012-09-08T13:16:39Z</time>
      </trkpt>
      <trkpt lat="46.01444" lon="3.64439">
        <ele>656.6168</ele>
        <time>2012-09-08T13:16:44Z</time>
      </trkpt>
      <trkpt lat="46.01431" lon="3.64459">
        <ele>656.5682</ele>
        <time>2012-09-08T13:16:49Z</time>
      </trkpt>
      <trkpt lat="46.0142" lon="3.6448">
        <ele>656.5557</ele>
        <time>2012-09-08T13:16:55Z</time>
      </trkpt>
      <trkpt lat="46.01405" lon="3.64512">
        <ele>655.7311</ele>
        <time>2012-09-08T13:17:06Z</time>
      </trkpt>
      <trkpt lat="46.01393" lon="3.64542">
        <ele>655.56055</ele>
        <time>2012-09-08T13:17:17Z</time>
      </trkpt>
      <trkpt lat="46.0139" lon="3.64568">
        <ele>655.554</ele>
        <time>2012-09-08T13:17:24Z</time>
      </trkpt>
      <trkpt lat="46.01391" lon="3.64598">
        <ele>655.8031</ele>
        <time>2012-09-08T13:17:33Z</time>
      </trkpt>
      <trkpt lat="46.01393" lon="3.64626">
        <ele>656.76074</ele>
        <time>2012-09-08T13:17:43Z</time>
      </trkpt>
      <trkpt lat="46.01395" lon="3.64652">
        <ele>657.662</ele>
        <time>2012-09-08T13:17:49Z</time>
      </trkpt>
      <trkpt lat="46.01397" lon="3.6468">
        <ele>658.6444</ele>
        <time>2012-09-08T13:17:55Z</time>
      </trkpt>
      <trkpt lat="46.01395" lon="3.6471">
        <ele>659.8692</ele>
        <time>2012-09-08T13:18:02Z</time>
      </trkpt>
      <trkpt lat="46.01389" lon="3.64735">
        <ele>661.03986</ele>
        <time>2012-09-08T13:18:09Z</time>
      </trkpt>
      <trkpt lat="46.0138" lon="3.64759">
        <ele>664.02344</ele>
        <time>2012-09-08T13:18:13Z</time>
      </trkpt>
      <trkpt lat="46.01371" lon="3.64783">
        <ele>667.70184</ele>
        <time>2012-09-08T13:18:17Z</time>
      </trkpt>
      <trkpt lat="46.01365" lon="3.6481">
        <ele>669.8764</ele>
        <time>2012-09-08T13:18:22Z</time>
      </trkpt>
      <trkpt lat="46.0136" lon="3.64838">
        <ele>671.15515</ele>
        <time>2012-09-08T13:18:27Z</time>
      </trkpt>
      <trkpt lat="46.01351" lon="3.64873">
        <ele>672.6631</ele>
        <time>2012-09-08T13:18:35Z</time>
      </trkpt>
      <trkpt lat="46.01342" lon="3.64896">
        <ele>674.3678</ele>
        <time>2012-09-08T13:18:42Z</time>
      </trkpt>
      <trkpt lat="46.01333" lon="3.6492">
        <ele>676.07837</ele>
        <time>2012-09-08T13:18:49Z</time>
      </trkpt>
      <trkpt lat="46.01321" lon="3.64946">
        <ele>677.93427</ele>
        <time>2012-09-08T13:18:56Z</time>
      </trkpt>
      <trkpt lat="46.0131" lon="3.64967">
        <ele>679.12646</ele>
        <time>2012-09-08T13:19:02Z</time>
      </trkpt>
      <trkpt lat="46.013" lon="3.64989">
        <ele>680.1354</ele>
        <time>2012-09-08T13:19:07Z</time>
      </trkpt>
      <trkpt lat="46.01287" lon="3.65008">
        <ele>681.1375</ele>
        <time>2012-09-08T13:19:12Z</time>
      </trkpt>
      <trkpt lat="46.01272" lon="3.65027">
        <ele>682.24176</ele>
        <time>2012-09-08T13:19:18Z</time>
      </trkpt>
      <trkpt lat="46.01257" lon="3.65049">
        <ele>683.07574</ele>
        <time>2012-09-08T13:19:24Z</time>
      </trkpt>
      <trkpt lat="46.01242" lon="3.65066">
        <ele>683.68976</ele>
        <time>2012-09-08T13:19:29Z</time>
      </trkpt>
      <trkpt lat="46.01228" lon="3.65083">
        <ele>684.34814</ele>
        <time>2012-09-08T13:19:34Z</time>
      </trkpt>
      <trkpt lat="46.01214" lon="3.65104">
        <ele>685.20013</ele>
        <time>2012-09-08T13:19:40Z</time>
      </trkpt>
      <trkpt lat="46.01201" lon="3.65124">
        <ele>685.90674</ele>
        <time>2012-09-08T13:19:45Z</time>
      </trkpt>
      <trkpt lat="46.01189" lon="3.65147">
        <ele>687.8602</ele>
        <time>2012-09-08T13:19:49Z</time>
      </trkpt>
      <trkpt lat="46.01176" lon="3.65171">
        <ele>690.1385</ele>
        <time>2012-09-08T13:19:53Z</time>
      </trkpt>
      <trkpt lat="46.01163" lon="3.65195">
        <ele>691.6836</ele>
        <time>2012-09-08T13:19:57Z</time>
      </trkpt>
      <trkpt lat="46.01153" lon="3.65216">
        <ele>692.7154</ele>
        <time>2012-09-08T13:20:01Z</time>
      </trkpt>
      <trkpt lat="46.01138" lon="3.6524">
        <ele>692.67065</ele>
        <time>2012-09-08T13:20:06Z</time>
      </trkpt>
      <trkpt lat="46.01125" lon="3.65259">
        <ele>693.15906</ele>
        <time>2012-09-08T13:20:11Z</time>
      </trkpt>
      <trkpt lat="46.01111" lon="3.65276">
        <ele>693.4829</ele>
        <time>2012-09-08T13:20:17Z</time>
      </trkpt>
      <trkpt lat="46.01094" lon="3.65295">
        <ele>693.5405</ele>
        <time>2012-09-08T13:20:23Z</time>
      </trkpt>
      <trkpt lat="46.01075" lon="3.6531">
        <ele>693.5508</ele>
        <time>2012-09-08T13:20:29Z</time>
      </trkpt>
      <trkpt lat="46.01057" lon="3.65321">
        <ele>694.2362</ele>
        <time>2012-09-08T13:20:35Z</time>
      </trkpt>
      <trkpt lat="46.01038" lon="3.65334">
        <ele>695.18024</ele>
        <time>2012-09-08T13:20:41Z</time>
      </trkpt>
      <trkpt lat="46.01017" lon="3.65345">
        <ele>696.6208</ele>
        <time>2012-09-08T13:20:46Z</time>
      </trkpt>
      <trkpt lat="46.00998" lon="3.6536">
        <ele>698.0945</ele>
        <time>2012-09-08T13:20:51Z</time>
      </trkpt>
      <trkpt lat="46.0098" lon="3.65375">
        <ele>699.2934</ele>
        <time>2012-09-08T13:20:57Z</time>
      </trkpt>
      <trkpt lat="46.00966" lon="3.65392">
        <ele>700.175</ele>
        <time>2012-09-08T13:21:02Z</time>
      </trkpt>
      <trkpt lat="46.00951" lon="3.65407">
        <ele>700.9232</ele>
        <time>2012-09-08T13:21:08Z</time>
      </trkpt>
      <trkpt lat="46.00935" lon="3.65422">
        <ele>701.4409</ele>
        <time>2012-09-08T13:21:14Z</time>
      </trkpt>
      <trkpt lat="46.0092" lon="3.65437">
        <ele>702.21</ele>
        <time>2012-09-08T13:21:19Z</time>
      </trkpt>
      <trkpt lat="46.00904" lon="3.65454">
        <ele>702.4716</ele>
        <time>2012-09-08T13:21:24Z</time>
      </trkpt>
      <trkpt lat="46.00885" lon="3.65469">
        <ele>702.5337</ele>
        <time>2012-09-08T13:21:29Z</time>
      </trkpt>
      <trkpt lat="46.00867" lon="3.65482">
        <ele>702.2984</ele>
        <time>2012-09-08T13:21:34Z</time>
      </trkpt>
      <trkpt lat="46.0085" lon="3.65493">
        <ele>700.6678</ele>
        <time>2012-09-08T13:21:38Z</time>
      </trkpt>
      <trkpt lat="46.00833" lon="3.6551">
        <ele>699.81757</ele>
        <time>2012-09-08T13:21:43Z</time>
      </trkpt>
      <trkpt lat="46.00818" lon="3.65525">
        <ele>699.03766</ele>
        <time>2012-09-08T13:21:48Z</time>
      </trkpt>
      <trkpt lat="46.008" lon="3.6554">
        <ele>697.9557</ele>
        <time>2012-09-08T13:21:54Z</time>
      </trkpt>
      <trkpt lat="46.00779" lon="3.65551">
        <ele>696.96497</ele>
        <time>2012-09-08T13:21:59Z</time>
      </trkpt>
      <trkpt lat="46.00761" lon="3.65559">
        <ele>696.90076</ele>
        <time>2012-09-08T13:22:04Z</time>
      </trkpt>
      <trkpt lat="46.00741" lon="3.65568">
        <ele>697.48773</ele>
        <time>2012-09-08T13:22:12Z</time>
      </trkpt>
      <trkpt lat="46.0072" lon="3.65572">
        <ele>697.54645</ele>
        <time>2012-09-08T13:22:20Z</time>
      </trkpt>
      <trkpt lat="46.00701" lon="3.65581">
        <ele>697.55237</ele>
        <time>2012-09-08T13:22:28Z</time>
      </trkpt>
      <trkpt lat="46.00679" lon="3.65585">
        <ele>698.4865</ele>
        <time>2012-09-08T13:22:35Z</time>
      </trkpt>
      <trkpt lat="46.00659" lon="3.65589">
        <ele>699.84814</ele>
        <time>2012-09-08T13:22:42Z</time>
      </trkpt>
      <trkpt lat="46.00634" lon="3.65596">
        <ele>701.6166</ele>
        <time>2012-09-08T13:22:51Z</time>
      </trkpt>
      <trkpt lat="46.00618" lon="3.65611">
        <ele>703.6282</ele>
        <time>2012-09-08T13:22:58Z</time>
      </trkpt>
      <trkpt lat="46.00605" lon="3.65632">
        <ele>705.44226</ele>
        <time>2012-09-08T13:23:05Z</time>
      </trkpt>
      <trkpt lat="46.00596" lon="3.65656">
        <ele>706.98285</ele>
        <time>2012-09-08T13:23:12Z</time>
      </trkpt>
      <trkpt lat="46.00586" lon="3.6568">
        <ele>708.48956</ele>
        <time>2012-09-08T13:23:19Z</time>
      </trkpt>
      <trkpt lat="46.00576" lon="3.65703">
        <ele>709.8012</ele>
        <time>2012-09-08T13:23:25Z</time>
      </trkpt>
      <trkpt lat="46.0057" lon="3.65729">
        <ele>711.1028</ele>
        <time>2012-09-08T13:23:31Z</time>
      </trkpt>
      <trkpt lat="46.00562" lon="3.65755">
        <ele>712.56494</ele>
        <time>2012-09-08T13:23:38Z</time>
      </trkpt>
      <trkpt lat="46.00555" lon="3.6578">
        <ele>713.9992</ele>
        <time>2012-09-08T13:23:45Z</time>
      </trkpt>
      <trkpt lat="46.0055" lon="3.65808">
        <ele>715.2741</ele>
        <time>2012-09-08T13:23:54Z</time>
      </trkpt>
      <trkpt lat="46.00553" lon="3.65834">
        <ele>716.33777</ele>
        <time>2012-09-08T13:24:01Z</time>
      </trkpt>
      <trkpt lat="46.00556" lon="3.65862">
        <ele>717.3463</ele>
        <time>2012-09-08T13:24:08Z</time>
      </trkpt>
      <trkpt lat="46.0056" lon="3.6589">
        <ele>718.2881</ele>
        <time>2012-09-08T13:24:15Z</time>
      </trkpt>
      <trkpt lat="46.00564" lon="3.65918">
        <ele>719.20123</ele>
        <time>2012-09-08T13:24:22Z</time>
      </trkpt>
      <trkpt lat="46.00565" lon="3.65948">
        <ele>719.94354</ele>
        <time>2012-09-08T13:24:29Z</time>
      </trkpt>
      <trkpt lat="46.00564" lon="3.65978">
        <ele>720.4716</ele>
        <time>2012-09-08T13:24:36Z</time>
      </trkpt>
      <trkpt lat="46.00561" lon="3.66004">
        <ele>721.36053</ele>
        <time>2012-09-08T13:24:42Z</time>
      </trkpt>
      <trkpt lat="46.00557" lon="3.66031">
        <ele>722.2109</ele>
        <time>2012-09-08T13:24:49Z</time>
      </trkpt>
      <trkpt lat="46.00552" lon="3.66057">
        <ele>723.07025</ele>
        <time>2012-09-08T13:24:55Z</time>
      </trkpt>
      <trkpt lat="46.00547" lon="3.66083">
        <ele>723.9046</ele>
        <time>2012-09-08T13:25:01Z</time>
      </trkpt>
      <trkpt lat="46.00542" lon="3.66111">
        <ele>724.90393</ele>
        <time>2012-09-08T13:25:08Z</time>
      </trkpt>
      <trkpt lat="46.00535" lon="3.66139">
        <ele>725.9039</ele>
        <time>2012-09-08T13:25:15Z</time>
      </trkpt>
      <trkpt lat="46.00527" lon="3.66162">
        <ele>726.43744</ele>
        <time>2012-09-08T13:25:21Z</time>
      </trkpt>
      <trkpt lat="46.00517" lon="3.66188">
        <ele>727.4041</ele>
        <time>2012-09-08T13:25:28Z</time>
      </trkpt>
      <trkpt lat="46.00506" lon="3.66214">
        <ele>728.39966</ele>
        <time>2012-09-08T13:25:35Z</time>
      </trkpt>
      <trkpt lat="46.00495" lon="3.66235">
        <ele>729.3477</ele>
        <time>2012-09-08T13:25:41Z</time>
      </trkpt>
      <trkpt lat="46.00484" lon="3.66259">
        <ele>730.3921</ele>
        <time>2012-09-08T13:25:48Z</time>
      </trkpt>
      <trkpt lat="46.00471" lon="3.6628">
        <ele>731.648</ele>
        <time>2012-09-08T13:25:55Z</time>
      </trkpt>
      <trkpt lat="46.00459" lon="3.66302">
        <ele>733.0103</ele>
        <time>2012-09-08T13:26:02Z</time>
      </trkpt>
      <trkpt lat="46.00447" lon="3.66323">
        <ele>734.2433</ele>
        <time>2012-09-08T13:26:09Z</time>
      </trkpt>
      <trkpt lat="46.00435" lon="3.66345">
        <ele>735.3337</ele>
        <time>2012-09-08T13:26:16Z</time>
      </trkpt>
      <trkpt lat="46.00423" lon="3.66368">
        <ele>736.34576</ele>
        <time>2012-09-08T13:26:23Z</time>
      </trkpt>
      <trkpt lat="46.00409" lon="3.6639">
        <ele>737.34735</ele>
        <time>2012-09-08T13:26:30Z</time>
      </trkpt>
      <trkpt lat="46.00395" lon="3.66409">
        <ele>738.28827</ele>
        <time>2012-09-08T13:26:37Z</time>
      </trkpt>
      <trkpt lat="46.00381" lon="3.66428">
        <ele>739.26855</ele>
        <time>2012-09-08T13:26:43Z</time>
      </trkpt>
      <trkpt lat="46.00368" lon="3.66448">
        <ele>740.3244</ele>
        <time>2012-09-08T13:26:49Z</time>
      </trkpt>
      <trkpt lat="46.00352" lon="3.66463">
        <ele>741.389</ele>
        <time>2012-09-08T13:26:56Z</time>
      </trkpt>
      <trkpt lat="46.00333" lon="3.66465">
        <ele>742.39764</ele>
        <time>2012-09-08T13:27:03Z</time>
      </trkpt>
      <trkpt lat="46.00312" lon="3.66456">
        <ele>742.5323</ele>
        <time>2012-09-08T13:27:10Z</time>
      </trkpt>
      <trkpt lat="46.00293" lon="3.66454">
        <ele>742.5509</ele>
        <time>2012-09-08T13:27:18Z</time>
      </trkpt>
      <trkpt lat="46.00274" lon="3.66458">
        <ele>742.5528</ele>
        <time>2012-09-08T13:27:26Z</time>
      </trkpt>
      <trkpt lat="46.00255" lon="3.66458">
        <ele>742.553</ele>
        <time>2012-09-08T13:27:35Z</time>
      </trkpt>
      <trkpt lat="46.00236" lon="3.66465">
        <ele>742.553</ele>
        <time>2012-09-08T13:27:42Z</time>
      </trkpt>
      <trkpt lat="46.00218" lon="3.66471">
        <ele>742.9905</ele>
        <time>2012-09-08T13:27:49Z</time>
      </trkpt>
      <trkpt lat="46.002" lon="3.66478">
        <ele>743.4779</ele>
        <time>2012-09-08T13:27:56Z</time>
      </trkpt>
      <trkpt lat="46.00181" lon="3.66484">
        <ele>743.54297</ele>
        <time>2012-09-08T13:28:03Z</time>
      </trkpt>
      <trkpt lat="46.00161" lon="3.66484">
        <ele>744.12976</ele>
        <time>2012-09-08T13:28:10Z</time>
      </trkpt>
      <trkpt lat="46.00141" lon="3.6648">
        <ele>744.4965</ele>
        <time>2012-09-08T13:28:17Z</time>
      </trkpt>
      <trkpt lat="46.00123" lon="3.66476">
        <ele>745.2232</ele>
        <time>2012-09-08T13:28:22Z</time>
      </trkpt>
      <trkpt lat="46.00105" lon="3.66467">
        <ele>745.9318</ele>
        <time>2012-09-08T13:28:28Z</time>
      </trkpt>
      <trkpt lat="46.00086" lon="3.66461">
        <ele>748.41895</ele>
        <time>2012-09-08T13:28:37Z</time>
      </trkpt>
      <trkpt lat="46.00067" lon="3.66452">
        <ele>750.699</ele>
        <time>2012-09-08T13:28:45Z</time>
      </trkpt>
      <trkpt lat="46.00044" lon="3.6645">
        <ele>753.66455</ele>
        <time>2012-09-08T13:28:53Z</time>
      </trkpt>
      <trkpt lat="46.00026" lon="3.66446">
        <ele>757.33826</ele>
        <time>2012-09-08T13:28:57Z</time>
      </trkpt>
      <trkpt lat="46.00007" lon="3.66441">
        <ele>759.7858</ele>
        <time>2012-09-08T13:29:01Z</time>
      </trkpt>
      <trkpt lat="45.99986" lon="3.66437">
        <ele>761.7118</ele>
        <time>2012-09-08T13:29:06Z</time>
      </trkpt>
      <trkpt lat="45.99966" lon="3.66433">
        <ele>763.04083</ele>
        <time>2012-09-08T13:29:14Z</time>
      </trkpt>
      <trkpt lat="45.99944" lon="3.66441">
        <ele>762.70734</ele>
        <time>2012-09-08T13:29:18Z</time>
      </trkpt>
      <trkpt lat="45.99924" lon="3.6645">
        <ele>761.4807</ele>
        <time>2012-09-08T13:29:22Z</time>
      </trkpt>
      <trkpt lat="45.99906" lon="3.66456">
        <ele>760.40906</ele>
        <time>2012-09-08T13:29:26Z</time>
      </trkpt>
      <trkpt lat="45.99889" lon="3.66465">
        <ele>759.2457</ele>
        <time>2012-09-08T13:29:30Z</time>
      </trkpt>
      <trkpt lat="45.99869" lon="3.66476">
        <ele>757.5963</ele>
        <time>2012-09-08T13:29:35Z</time>
      </trkpt>
      <trkpt lat="45.9985" lon="3.66486">
        <ele>756.8006</ele>
        <time>2012-09-08T13:29:40Z</time>
      </trkpt>
      <trkpt lat="45.9983" lon="3.66497">
        <ele>753.97894</ele>
        <time>2012-09-08T13:29:45Z</time>
      </trkpt>
      <trkpt lat="45.99811" lon="3.6651">
        <ele>752.12866</ele>
        <time>2012-09-08T13:29:50Z</time>
      </trkpt>
      <trkpt lat="45.99794" lon="3.66521">
        <ele>750.97186</ele>
        <time>2012-09-08T13:29:56Z</time>
      </trkpt>
      <trkpt lat="45.99777" lon="3.66529">
        <ele>751.36914</ele>
        <time>2012-09-08T13:30:00Z</time>
      </trkpt>
      <trkpt lat="45.99759" lon="3.66538">
        <ele>751.75934</ele>
        <time>2012-09-08T13:30:05Z</time>
      </trkpt>
      <trkpt lat="45.9974" lon="3.66549">
        <ele>752.3647</ele>
        <time>2012-09-08T13:30:10Z</time>
      </trkpt>
      <trkpt lat="45.99721" lon="3.66564">
        <ele>753.3415</ele>
        <time>2012-09-08T13:30:16Z</time>
      </trkpt>
      <trkpt lat="45.99705" lon="3.66579">
        <ele>754.2875</ele>
        <time>2012-09-08T13:30:23Z</time>
      </trkpt>
      <trkpt lat="45.99684" lon="3.666">
        <ele>755.36664</ele>
        <time>2012-09-08T13:30:35Z</time>
      </trkpt>
      <trkpt lat="45.99677" lon="3.66626">
        <ele>755.7951</ele>
        <time>2012-09-08T13:30:46Z</time>
      </trkpt>
      <trkpt lat="45.99676" lon="3.6666">
        <ele>758.57983</ele>
        <time>2012-09-08T13:31:00Z</time>
      </trkpt>
      <trkpt lat="45.99677" lon="3.66688">
        <ele>761.2847</ele>
        <time>2012-09-08T13:31:23Z</time>
      </trkpt>
      <trkpt lat="45.99676" lon="3.66716">
        <ele>766.9696</ele>
        <time>2012-09-08T13:32:52Z</time>
      </trkpt>
      <trkpt lat="45.99678" lon="3.66744">
        <ele>772.9725</ele>
        <time>2012-09-08T13:35:39Z</time>
      </trkpt>
      <trkpt lat="45.99677" lon="3.66772">
        <ele>773.4949</ele>
        <time>2012-09-08T13:35:47Z</time>
      </trkpt>
      <trkpt lat="45.99677" lon="3.66802">
        <ele>774.2288</ele>
        <time>2012-09-08T13:35:54Z</time>
      </trkpt>
      <trkpt lat="45.99677" lon="3.6683">
        <ele>774.4953</ele>
        <time>2012-09-08T13:36:00Z</time>
      </trkpt>
      <trkpt lat="45.99679" lon="3.66858">
        <ele>774.5427</ele>
        <time>2012-09-08T13:36:06Z</time>
      </trkpt>
      <trkpt lat="45.99685" lon="3.66888">
        <ele>773.86224</ele>
        <time>2012-09-08T13:36:10Z</time>
      </trkpt>
      <trkpt lat="45.99691" lon="3.66922">
        <ele>771.5897</ele>
        <time>2012-09-08T13:36:13Z</time>
      </trkpt>
      <trkpt lat="45.99687" lon="3.66963">
        <ele>768.5685</ele>
        <time>2012-09-08T13:36:16Z</time>
      </trkpt>
      <trkpt lat="45.99664" lon="3.66991">
        <ele>766.1242</ele>
        <time>2012-09-08T13:36:18Z</time>
      </trkpt>
      <trkpt lat="45.99647" lon="3.67012">
        <ele>763.1868</ele>
        <time>2012-09-08T13:36:20Z</time>
      </trkpt>
      <trkpt lat="45.99628" lon="3.67038">
        <ele>759.24225</ele>
        <time>2012-09-08T13:36:23Z</time>
      </trkpt>
      <trkpt lat="45.99612" lon="3.67059">
        <ele>756.0938</ele>
        <time>2012-09-08T13:36:26Z</time>
      </trkpt>
      <trkpt lat="45.99597" lon="3.67081">
        <ele>753.60925</ele>
        <time>2012-09-08T13:36:29Z</time>
      </trkpt>
      <trkpt lat="45.99581" lon="3.671">
        <ele>751.59235</ele>
        <time>2012-09-08T13:36:32Z</time>
      </trkpt>
      <trkpt lat="45.99564" lon="3.67117">
        <ele>749.7258</ele>
        <time>2012-09-08T13:36:35Z</time>
      </trkpt>
      <trkpt lat="45.99546" lon="3.67134">
        <ele>747.64154</ele>
        <time>2012-09-08T13:36:38Z</time>
      </trkpt>
      <trkpt lat="45.99529" lon="3.67147">
        <ele>745.35596</ele>
        <time>2012-09-08T13:36:41Z</time>
      </trkpt>
      <trkpt lat="45.9951" lon="3.67158">
        <ele>742.0324</ele>
        <time>2012-09-08T13:36:44Z</time>
      </trkpt>
      <trkpt lat="45.99491" lon="3.67169">
        <ele>739.19275</ele>
        <time>2012-09-08T13:36:47Z</time>
      </trkpt>
      <trkpt lat="45.99473" lon="3.67177">
        <ele>736.401</ele>
        <time>2012-09-08T13:36:50Z</time>
      </trkpt>
      <trkpt lat="45.99452" lon="3.6719">
        <ele>732.5049</ele>
        <time>2012-09-08T13:36:54Z</time>
      </trkpt>
      <trkpt lat="45.99433" lon="3.67197">
        <ele>729.0952</ele>
        <time>2012-09-08T13:36:57Z</time>
      </trkpt>
      <trkpt lat="45.99412" lon="3.67203">
        <ele>725.8911</ele>
        <time>2012-09-08T13:37:00Z</time>
      </trkpt>
      <trkpt lat="45.99393" lon="3.67216">
        <ele>722.74066</ele>
        <time>2012-09-08T13:37:05Z</time>
      </trkpt>
      <trkpt lat="45.9937" lon="3.67233">
        <ele>722.1788</ele>
        <time>2012-09-08T13:37:09Z</time>
      </trkpt>
      <trkpt lat="45.99352" lon="3.67248">
        <ele>723.0127</ele>
        <time>2012-09-08T13:37:13Z</time>
      </trkpt>
      <trkpt lat="45.99333" lon="3.67261">
        <ele>724.0657</ele>
        <time>2012-09-08T13:37:17Z</time>
      </trkpt>
      <trkpt lat="45.99315" lon="3.67272">
        <ele>726.92224</ele>
        <time>2012-09-08T13:37:21Z</time>
      </trkpt>
      <trkpt lat="45.9929" lon="3.67282">
        <ele>728.3353</ele>
        <time>2012-09-08T13:37:28Z</time>
      </trkpt>
      <trkpt lat="45.99275" lon="3.673">
        <ele>728.7643</ele>
        <time>2012-09-08T13:37:34Z</time>
      </trkpt>
      <trkpt lat="45.99283" lon="3.6733">
        <ele>733.9479</ele>
        <time>2012-09-08T13:37:39Z</time>
      </trkpt>
      <trkpt lat="45.99294" lon="3.67355">
        <ele>738.9065</ele>
        <time>2012-09-08T13:37:43Z</time>
      </trkpt>
      <trkpt lat="45.99291" lon="3.67381">
        <ele>740.4294</ele>
        <time>2012-09-08T13:37:53Z</time>
      </trkpt>
      <trkpt lat="45.99283" lon="3.67407">
        <ele>740.5437</ele>
        <time>2012-09-08T13:38:02Z</time>
      </trkpt>
      <trkpt lat="45.99263" lon="3.6742">
        <ele>741.37463</ele>
        <time>2012-09-08T13:38:13Z</time>
      </trkpt>
      <trkpt lat="45.99246" lon="3.67441">
        <ele>741.5107</ele>
        <time>2012-09-08T13:38:18Z</time>
      </trkpt>
      <trkpt lat="45.99232" lon="3.67463">
        <ele>741.54297</ele>
        <time>2012-09-08T13:38:23Z</time>
      </trkpt>
      <trkpt lat="45.99215" lon="3.6748">
        <ele>741.8024</ele>
        <time>2012-09-08T13:38:33Z</time>
      </trkpt>
      <trkpt lat="45.99197" lon="3.67482">
        <ele>744.032</ele>
        <time>2012-09-08T13:38:52Z</time>
      </trkpt>
      <trkpt lat="45.99178" lon="3.67488">
        <ele>745.803</ele>
        <time>2012-09-08T13:39:34Z</time>
      </trkpt>
      <trkpt lat="45.99157" lon="3.67484">
        <ele>747.2594</ele>
        <time>2012-09-08T13:39:43Z</time>
      </trkpt>
      <trkpt lat="45.99136" lon="3.67484">
        <ele>748.1974</ele>
        <time>2012-09-08T13:39:50Z</time>
      </trkpt>
      <trkpt lat="45.99117" lon="3.67497">
        <ele>748.50555</ele>
        <time>2012-09-08T13:39:57Z</time>
      </trkpt>
      <trkpt lat="45.99099" lon="3.67501">
        <ele>748.551</ele>
        <time>2012-09-08T13:40:08Z</time>
      </trkpt>
      <trkpt lat="45.99079" lon="3.67503">
        <ele>748.8029</ele>
        <time>2012-09-08T13:40:18Z</time>
      </trkpt>
      <trkpt lat="45.99058" lon="3.67503">
        <ele>749.51074</ele>
        <time>2012-09-08T13:40:28Z</time>
      </trkpt>
      <trkpt lat="45.99039" lon="3.67497">
        <ele>749.7998</ele>
        <time>2012-09-08T13:40:37Z</time>
      </trkpt>
      <trkpt lat="45.9902" lon="3.67501">
        <ele>750.49646</ele>
        <time>2012-09-08T13:40:46Z</time>
      </trkpt>
      <trkpt lat="45.99001" lon="3.67512">
        <ele>750.54877</ele>
        <time>2012-09-08T13:40:55Z</time>
      </trkpt>
      <trkpt lat="45.98983" lon="3.67518">
        <ele>751.5213</ele>
        <time>2012-09-08T13:41:13Z</time>
      </trkpt>
      <trkpt lat="45.99001" lon="3.67518">
        <ele>759.8673</ele>
        <time>2012-09-08T13:42:01Z</time>
      </trkpt>
      <trkpt lat="45.99021" lon="3.67518">
        <ele>766.7818</ele>
        <time>2012-09-08T13:42:21Z</time>
      </trkpt>
      <trkpt lat="45.99004" lon="3.6751">
        <ele>766.9748</ele>
        <time>2012-09-08T13:42:54Z</time>
      </trkpt>
      <trkpt lat="45.98985" lon="3.67516">
        <ele>765.28723</ele>
        <time>2012-09-08T13:43:00Z</time>
      </trkpt>
      <trkpt lat="45.98965" lon="3.67521">
        <ele>762.44366</ele>
        <time>2012-09-08T13:43:07Z</time>
      </trkpt>
      <trkpt lat="45.98945" lon="3.67521">
        <ele>755.7048</ele>
        <time>2012-09-08T13:43:12Z</time>
      </trkpt>
      <trkpt lat="45.9893" lon="3.6754">
        <ele>748.8322</ele>
        <time>2012-09-08T13:43:28Z</time>
      </trkpt>
      <trkpt lat="45.9892" lon="3.67563">
        <ele>747.85657</ele>
        <time>2012-09-08T13:43:33Z</time>
      </trkpt>
      <trkpt lat="45.98907" lon="3.67594">
        <ele>746.92346</ele>
        <time>2012-09-08T13:43:39Z</time>
      </trkpt>
      <trkpt lat="45.98895" lon="3.67617">
        <ele>745.8397</ele>
        <time>2012-09-08T13:43:46Z</time>
      </trkpt>
      <trkpt lat="45.98878" lon="3.67636">
        <ele>745.59125</ele>
        <time>2012-09-08T13:43:53Z</time>
      </trkpt>
      <trkpt lat="45.98859" lon="3.67643">
        <ele>746.4934</ele>
        <time>2012-09-08T13:43:59Z</time>
      </trkpt>
      <trkpt lat="45.98839" lon="3.67647">
        <ele>748.7096</ele>
        <time>2012-09-08T13:44:07Z</time>
      </trkpt>
      <trkpt lat="45.98819" lon="3.67645">
        <ele>752.7082</ele>
        <time>2012-09-08T13:44:18Z</time>
      </trkpt>
      <trkpt lat="45.988" lon="3.67647">
        <ele>761.4862</ele>
        <time>2012-09-08T13:46:25Z</time>
      </trkpt>
      <trkpt lat="45.98781" lon="3.67649">
        <ele>764.2298</ele>
        <time>2012-09-08T13:46:35Z</time>
      </trkpt>
      <trkpt lat="45.98764" lon="3.6766">
        <ele>766.0011</ele>
        <time>2012-09-08T13:46:41Z</time>
      </trkpt>
      <trkpt lat="45.98748" lon="3.67673">
        <ele>767.0002</ele>
        <time>2012-09-08T13:46:46Z</time>
      </trkpt>
      <trkpt lat="45.9873" lon="3.67684">
        <ele>768.1628</ele>
        <time>2012-09-08T13:46:53Z</time>
      </trkpt>
      <trkpt lat="45.98711" lon="3.6769">
        <ele>770.0437</ele>
        <time>2012-09-08T13:47:05Z</time>
      </trkpt>
      <trkpt lat="45.98692" lon="3.67699">
        <ele>772.2772</ele>
        <time>2012-09-08T13:47:20Z</time>
      </trkpt>
      <trkpt lat="45.98682" lon="3.67722">
        <ele>774.6932</ele>
        <time>2012-09-08T13:47:35Z</time>
      </trkpt>
      <trkpt lat="45.98677" lon="3.67748">
        <ele>777.92426</ele>
        <time>2012-09-08T13:47:43Z</time>
      </trkpt>
      <trkpt lat="45.98677" lon="3.67776">
        <ele>783.5381</ele>
        <time>2012-09-08T13:47:55Z</time>
      </trkpt>
      <trkpt lat="45.98685" lon="3.67802">
        <ele>792.5305</ele>
        <time>2012-09-08T13:48:09Z</time>
      </trkpt>
      <trkpt lat="45.98695" lon="3.67825">
        <ele>801.03284</ele>
        <time>2012-09-08T13:48:22Z</time>
      </trkpt>
      <trkpt lat="45.98705" lon="3.67849">
        <ele>807.79913</ele>
        <time>2012-09-08T13:48:34Z</time>
      </trkpt>
      <trkpt lat="45.98716" lon="3.6787">
        <ele>810.28784</ele>
        <time>2012-09-08T13:48:43Z</time>
      </trkpt>
      <trkpt lat="45.98728" lon="3.67892">
        <ele>809.834</ele>
        <time>2012-09-08T13:48:50Z</time>
      </trkpt>
      <trkpt lat="45.98739" lon="3.67915">
        <ele>808.8905</ele>
        <time>2012-09-08T13:48:59Z</time>
      </trkpt>
      <trkpt lat="45.98746" lon="3.67941">
        <ele>807.6925</ele>
        <time>2012-09-08T13:49:13Z</time>
      </trkpt>
      <trkpt lat="45.98737" lon="3.67965">
        <ele>807.12946</ele>
        <time>2012-09-08T13:49:21Z</time>
      </trkpt>
      <trkpt lat="45.98718" lon="3.6798">
        <ele>806.62994</ele>
        <time>2012-09-08T13:49:28Z</time>
      </trkpt>
      <trkpt lat="45.98701" lon="3.67988">
        <ele>806.5667</ele>
        <time>2012-09-08T13:49:34Z</time>
      </trkpt>
      <trkpt lat="45.98684" lon="3.67999">
        <ele>805.8712</ele>
        <time>2012-09-08T13:49:41Z</time>
      </trkpt>
      <trkpt lat="45.98668" lon="3.68016">
        <ele>806.45135</ele>
        <time>2012-09-08T13:49:49Z</time>
      </trkpt>
      <trkpt lat="45.98651" lon="3.68031">
        <ele>806.79535</ele>
        <time>2012-09-08T13:49:58Z</time>
      </trkpt>
      <trkpt lat="45.98636" lon="3.68046">
        <ele>807.7461</ele>
        <time>2012-09-08T13:50:07Z</time>
      </trkpt>
      <trkpt lat="45.98621" lon="3.68061">
        <ele>809.05035</ele>
        <time>2012-09-08T13:50:15Z</time>
      </trkpt>
      <trkpt lat="45.98603" lon="3.68072">
        <ele>810.39124</ele>
        <time>2012-09-08T13:50:25Z</time>
      </trkpt>
      <trkpt lat="45.98585" lon="3.68072">
        <ele>813.8992</ele>
        <time>2012-09-08T13:50:49Z</time>
      </trkpt>
      <trkpt lat="45.98568" lon="3.68061">
        <ele>819.893</ele>
        <time>2012-09-08T13:51:07Z</time>
      </trkpt>
      <trkpt lat="45.98554" lon="3.68081">
        <ele>821.5213</ele>
        <time>2012-09-08T13:53:12Z</time>
      </trkpt>
      <trkpt lat="45.9854" lon="3.68102">
        <ele>823.14325</ele>
        <time>2012-09-08T13:53:26Z</time>
      </trkpt>
      <trkpt lat="45.98537" lon="3.6813">
        <ele>825.80927</ele>
        <time>2012-09-08T13:53:31Z</time>
      </trkpt>
      <trkpt lat="45.98534" lon="3.68158">
        <ele>828.77856</ele>
        <time>2012-09-08T13:53:39Z</time>
      </trkpt>
      <trkpt lat="45.98528" lon="3.68184">
        <ele>831.10333</ele>
        <time>2012-09-08T13:53:48Z</time>
      </trkpt>
      <trkpt lat="45.98524" lon="3.68212">
        <ele>830.6081</ele>
        <time>2012-09-08T13:53:56Z</time>
      </trkpt>
      <trkpt lat="45.9852" lon="3.68239">
        <ele>829.0534</ele>
        <time>2012-09-08T13:54:01Z</time>
      </trkpt>
      <trkpt lat="45.98516" lon="3.68267">
        <ele>824.28015</ele>
        <time>2012-09-08T13:54:06Z</time>
      </trkpt>
      <trkpt lat="45.98518" lon="3.68295">
        <ele>821.372</ele>
        <time>2012-09-08T13:54:11Z</time>
      </trkpt>
      <trkpt lat="45.98522" lon="3.68321">
        <ele>818.20636</ele>
        <time>2012-09-08T13:54:16Z</time>
      </trkpt>
      <trkpt lat="45.98529" lon="3.68351">
        <ele>815.35455</ele>
        <time>2012-09-08T13:54:21Z</time>
      </trkpt>
      <trkpt lat="45.98537" lon="3.68377">
        <ele>812.85944</ele>
        <time>2012-09-08T13:54:26Z</time>
      </trkpt>
      <trkpt lat="45.98548" lon="3.68402">
        <ele>810.2722</ele>
        <time>2012-09-08T13:54:31Z</time>
      </trkpt>
      <trkpt lat="45.98554" lon="3.68428">
        <ele>808.4095</ele>
        <time>2012-09-08T13:54:35Z</time>
      </trkpt>
      <trkpt lat="45.98558" lon="3.68456">
        <ele>805.62244</ele>
        <time>2012-09-08T13:54:40Z</time>
      </trkpt>
      <trkpt lat="45.98553" lon="3.68482">
        <ele>802.5805</ele>
        <time>2012-09-08T13:54:46Z</time>
      </trkpt>
      <trkpt lat="45.98544" lon="3.68505">
        <ele>799.89</ele>
        <time>2012-09-08T13:54:53Z</time>
      </trkpt>
      <trkpt lat="45.98528" lon="3.6852">
        <ele>796.7437</ele>
        <time>2012-09-08T13:55:01Z</time>
      </trkpt>
      <trkpt lat="45.98511" lon="3.68531">
        <ele>789.1459</ele>
        <time>2012-09-08T13:55:15Z</time>
      </trkpt>
      <trkpt lat="45.98494" lon="3.68523">
        <ele>783.613</ele>
        <time>2012-09-08T13:55:42Z</time>
      </trkpt>
      <trkpt lat="45.98476" lon="3.68523">
        <ele>780.6867</ele>
        <time>2012-09-08T13:56:31Z</time>
      </trkpt>
      <trkpt lat="45.9846" lon="3.68508">
        <ele>778.7903</ele>
        <time>2012-09-08T13:58:11Z</time>
      </trkpt>
      <trkpt lat="45.98445" lon="3.68493">
        <ele>776.65564</ele>
        <time>2012-09-08T13:58:37Z</time>
      </trkpt>
      <trkpt lat="45.98439" lon="3.68518">
        <ele>765.1924</ele>
        <time>2012-09-08T13:59:17Z</time>
      </trkpt>
      <trkpt lat="45.98422" lon="3.68531">
        <ele>759.98395</ele>
        <time>2012-09-08T13:59:33Z</time>
      </trkpt>
      <trkpt lat="45.98407" lon="3.68546">
        <ele>757.11035</ele>
        <time>2012-09-08T13:59:42Z</time>
      </trkpt>
      <trkpt lat="45.98396" lon="3.6857">
        <ele>755.875</ele>
        <time>2012-09-08T13:59:58Z</time>
      </trkpt>
      <trkpt lat="45.9839" lon="3.68596">
        <ele>753.793</ele>
        <time>2012-09-08T14:00:12Z</time>
      </trkpt>
      <trkpt lat="45.98381" lon="3.68619">
        <ele>752.6588</ele>
        <time>2012-09-08T14:00:25Z</time>
      </trkpt>
      <trkpt lat="45.98371" lon="3.68641">
        <ele>750.7738</ele>
        <time>2012-09-08T14:00:43Z</time>
      </trkpt>
      <trkpt lat="45.98354" lon="3.68654">
        <ele>750.5534</ele>
        <time>2012-09-08T14:01:05Z</time>
      </trkpt>
      <trkpt lat="45.98339" lon="3.68669">
        <ele>750.553</ele>
        <time>2012-09-08T14:01:27Z</time>
      </trkpt>
      <trkpt lat="45.98327" lon="3.68688">
        <ele>749.554</ele>
        <time>2012-09-08T14:02:27Z</time>
      </trkpt>
      <trkpt lat="45.98309" lon="3.68699">
        <ele>747.9257</ele>
        <time>2012-09-08T14:02:51Z</time>
      </trkpt>
      <trkpt lat="45.98291" lon="3.68705">
        <ele>745.9375</ele>
        <time>2012-09-08T14:03:03Z</time>
      </trkpt>
      <trkpt lat="45.98273" lon="3.68714">
        <ele>742.7286</ele>
        <time>2012-09-08T14:03:20Z</time>
      </trkpt>
      <trkpt lat="45.98291" lon="3.68714">
        <ele>744.5506</ele>
        <time>2012-09-08T14:06:50Z</time>
      </trkpt>
      <trkpt lat="45.98274" lon="3.68724">
        <ele>747.52924</ele>
        <time>2012-09-08T14:12:26Z</time>
      </trkpt>
      <trkpt lat="45.9826" lon="3.68742">
        <ele>747.5529</ele>
        <time>2012-09-08T14:12:45Z</time>
      </trkpt>
      <trkpt lat="45.98251" lon="3.68765">
        <ele>747.553</ele>
        <time>2012-09-08T14:13:13Z</time>
      </trkpt>
      <trkpt lat="45.98259" lon="3.68789">
        <ele>748.2713</ele>
        <time>2012-09-08T14:13:53Z</time>
      </trkpt>
      <trkpt lat="45.98264" lon="3.68817">
        <ele>746.7438</ele>
        <time>2012-09-08T14:14:07Z</time>
      </trkpt>
      <trkpt lat="45.98271" lon="3.68842">
        <ele>745.8728</ele>
        <time>2012-09-08T14:14:21Z</time>
      </trkpt>
      <trkpt lat="45.98282" lon="3.68864">
        <ele>744.88824</ele>
        <time>2012-09-08T14:14:33Z</time>
      </trkpt>
      <trkpt lat="45.98289" lon="3.6889">
        <ele>746.40375</ele>
        <time>2012-09-08T14:14:46Z</time>
      </trkpt>
      <trkpt lat="45.98293" lon="3.68915">
        <ele>748.3477</ele>
        <time>2012-09-08T14:14:59Z</time>
      </trkpt>
      <trkpt lat="45.98297" lon="3.68941">
        <ele>749.6608</ele>
        <time>2012-09-08T14:15:10Z</time>
      </trkpt>
      <trkpt lat="45.98294" lon="3.68967">
        <ele>751.18634</ele>
        <time>2012-09-08T14:15:20Z</time>
      </trkpt>
      <trkpt lat="45.98291" lon="3.68995">
        <ele>752.3383</ele>
        <time>2012-09-08T14:15:28Z</time>
      </trkpt>
      <trkpt lat="45.98287" lon="3.69023">
        <ele>753.969</ele>
        <time>2012-09-08T14:15:35Z</time>
      </trkpt>
      <trkpt lat="45.98282" lon="3.69048">
        <ele>755.75525</ele>
        <time>2012-09-08T14:15:40Z</time>
      </trkpt>
      <trkpt lat="45.98278" lon="3.69074">
        <ele>764.0748</ele>
        <time>2012-09-08T14:16:55Z</time>
      </trkpt>
      <trkpt lat="45.98284" lon="3.691">
        <ele>767.5121</ele>
        <time>2012-09-08T14:17:01Z</time>
      </trkpt>
      <trkpt lat="45.98288" lon="3.69126">
        <ele>769.2115</ele>
        <time>2012-09-08T14:17:09Z</time>
      </trkpt>
      <trkpt lat="45.98302" lon="3.69145">
        <ele>770.39386</ele>
        <time>2012-09-08T14:17:18Z</time>
      </trkpt>
      <trkpt lat="45.98318" lon="3.69164">
        <ele>770.70276</ele>
        <time>2012-09-08T14:17:23Z</time>
      </trkpt>
      <trkpt lat="45.98316" lon="3.69192">
        <ele>770.36615</ele>
        <time>2012-09-08T14:17:26Z</time>
      </trkpt>
      <trkpt lat="45.983" lon="3.69216">
        <ele>769.64606</ele>
        <time>2012-09-08T14:17:29Z</time>
      </trkpt>
      <trkpt lat="45.98282" lon="3.69235">
        <ele>768.76416</ele>
        <time>2012-09-08T14:17:32Z</time>
      </trkpt>
      <trkpt lat="45.9827" lon="3.69263">
        <ele>768.06396</ele>
        <time>2012-09-08T14:17:35Z</time>
      </trkpt>
      <trkpt lat="45.98271" lon="3.69291">
        <ele>767.1904</ele>
        <time>2012-09-08T14:17:38Z</time>
      </trkpt>
      <trkpt lat="45.98276" lon="3.69317">
        <ele>766.3844</ele>
        <time>2012-09-08T14:17:41Z</time>
      </trkpt>
      <trkpt lat="45.98283" lon="3.69342">
        <ele>765.46625</ele>
        <time>2012-09-08T14:17:44Z</time>
      </trkpt>
      <trkpt lat="45.98293" lon="3.6937">
        <ele>763.4709</ele>
        <time>2012-09-08T14:17:48Z</time>
      </trkpt>
      <trkpt lat="45.9831" lon="3.6939">
        <ele>758.346</ele>
        <time>2012-09-08T14:17:53Z</time>
      </trkpt>
      <trkpt lat="45.98329" lon="3.69411">
        <ele>755.7157</ele>
        <time>2012-09-08T14:17:56Z</time>
      </trkpt>
      <trkpt lat="45.98341" lon="3.69439">
        <ele>753.19977</ele>
        <time>2012-09-08T14:17:59Z</time>
      </trkpt>
      <trkpt lat="45.98343" lon="3.69478">
        <ele>750.654</ele>
        <time>2012-09-08T14:18:02Z</time>
      </trkpt>
      <trkpt lat="45.98348" lon="3.6951">
        <ele>748.6112</ele>
        <time>2012-09-08T14:18:05Z</time>
      </trkpt>
      <trkpt lat="45.98365" lon="3.6952">
        <ele>746.7667</ele>
        <time>2012-09-08T14:18:09Z</time>
      </trkpt>
      <trkpt lat="45.98389" lon="3.69514">
        <ele>742.6167</ele>
        <time>2012-09-08T14:18:13Z</time>
      </trkpt>
      <trkpt lat="45.98409" lon="3.6951">
        <ele>738.3271</ele>
        <time>2012-09-08T14:18:17Z</time>
      </trkpt>
      <trkpt lat="45.98431" lon="3.69501">
        <ele>735.2777</ele>
        <time>2012-09-08T14:18:22Z</time>
      </trkpt>
      <trkpt lat="45.98436" lon="3.69529">
        <ele>733.5603</ele>
        <time>2012-09-08T14:18:41Z</time>
      </trkpt>
      <trkpt lat="45.98421" lon="3.69559">
        <ele>732.3347</ele>
        <time>2012-09-08T14:18:58Z</time>
      </trkpt>
      <trkpt lat="45.98431" lon="3.69583">
        <ele>730.514</ele>
        <time>2012-09-08T14:19:09Z</time>
      </trkpt>
      <trkpt lat="45.98449" lon="3.69608">
        <ele>729.5758</ele>
        <time>2012-09-08T14:19:22Z</time>
      </trkpt>
      <trkpt lat="45.98466" lon="3.69634">
        <ele>731.2031</ele>
        <time>2012-09-08T14:19:38Z</time>
      </trkpt>
      <trkpt lat="45.98484" lon="3.69647">
        <ele>735.82135</ele>
        <time>2012-09-08T14:19:53Z</time>
      </trkpt>
      <trkpt lat="45.98503" lon="3.6966">
        <ele>739.82965</ele>
        <time>2012-09-08T14:20:08Z</time>
      </trkpt>
      <trkpt lat="45.98526" lon="3.69666">
        <ele>743.9799</ele>
        <time>2012-09-08T14:20:26Z</time>
      </trkpt>
      <trkpt lat="45.98545" lon="3.69673">
        <ele>746.8697</ele>
        <time>2012-09-08T14:20:38Z</time>
      </trkpt>
      <trkpt lat="45.98563" lon="3.69686">
        <ele>749.31805</ele>
        <time>2012-09-08T14:20:46Z</time>
      </trkpt>
      <trkpt lat="45.98584" lon="3.6969">
        <ele>752.3395</ele>
        <time>2012-09-08T14:20:55Z</time>
      </trkpt>
      <trkpt lat="45.98604" lon="3.69688">
        <ele>754.4746</ele>
        <time>2012-09-08T14:21:04Z</time>
      </trkpt>
      <trkpt lat="45.98625" lon="3.69681">
        <ele>756.27313</ele>
        <time>2012-09-08T14:21:12Z</time>
      </trkpt>
      <trkpt lat="45.98643" lon="3.69677">
        <ele>757.7627</ele>
        <time>2012-09-08T14:21:18Z</time>
      </trkpt>
      <trkpt lat="45.98662" lon="3.69673">
        <ele>759.1311</ele>
        <time>2012-09-08T14:21:25Z</time>
      </trkpt>
      <trkpt lat="45.9868" lon="3.69664">
        <ele>760.2406</ele>
        <time>2012-09-08T14:21:31Z</time>
      </trkpt>
      <trkpt lat="45.98697" lon="3.69653">
        <ele>761.18097</ele>
        <time>2012-09-08T14:21:37Z</time>
      </trkpt>
      <trkpt lat="45.98714" lon="3.69641">
        <ele>762.1704</ele>
        <time>2012-09-08T14:21:43Z</time>
      </trkpt>
      <trkpt lat="45.98731" lon="3.69628">
        <ele>763.18555</ele>
        <time>2012-09-08T14:21:50Z</time>
      </trkpt>
      <trkpt lat="45.98749" lon="3.6963">
        <ele>766.2607</ele>
        <time>2012-09-08T14:22:07Z</time>
      </trkpt>
      <trkpt lat="45.98766" lon="3.69638">
        <ele>767.78296</ele>
        <time>2012-09-08T14:22:24Z</time>
      </trkpt>
      <trkpt lat="45.98786" lon="3.69636">
        <ele>768.9661</ele>
        <time>2012-09-08T14:22:36Z</time>
      </trkpt>
      <trkpt lat="45.98804" lon="3.69628">
        <ele>770.28265</ele>
        <time>2012-09-08T14:22:46Z</time>
      </trkpt>
      <trkpt lat="45.98822" lon="3.69619">
        <ele>772.6293</ele>
        <time>2012-09-08T14:22:58Z</time>
      </trkpt>
      <trkpt lat="45.9884" lon="3.69611">
        <ele>775.05835</ele>
        <time>2012-09-08T14:23:12Z</time>
      </trkpt>
      <trkpt lat="45.98855" lon="3.69596">
        <ele>776.44116</ele>
        <time>2012-09-08T14:23:25Z</time>
      </trkpt>
      <trkpt lat="45.98871" lon="3.69581">
        <ele>777.72437</ele>
        <time>2012-09-08T14:23:37Z</time>
      </trkpt>
      <trkpt lat="45.98887" lon="3.69565">
        <ele>780.3515</ele>
        <time>2012-09-08T14:23:48Z</time>
      </trkpt>
      <trkpt lat="45.98904" lon="3.69553">
        <ele>783.8104</ele>
        <time>2012-09-08T14:23:58Z</time>
      </trkpt>
      <trkpt lat="45.9892" lon="3.69538">
        <ele>787.0723</ele>
        <time>2012-09-08T14:24:07Z</time>
      </trkpt>
      <trkpt lat="45.98937" lon="3.69525">
        <ele>789.69617</ele>
        <time>2012-09-08T14:24:14Z</time>
      </trkpt>
      <trkpt lat="45.98955" lon="3.69514">
        <ele>793.1692</ele>
        <time>2012-09-08T14:24:23Z</time>
      </trkpt>
      <trkpt lat="45.98974" lon="3.69501">
        <ele>796.2752</ele>
        <time>2012-09-08T14:24:33Z</time>
      </trkpt>
      <trkpt lat="45.9899" lon="3.69486">
        <ele>798.8252</ele>
        <time>2012-09-08T14:24:41Z</time>
      </trkpt>
      <trkpt lat="45.99007" lon="3.69475">
        <ele>801.41095</ele>
        <time>2012-09-08T14:24:50Z</time>
      </trkpt>
      <trkpt lat="45.99024" lon="3.69467">
        <ele>803.7927</ele>
        <time>2012-09-08T14:25:00Z</time>
      </trkpt>
      <trkpt lat="45.99041" lon="3.69454">
        <ele>805.48315</ele>
        <time>2012-09-08T14:25:14Z</time>
      </trkpt>
      <trkpt lat="45.99058" lon="3.69445">
        <ele>805.55176</ele>
        <time>2012-09-08T14:25:28Z</time>
      </trkpt>
      <trkpt lat="45.99078" lon="3.69439">
        <ele>805.553</ele>
        <time>2012-09-08T14:25:40Z</time>
      </trkpt>
      <trkpt lat="45.99094" lon="3.69426">
        <ele>806.2366</ele>
        <time>2012-09-08T14:25:51Z</time>
      </trkpt>
      <trkpt lat="45.99104" lon="3.694">
        <ele>809.1043</ele>
        <time>2012-09-08T14:26:00Z</time>
      </trkpt>
      <trkpt lat="45.99119" lon="3.69383">
        <ele>813.384</ele>
        <time>2012-09-08T14:26:10Z</time>
      </trkpt>
      <trkpt lat="45.9913" lon="3.69405">
        <ele>816.9394</ele>
        <time>2012-09-08T14:26:21Z</time>
      </trkpt>
      <trkpt lat="45.99126" lon="3.6943">
        <ele>818.677</ele>
        <time>2012-09-08T14:26:32Z</time>
      </trkpt>
      <trkpt lat="45.99118" lon="3.69456">
        <ele>819.516</ele>
        <time>2012-09-08T14:26:43Z</time>
      </trkpt>
      <trkpt lat="45.99115" lon="3.69482">
        <ele>819.5518</ele>
        <time>2012-09-08T14:26:55Z</time>
      </trkpt>
      <trkpt lat="45.99111" lon="3.69508">
        <ele>819.803</ele>
        <time>2012-09-08T14:27:06Z</time>
      </trkpt>
      <trkpt lat="45.99108" lon="3.69535">
        <ele>821.2128</ele>
        <time>2012-09-08T14:27:18Z</time>
      </trkpt>
      <trkpt lat="45.99103" lon="3.69561">
        <ele>822.7671</ele>
        <time>2012-09-08T14:27:25Z</time>
      </trkpt>
      <trkpt lat="45.991" lon="3.69587">
        <ele>824.0524</ele>
        <time>2012-09-08T14:27:33Z</time>
      </trkpt>
      <trkpt lat="45.99092" lon="3.69613">
        <ele>824.7362</ele>
        <time>2012-09-08T14:27:40Z</time>
      </trkpt>
      <trkpt lat="45.99083" lon="3.69638">
        <ele>825.444</ele>
        <time>2012-09-08T14:27:47Z</time>
      </trkpt>
      <trkpt lat="45.99075" lon="3.69664">
        <ele>826.2257</ele>
        <time>2012-09-08T14:27:55Z</time>
      </trkpt>
      <trkpt lat="45.99068" lon="3.6969">
        <ele>828.1594</ele>
        <time>2012-09-08T14:28:02Z</time>
      </trkpt>
      <trkpt lat="45.99061" lon="3.69718">
        <ele>830.6458</ele>
        <time>2012-09-08T14:28:08Z</time>
      </trkpt>
      <trkpt lat="45.99055" lon="3.69746">
        <ele>833.58496</ele>
        <time>2012-09-08T14:28:17Z</time>
      </trkpt>
      <trkpt lat="45.99046" lon="3.69769">
        <ele>835.14343</ele>
        <time>2012-09-08T14:28:23Z</time>
      </trkpt>
      <trkpt lat="45.99037" lon="3.69793">
        <ele>835.2301</ele>
        <time>2012-09-08T14:28:29Z</time>
      </trkpt>
      <trkpt lat="45.99025" lon="3.69814">
        <ele>834.56506</ele>
        <time>2012-09-08T14:28:43Z</time>
      </trkpt>
      <trkpt lat="45.9901" lon="3.69829">
        <ele>835.552</ele>
        <time>2012-09-08T14:29:34Z</time>
      </trkpt>
      <trkpt lat="45.98999" lon="3.69851">
        <ele>837.3726</ele>
        <time>2012-09-08T14:30:07Z</time>
      </trkpt>
      <trkpt lat="45.98994" lon="3.69877">
        <ele>838.4703</ele>
        <time>2012-09-08T14:30:18Z</time>
      </trkpt>
      <trkpt lat="45.98991" lon="3.69905">
        <ele>837.2455</ele>
        <time>2012-09-08T14:30:29Z</time>
      </trkpt>
      <trkpt lat="45.98982" lon="3.69928">
        <ele>835.16034</ele>
        <time>2012-09-08T14:30:38Z</time>
      </trkpt>
      <trkpt lat="45.98975" lon="3.69952">
        <ele>832.4735</ele>
        <time>2012-09-08T14:30:47Z</time>
      </trkpt>
      <trkpt lat="45.98968" lon="3.69977">
        <ele>828.6923</ele>
        <time>2012-09-08T14:30:57Z</time>
      </trkpt>
      <trkpt lat="45.98961" lon="3.70001">
        <ele>826.2224</ele>
        <time>2012-09-08T14:31:05Z</time>
      </trkpt>
      <trkpt lat="45.98954" lon="3.70029">
        <ele>823.5032</ele>
        <time>2012-09-08T14:31:14Z</time>
      </trkpt>
      <trkpt lat="45.98949" lon="3.70055">
        <ele>821.9171</ele>
        <time>2012-09-08T14:31:21Z</time>
      </trkpt>
      <trkpt lat="45.98945" lon="3.7008">
        <ele>820.7351</ele>
        <time>2012-09-08T14:31:28Z</time>
      </trkpt>
      <trkpt lat="45.98939" lon="3.70111">
        <ele>819.4608</ele>
        <time>2012-09-08T14:31:35Z</time>
      </trkpt>
      <trkpt lat="45.98933" lon="3.70138">
        <ele>818.64386</ele>
        <time>2012-09-08T14:31:43Z</time>
      </trkpt>
      <trkpt lat="45.98927" lon="3.70164">
        <ele>818.5581</ele>
        <time>2012-09-08T14:31:53Z</time>
      </trkpt>
      <trkpt lat="45.98921" lon="3.70192">
        <ele>820.1805</ele>
        <time>2012-09-08T14:32:04Z</time>
      </trkpt>
      <trkpt lat="45.98915" lon="3.70218">
        <ele>821.11017</ele>
        <time>2012-09-08T14:32:14Z</time>
      </trkpt>
      <trkpt lat="45.98909" lon="3.70244">
        <ele>821.50867</ele>
        <time>2012-09-08T14:32:22Z</time>
      </trkpt>
      <trkpt lat="45.98902" lon="3.70271">
        <ele>823.382</ele>
        <time>2012-09-08T14:32:30Z</time>
      </trkpt>
      <trkpt lat="45.98895" lon="3.70297">
        <ele>825.9875</ele>
        <time>2012-09-08T14:32:37Z</time>
      </trkpt>
      <trkpt lat="45.98886" lon="3.70321">
        <ele>829.6778</ele>
        <time>2012-09-08T14:32:44Z</time>
      </trkpt>
      <trkpt lat="45.98881" lon="3.70347">
        <ele>833.73724</ele>
        <time>2012-09-08T14:32:53Z</time>
      </trkpt>
      <trkpt lat="45.98897" lon="3.70332">
        <ele>848.5755</ele>
        <time>2012-09-08T14:33:24Z</time>
      </trkpt>
      <trkpt lat="45.9891" lon="3.7031">
        <ele>853.1945</ele>
        <time>2012-09-08T14:33:35Z</time>
      </trkpt>
      <trkpt lat="45.98921" lon="3.70286">
        <ele>857.8141</ele>
        <time>2012-09-08T14:33:48Z</time>
      </trkpt>
      <trkpt lat="45.98934" lon="3.70267">
        <ele>861.0814</ele>
        <time>2012-09-08T14:34:00Z</time>
      </trkpt>
      <trkpt lat="45.98941" lon="3.70244">
        <ele>863.23285</ele>
        <time>2012-09-08T14:34:10Z</time>
      </trkpt>
      <trkpt lat="45.98945" lon="3.70218">
        <ele>864.35095</ele>
        <time>2012-09-08T14:34:19Z</time>
      </trkpt>
      <trkpt lat="45.9895" lon="3.70192">
        <ele>864.53784</ele>
        <time>2012-09-08T14:34:28Z</time>
      </trkpt>
      <trkpt lat="45.98963" lon="3.70173">
        <ele>865.4175</ele>
        <time>2012-09-08T14:34:35Z</time>
      </trkpt>
      <trkpt lat="45.9898" lon="3.7016">
        <ele>865.9724</ele>
        <time>2012-09-08T14:34:42Z</time>
      </trkpt>
      <trkpt lat="45.98996" lon="3.70147">
        <ele>867.0278</ele>
        <time>2012-09-08T14:34:48Z</time>
      </trkpt>
      <trkpt lat="45.99014" lon="3.70138">
        <ele>868.38007</ele>
        <time>2012-09-08T14:34:57Z</time>
      </trkpt>
      <trkpt lat="45.99031" lon="3.7013">
        <ele>869.4894</ele>
        <time>2012-09-08T14:35:08Z</time>
      </trkpt>
      <trkpt lat="45.99049" lon="3.70117">
        <ele>872.26746</ele>
        <time>2012-09-08T14:35:26Z</time>
      </trkpt>
      <trkpt lat="45.99064" lon="3.701">
        <ele>875.3058</ele>
        <time>2012-09-08T14:35:40Z</time>
      </trkpt>
      <trkpt lat="45.99078" lon="3.70083">
        <ele>877.8283</ele>
        <time>2012-09-08T14:35:48Z</time>
      </trkpt>
      <trkpt lat="45.99095" lon="3.70074">
        <ele>880.5805</ele>
        <time>2012-09-08T14:35:56Z</time>
      </trkpt>
      <trkpt lat="45.99114" lon="3.70072">
        <ele>881.95807</ele>
        <time>2012-09-08T14:36:02Z</time>
      </trkpt>
      <trkpt lat="45.99133" lon="3.70074">
        <ele>883.5456</ele>
        <time>2012-09-08T14:36:09Z</time>
      </trkpt>
      <trkpt lat="45.99152" lon="3.7008">
        <ele>885.8775</ele>
        <time>2012-09-08T14:36:18Z</time>
      </trkpt>
      <trkpt lat="45.99169" lon="3.70089">
        <ele>888.1589</ele>
        <time>2012-09-08T14:36:30Z</time>
      </trkpt>
      <trkpt lat="45.99185" lon="3.70102">
        <ele>890.41034</ele>
        <time>2012-09-08T14:36:49Z</time>
      </trkpt>
      <trkpt lat="45.99203" lon="3.70108">
        <ele>890.55194</ele>
        <time>2012-09-08T14:37:06Z</time>
      </trkpt>
      <trkpt lat="45.99223" lon="3.70117">
        <ele>890.553</ele>
        <time>2012-09-08T14:37:17Z</time>
      </trkpt>
      <trkpt lat="45.99242" lon="3.70126">
        <ele>890.553</ele>
        <time>2012-09-08T14:37:24Z</time>
      </trkpt>
      <trkpt lat="45.99259" lon="3.70136">
        <ele>890.553</ele>
        <time>2012-09-08T14:37:32Z</time>
      </trkpt>
      <trkpt lat="45.99274" lon="3.70153">
        <ele>890.553</ele>
        <time>2012-09-08T14:37:38Z</time>
      </trkpt>
      <trkpt lat="45.99291" lon="3.70164">
        <ele>890.553</ele>
        <time>2012-09-08T14:37:50Z</time>
      </trkpt>
      <trkpt lat="45.99309" lon="3.70162">
        <ele>890.553</ele>
        <time>2012-09-08T14:38:14Z</time>
      </trkpt>
      <trkpt lat="45.99309" lon="3.7019">
        <ele>886.53656</ele>
        <time>2012-09-08T14:39:41Z</time>
      </trkpt>
      <trkpt lat="45.99308" lon="3.70218">
        <ele>883.19006</ele>
        <time>2012-09-08T14:39:59Z</time>
      </trkpt>
      <trkpt lat="45.99303" lon="3.70244">
        <ele>880.03864</ele>
        <time>2012-09-08T14:40:10Z</time>
      </trkpt>
      <trkpt lat="45.99295" lon="3.70271">
        <ele>877.90186</ele>
        <time>2012-09-08T14:40:19Z</time>
      </trkpt>
      <trkpt lat="45.99287" lon="3.70297">
        <ele>875.5973</ele>
        <time>2012-09-08T14:40:30Z</time>
      </trkpt>
      <trkpt lat="45.99276" lon="3.70321">
        <ele>872.5761</ele>
        <time>2012-09-08T14:40:41Z</time>
      </trkpt>
      <trkpt lat="45.99267" lon="3.70347">
        <ele>872.2677</ele>
        <time>2012-09-08T14:40:48Z</time>
      </trkpt>
      <trkpt lat="45.99259" lon="3.7037">
        <ele>873.8557</ele>
        <time>2012-09-08T14:40:55Z</time>
      </trkpt>
      <trkpt lat="45.9925" lon="3.70396">
        <ele>876.06665</ele>
        <time>2012-09-08T14:41:03Z</time>
      </trkpt>
      <trkpt lat="45.99243" lon="3.70422">
        <ele>878.84155</ele>
        <time>2012-09-08T14:41:12Z</time>
      </trkpt>
      <trkpt lat="45.9924" lon="3.70447">
        <ele>882.3426</ele>
        <time>2012-09-08T14:41:21Z</time>
      </trkpt>
      <trkpt lat="45.99237" lon="3.70473">
        <ele>886.47644</ele>
        <time>2012-09-08T14:41:31Z</time>
      </trkpt>
      <trkpt lat="45.99234" lon="3.70501">
        <ele>888.15576</ele>
        <time>2012-09-08T14:41:40Z</time>
      </trkpt>
      <trkpt lat="45.99228" lon="3.70527">
        <ele>892.2059</ele>
        <time>2012-09-08T14:41:50Z</time>
      </trkpt>
      <trkpt lat="45.99225" lon="3.70553">
        <ele>896.8341</ele>
        <time>2012-09-08T14:41:59Z</time>
      </trkpt>
      <trkpt lat="45.99217" lon="3.7058">
        <ele>901.83844</ele>
        <time>2012-09-08T14:42:09Z</time>
      </trkpt>
      <trkpt lat="45.99205" lon="3.70602">
        <ele>906.7701</ele>
        <time>2012-09-08T14:42:22Z</time>
      </trkpt>
      <trkpt lat="45.99193" lon="3.70625">
        <ele>908.4191</ele>
        <time>2012-09-08T14:42:31Z</time>
      </trkpt>
      <trkpt lat="45.99188" lon="3.70651">
        <ele>908.5396</ele>
        <time>2012-09-08T14:42:39Z</time>
      </trkpt>
      <trkpt lat="45.99189" lon="3.70681">
        <ele>907.65234</ele>
        <time>2012-09-08T14:42:49Z</time>
      </trkpt>
      <trkpt lat="45.99191" lon="3.70707">
        <ele>906.5994</ele>
        <time>2012-09-08T14:43:00Z</time>
      </trkpt>
      <trkpt lat="45.99193" lon="3.70733">
        <ele>904.868</ele>
        <time>2012-09-08T14:43:10Z</time>
      </trkpt>
      <trkpt lat="45.99196" lon="3.70761">
        <ele>902.8899</ele>
        <time>2012-09-08T14:43:18Z</time>
      </trkpt>
      <trkpt lat="45.99193" lon="3.70789">
        <ele>900.96875</ele>
        <time>2012-09-08T14:43:25Z</time>
      </trkpt>
      <trkpt lat="45.99187" lon="3.70816">
        <ele>901.2298</ele>
        <time>2012-09-08T14:43:30Z</time>
      </trkpt>
      <trkpt lat="45.99181" lon="3.70844">
        <ele>901.4955</ele>
        <time>2012-09-08T14:43:36Z</time>
      </trkpt>
      <trkpt lat="45.99175" lon="3.7087">
        <ele>903.13214</ele>
        <time>2012-09-08T14:43:45Z</time>
      </trkpt>
      <trkpt lat="45.99172" lon="3.70896">
        <ele>905.2201</ele>
        <time>2012-09-08T14:44:02Z</time>
      </trkpt>
      <trkpt lat="45.99164" lon="3.70919">
        <ele>907.46313</ele>
        <time>2012-09-08T14:44:20Z</time>
      </trkpt>
      <trkpt lat="45.9917" lon="3.70945">
        <ele>927.0867</ele>
        <time>2012-09-08T14:46:26Z</time>
      </trkpt>
      <trkpt lat="45.99183" lon="3.70965">
        <ele>938.2368</ele>
        <time>2012-09-08T14:46:47Z</time>
      </trkpt>
      <trkpt lat="45.99193" lon="3.70986">
        <ele>943.24176</ele>
        <time>2012-09-08T14:47:00Z</time>
      </trkpt>
      <trkpt lat="45.99206" lon="3.71007">
        <ele>945.4655</ele>
        <time>2012-09-08T14:47:13Z</time>
      </trkpt>
      <trkpt lat="45.99219" lon="3.71027">
        <ele>946.3129</ele>
        <time>2012-09-08T14:47:25Z</time>
      </trkpt>
      <trkpt lat="45.99231" lon="3.71048">
        <ele>948.9371</ele>
        <time>2012-09-08T14:47:39Z</time>
      </trkpt>
      <trkpt lat="45.99248" lon="3.71059">
        <ele>955.2536</ele>
        <time>2012-09-08T14:48:05Z</time>
      </trkpt>
      <trkpt lat="45.99267" lon="3.71065">
        <ele>957.501</ele>
        <time>2012-09-08T14:48:22Z</time>
      </trkpt>
      <trkpt lat="45.99286" lon="3.7107">
        <ele>958.22736</ele>
        <time>2012-09-08T14:48:28Z</time>
      </trkpt>
      <trkpt lat="45.99306" lon="3.71068">
        <ele>958.4757</ele>
        <time>2012-09-08T14:48:33Z</time>
      </trkpt>
      <trkpt lat="45.99328" lon="3.71063">
        <ele>958.78467</ele>
        <time>2012-09-08T14:48:38Z</time>
      </trkpt>
      <trkpt lat="45.99347" lon="3.71057">
        <ele>959.37067</ele>
        <time>2012-09-08T14:48:43Z</time>
      </trkpt>
      <trkpt lat="45.99368" lon="3.7105">
        <ele>959.52057</ele>
        <time>2012-09-08T14:48:49Z</time>
      </trkpt>
      <trkpt lat="45.99389" lon="3.71044">
        <ele>959.54724</ele>
        <time>2012-09-08T14:48:55Z</time>
      </trkpt>
      <trkpt lat="45.99407" lon="3.71037">
        <ele>958.97455</ele>
        <time>2012-09-08T14:49:05Z</time>
      </trkpt>
      <trkpt lat="45.99425" lon="3.71031">
        <ele>958.554</ele>
        <time>2012-09-08T14:49:26Z</time>
      </trkpt>
      <trkpt lat="45.99448" lon="3.71022">
        <ele>960.8186</ele>
        <time>2012-09-08T14:50:09Z</time>
      </trkpt>
      <trkpt lat="45.99466" lon="3.71014">
        <ele>962.9378</ele>
        <time>2012-09-08T14:50:13Z</time>
      </trkpt>
      <trkpt lat="45.99487" lon="3.71007">
        <ele>964.47943</ele>
        <time>2012-09-08T14:50:17Z</time>
      </trkpt>
      <trkpt lat="45.99507" lon="3.70999">
        <ele>965.1001</ele>
        <time>2012-09-08T14:50:20Z</time>
      </trkpt>
      <trkpt lat="45.99526" lon="3.70988">
        <ele>965.11194</ele>
        <time>2012-09-08T14:50:23Z</time>
      </trkpt>
      <trkpt lat="45.99543" lon="3.70977">
        <ele>964.7888</ele>
        <time>2012-09-08T14:50:26Z</time>
      </trkpt>
      <trkpt lat="45.99561" lon="3.70967">
        <ele>964.6276</ele>
        <time>2012-09-08T14:50:30Z</time>
      </trkpt>
      <trkpt lat="45.99579" lon="3.70954">
        <ele>964.5707</ele>
        <time>2012-09-08T14:50:35Z</time>
      </trkpt>
      <trkpt lat="45.99597" lon="3.70939">
        <ele>964.55615</ele>
        <time>2012-09-08T14:50:41Z</time>
      </trkpt>
      <trkpt lat="45.99618" lon="3.7093">
        <ele>964.3038</ele>
        <time>2012-09-08T14:50:46Z</time>
      </trkpt>
      <trkpt lat="45.99637" lon="3.70924">
        <ele>963.86975</ele>
        <time>2012-09-08T14:50:49Z</time>
      </trkpt>
      <trkpt lat="45.99655" lon="3.70922">
        <ele>963.43665</ele>
        <time>2012-09-08T14:50:52Z</time>
      </trkpt>
      <trkpt lat="45.99673" lon="3.70917">
        <ele>962.9258</ele>
        <time>2012-09-08T14:50:55Z</time>
      </trkpt>
      <trkpt lat="45.99691" lon="3.70911">
        <ele>962.71027</ele>
        <time>2012-09-08T14:50:58Z</time>
      </trkpt>
      <trkpt lat="45.99711" lon="3.70904">
        <ele>962.6028</ele>
        <time>2012-09-08T14:51:02Z</time>
      </trkpt>
      <trkpt lat="45.99729" lon="3.70902">
        <ele>961.88513</ele>
        <time>2012-09-08T14:51:06Z</time>
      </trkpt>
      <trkpt lat="45.99752" lon="3.70902">
        <ele>961.4431</ele>
        <time>2012-09-08T14:51:09Z</time>
      </trkpt>
      <trkpt lat="45.99776" lon="3.70902">
        <ele>960.491</ele>
        <time>2012-09-08T14:51:12Z</time>
      </trkpt>
      <trkpt lat="45.99796" lon="3.709">
        <ele>959.5112</ele>
        <time>2012-09-08T14:51:15Z</time>
      </trkpt>
      <trkpt lat="45.9982" lon="3.70904">
        <ele>958.1726</ele>
        <time>2012-09-08T14:51:19Z</time>
      </trkpt>
      <trkpt lat="45.9984" lon="3.70911">
        <ele>956.98627</ele>
        <time>2012-09-08T14:51:22Z</time>
      </trkpt>
      <trkpt lat="45.99867" lon="3.70915">
        <ele>955.72015</ele>
        <time>2012-09-08T14:51:25Z</time>
      </trkpt>
      <trkpt lat="45.99887" lon="3.70913">
        <ele>954.77203</ele>
        <time>2012-09-08T14:51:27Z</time>
      </trkpt>
      <trkpt lat="45.99908" lon="3.70913">
        <ele>953.8012</ele>
        <time>2012-09-08T14:51:29Z</time>
      </trkpt>
      <trkpt lat="45.99928" lon="3.70915">
        <ele>953.0051</ele>
        <time>2012-09-08T14:51:31Z</time>
      </trkpt>
      <trkpt lat="45.99949" lon="3.70917">
        <ele>952.3698</ele>
        <time>2012-09-08T14:51:33Z</time>
      </trkpt>
      <trkpt lat="45.9997" lon="3.70919">
        <ele>951.76245</ele>
        <time>2012-09-08T14:51:35Z</time>
      </trkpt>
      <trkpt lat="45.99991" lon="3.70922">
        <ele>950.98334</ele>
        <time>2012-09-08T14:51:37Z</time>
      </trkpt>
      <trkpt lat="46.00015" lon="3.70917">
        <ele>949.1408</ele>
        <time>2012-09-08T14:51:40Z</time>
      </trkpt>
      <trkpt lat="46.00036" lon="3.70902">
        <ele>946.9572</ele>
        <time>2012-09-08T14:51:43Z</time>
      </trkpt>
      <trkpt lat="46.00051" lon="3.70887">
        <ele>945.9054</ele>
        <time>2012-09-08T14:51:45Z</time>
      </trkpt>
      <trkpt lat="46.00066" lon="3.7087">
        <ele>944.8762</ele>
        <time>2012-09-08T14:51:47Z</time>
      </trkpt>
      <trkpt lat="46.00081" lon="3.70855">
        <ele>944.2973</ele>
        <time>2012-09-08T14:51:49Z</time>
      </trkpt>
      <trkpt lat="46.00096" lon="3.7084">
        <ele>943.5342</ele>
        <time>2012-09-08T14:51:51Z</time>
      </trkpt>
      <trkpt lat="46.00121" lon="3.70823">
        <ele>942.5294</ele>
        <time>2012-09-08T14:51:54Z</time>
      </trkpt>
      <trkpt lat="46.00143" lon="3.70808">
        <ele>941.66473</ele>
        <time>2012-09-08T14:51:56Z</time>
      </trkpt>
      <trkpt lat="46.00164" lon="3.70795">
        <ele>940.74084</ele>
        <time>2012-09-08T14:51:58Z</time>
      </trkpt>
      <trkpt lat="46.0019" lon="3.70791">
        <ele>939.7837</ele>
        <time>2012-09-08T14:52:00Z</time>
      </trkpt>
      <trkpt lat="46.00215" lon="3.70789">
        <ele>938.99524</ele>
        <time>2012-09-08T14:52:02Z</time>
      </trkpt>
      <trkpt lat="46.00237" lon="3.70791">
        <ele>938.11426</ele>
        <time>2012-09-08T14:52:04Z</time>
      </trkpt>
      <trkpt lat="46.00256" lon="3.70791">
        <ele>937.1812</ele>
        <time>2012-09-08T14:52:06Z</time>
      </trkpt>
      <trkpt lat="46.00279" lon="3.70793">
        <ele>935.4118</ele>
        <time>2012-09-08T14:52:09Z</time>
      </trkpt>
      <trkpt lat="46.00304" lon="3.70784">
        <ele>933.50903</ele>
        <time>2012-09-08T14:52:12Z</time>
      </trkpt>
      <trkpt lat="46.00321" lon="3.70763">
        <ele>931.96576</ele>
        <time>2012-09-08T14:52:14Z</time>
      </trkpt>
      <trkpt lat="46.00336" lon="3.70731">
        <ele>930.66016</ele>
        <time>2012-09-08T14:52:16Z</time>
      </trkpt>
      <trkpt lat="46.00351" lon="3.70701">
        <ele>929.3008</ele>
        <time>2012-09-08T14:52:18Z</time>
      </trkpt>
      <trkpt lat="46.00369" lon="3.70675">
        <ele>927.84863</ele>
        <time>2012-09-08T14:52:20Z</time>
      </trkpt>
      <trkpt lat="46.0039" lon="3.70658">
        <ele>926.5943</ele>
        <time>2012-09-08T14:52:22Z</time>
      </trkpt>
      <trkpt lat="46.00411" lon="3.70643">
        <ele>925.45123</ele>
        <time>2012-09-08T14:52:24Z</time>
      </trkpt>
      <trkpt lat="46.00436" lon="3.70638">
        <ele>924.1832</ele>
        <time>2012-09-08T14:52:26Z</time>
      </trkpt>
      <trkpt lat="46.00458" lon="3.70638">
        <ele>922.78253</ele>
        <time>2012-09-08T14:52:28Z</time>
      </trkpt>
      <trkpt lat="46.00479" lon="3.70638">
        <ele>921.1196</ele>
        <time>2012-09-08T14:52:30Z</time>
      </trkpt>
      <trkpt lat="46.005" lon="3.70641">
        <ele>919.3092</ele>
        <time>2012-09-08T14:52:32Z</time>
      </trkpt>
      <trkpt lat="46.0052" lon="3.70643">
        <ele>917.8534</ele>
        <time>2012-09-08T14:52:34Z</time>
      </trkpt>
      <trkpt lat="46.00545" lon="3.70643">
        <ele>914.5704</ele>
        <time>2012-09-08T14:52:37Z</time>
      </trkpt>
      <trkpt lat="46.00571" lon="3.70645">
        <ele>909.96655</ele>
        <time>2012-09-08T14:52:40Z</time>
      </trkpt>
      <trkpt lat="46.00597" lon="3.70641">
        <ele>905.5712</ele>
        <time>2012-09-08T14:52:43Z</time>
      </trkpt>
      <trkpt lat="46.0062" lon="3.70632">
        <ele>902.23254</ele>
        <time>2012-09-08T14:52:46Z</time>
      </trkpt>
      <trkpt lat="46.00641" lon="3.70625">
        <ele>899.8553</ele>
        <time>2012-09-08T14:52:49Z</time>
      </trkpt>
      <trkpt lat="46.0066" lon="3.70617">
        <ele>898.0868</ele>
        <time>2012-09-08T14:52:52Z</time>
      </trkpt>
      <trkpt lat="46.00679" lon="3.70602">
        <ele>896.33887</ele>
        <time>2012-09-08T14:52:57Z</time>
      </trkpt>
      <trkpt lat="46.00695" lon="3.70585">
        <ele>895.6345</ele>
        <time>2012-09-08T14:53:00Z</time>
      </trkpt>
      <trkpt lat="46.00713" lon="3.70568">
        <ele>894.7593</ele>
        <time>2012-09-08T14:53:03Z</time>
      </trkpt>
      <trkpt lat="46.0073" lon="3.70555">
        <ele>894.0619</ele>
        <time>2012-09-08T14:53:06Z</time>
      </trkpt>
      <trkpt lat="46.00749" lon="3.7054">
        <ele>893.714</ele>
        <time>2012-09-08T14:53:10Z</time>
      </trkpt>
      <trkpt lat="46.00765" lon="3.70527">
        <ele>893.16644</ele>
        <time>2012-09-08T14:53:14Z</time>
      </trkpt>
      <trkpt lat="46.00783" lon="3.70518">
        <ele>892.1204</ele>
        <time>2012-09-08T14:53:19Z</time>
      </trkpt>
      <trkpt lat="46.00805" lon="3.7051">
        <ele>891.2502</ele>
        <time>2012-09-08T14:53:24Z</time>
      </trkpt>
      <trkpt lat="46.00822" lon="3.70499">
        <ele>890.77356</ele>
        <time>2012-09-08T14:53:28Z</time>
      </trkpt>
      <trkpt lat="46.00841" lon="3.7048">
        <ele>890.58246</ele>
        <time>2012-09-08T14:53:35Z</time>
      </trkpt>
      <trkpt lat="46.0086" lon="3.70471">
        <ele>890.56</ele>
        <time>2012-09-08T14:53:40Z</time>
      </trkpt>
      <trkpt lat="46.00878" lon="3.7046">
        <ele>891.3828</ele>
        <time>2012-09-08T14:53:45Z</time>
      </trkpt>
      <trkpt lat="46.00895" lon="3.70452">
        <ele>892.2753</ele>
        <time>2012-09-08T14:53:50Z</time>
      </trkpt>
      <trkpt lat="46.00913" lon="3.70443">
        <ele>893.0817</ele>
        <time>2012-09-08T14:53:56Z</time>
      </trkpt>
      <trkpt lat="46.00932" lon="3.70435">
        <ele>893.4039</ele>
        <time>2012-09-08T14:54:00Z</time>
      </trkpt>
      <trkpt lat="46.00953" lon="3.7043">
        <ele>894.20123</ele>
        <time>2012-09-08T14:54:05Z</time>
      </trkpt>
      <trkpt lat="46.00978" lon="3.70424">
        <ele>895.98517</ele>
        <time>2012-09-08T14:54:10Z</time>
      </trkpt>
      <trkpt lat="46.01001" lon="3.70415">
        <ele>898.4853</ele>
        <time>2012-09-08T14:54:13Z</time>
      </trkpt>
      <trkpt lat="46.01018" lon="3.70407">
        <ele>899.82745</ele>
        <time>2012-09-08T14:54:15Z</time>
      </trkpt>
      <trkpt lat="46.01045" lon="3.704">
        <ele>901.2625</ele>
        <time>2012-09-08T14:54:18Z</time>
      </trkpt>
      <trkpt lat="46.01071" lon="3.70407">
        <ele>901.4305</ele>
        <time>2012-09-08T14:54:21Z</time>
      </trkpt>
      <trkpt lat="46.01097" lon="3.70409">
        <ele>901.0638</ele>
        <time>2012-09-08T14:54:24Z</time>
      </trkpt>
      <trkpt lat="46.01115" lon="3.70409">
        <ele>900.15283</ele>
        <time>2012-09-08T14:54:26Z</time>
      </trkpt>
      <trkpt lat="46.01141" lon="3.70413">
        <ele>897.13416</ele>
        <time>2012-09-08T14:54:29Z</time>
      </trkpt>
      <trkpt lat="46.01159" lon="3.70413">
        <ele>894.8799</ele>
        <time>2012-09-08T14:54:31Z</time>
      </trkpt>
      <trkpt lat="46.01177" lon="3.70411">
        <ele>892.2994</ele>
        <time>2012-09-08T14:54:33Z</time>
      </trkpt>
      <trkpt lat="46.01202" lon="3.70404">
        <ele>890.22284</ele>
        <time>2012-09-08T14:54:35Z</time>
      </trkpt>
      <trkpt lat="46.01228" lon="3.70398">
        <ele>888.3673</ele>
        <time>2012-09-08T14:54:37Z</time>
      </trkpt>
      <trkpt lat="46.01251" lon="3.70389">
        <ele>886.44855</ele>
        <time>2012-09-08T14:54:39Z</time>
      </trkpt>
      <trkpt lat="46.01274" lon="3.70379">
        <ele>884.93176</ele>
        <time>2012-09-08T14:54:41Z</time>
      </trkpt>
      <trkpt lat="46.01295" lon="3.70366">
        <ele>883.64105</ele>
        <time>2012-09-08T14:54:43Z</time>
      </trkpt>
      <trkpt lat="46.01316" lon="3.70351">
        <ele>882.47754</ele>
        <time>2012-09-08T14:54:45Z</time>
      </trkpt>
      <trkpt lat="46.01336" lon="3.70338">
        <ele>881.63556</ele>
        <time>2012-09-08T14:54:47Z</time>
      </trkpt>
      <trkpt lat="46.01357" lon="3.70323">
        <ele>880.7244</ele>
        <time>2012-09-08T14:54:49Z</time>
      </trkpt>
      <trkpt lat="46.01376" lon="3.70308">
        <ele>880.2119</ele>
        <time>2012-09-08T14:54:51Z</time>
      </trkpt>
      <trkpt lat="46.01396" lon="3.70295">
        <ele>879.25287</ele>
        <time>2012-09-08T14:54:54Z</time>
      </trkpt>
      <trkpt lat="46.01418" lon="3.7028">
        <ele>877.2627</ele>
        <time>2012-09-08T14:54:58Z</time>
      </trkpt>
      <trkpt lat="46.01437" lon="3.70263">
        <ele>874.1448</ele>
        <time>2012-09-08T14:55:02Z</time>
      </trkpt>
      <trkpt lat="46.01454" lon="3.70246">
        <ele>871.9589</ele>
        <time>2012-09-08T14:55:05Z</time>
      </trkpt>
      <trkpt lat="46.01475" lon="3.70239">
        <ele>870.318</ele>
        <time>2012-09-08T14:55:08Z</time>
      </trkpt>
      <trkpt lat="46.01495" lon="3.70239">
        <ele>869.0476</ele>
        <time>2012-09-08T14:55:11Z</time>
      </trkpt>
      <trkpt lat="46.01515" lon="3.70241">
        <ele>867.49603</ele>
        <time>2012-09-08T14:55:14Z</time>
      </trkpt>
      <trkpt lat="46.01534" lon="3.70248">
        <ele>865.1071</ele>
        <time>2012-09-08T14:55:17Z</time>
      </trkpt>
      <trkpt lat="46.01555" lon="3.70256">
        <ele>860.5211</ele>
        <time>2012-09-08T14:55:20Z</time>
      </trkpt>
      <trkpt lat="46.01573" lon="3.70261">
        <ele>854.97705</ele>
        <time>2012-09-08T14:55:23Z</time>
      </trkpt>
      <trkpt lat="46.01595" lon="3.70267">
        <ele>848.7419</ele>
        <time>2012-09-08T14:55:27Z</time>
      </trkpt>
      <trkpt lat="46.01615" lon="3.70267">
        <ele>844.36664</ele>
        <time>2012-09-08T14:55:31Z</time>
      </trkpt>
      <trkpt lat="46.01636" lon="3.70263">
        <ele>841.6151</ele>
        <time>2012-09-08T14:55:35Z</time>
      </trkpt>
      <trkpt lat="46.01656" lon="3.70248">
        <ele>838.9398</ele>
        <time>2012-09-08T14:55:39Z</time>
      </trkpt>
      <trkpt lat="46.01673" lon="3.70233">
        <ele>835.7965</ele>
        <time>2012-09-08T14:55:43Z</time>
      </trkpt>
      <trkpt lat="46.01688" lon="3.70214">
        <ele>834.6635</ele>
        <time>2012-09-08T14:55:48Z</time>
      </trkpt>
      <trkpt lat="46.01701" lon="3.70192">
        <ele>834.5792</ele>
        <time>2012-09-08T14:55:53Z</time>
      </trkpt>
      <trkpt lat="46.01715" lon="3.70168">
        <ele>834.8077</ele>
        <time>2012-09-08T14:55:59Z</time>
      </trkpt>
      <trkpt lat="46.01729" lon="3.70145">
        <ele>838.0089</ele>
        <time>2012-09-08T14:56:04Z</time>
      </trkpt>
      <trkpt lat="46.01745" lon="3.70121">
        <ele>842.4112</ele>
        <time>2012-09-08T14:56:09Z</time>
      </trkpt>
      <trkpt lat="46.01759" lon="3.70102">
        <ele>844.8089</ele>
        <time>2012-09-08T14:56:13Z</time>
      </trkpt>
      <trkpt lat="46.01776" lon="3.70089">
        <ele>846.00116</ele>
        <time>2012-09-08T14:56:17Z</time>
      </trkpt>
      <trkpt lat="46.01794" lon="3.70076">
        <ele>846.1284</ele>
        <time>2012-09-08T14:56:21Z</time>
      </trkpt>
      <trkpt lat="46.01812" lon="3.70063">
        <ele>845.04755</ele>
        <time>2012-09-08T14:56:25Z</time>
      </trkpt>
      <trkpt lat="46.01827" lon="3.70048">
        <ele>844.18353</ele>
        <time>2012-09-08T14:56:28Z</time>
      </trkpt>
      <trkpt lat="46.01846" lon="3.70033">
        <ele>844.069</ele>
        <time>2012-09-08T14:56:31Z</time>
      </trkpt>
      <trkpt lat="46.01867" lon="3.7002">
        <ele>845.61444</ele>
        <time>2012-09-08T14:56:34Z</time>
      </trkpt>
      <trkpt lat="46.0189" lon="3.70012">
        <ele>848.2508</ele>
        <time>2012-09-08T14:56:37Z</time>
      </trkpt>
      <trkpt lat="46.0191" lon="3.70003">
        <ele>850.98804</ele>
        <time>2012-09-08T14:56:40Z</time>
      </trkpt>
      <trkpt lat="46.01934" lon="3.69997">
        <ele>853.8625</ele>
        <time>2012-09-08T14:56:44Z</time>
      </trkpt>
      <trkpt lat="46.01954" lon="3.6999">
        <ele>854.83984</ele>
        <time>2012-09-08T14:56:47Z</time>
      </trkpt>
      <trkpt lat="46.01974" lon="3.6999">
        <ele>855.25214</ele>
        <time>2012-09-08T14:56:50Z</time>
      </trkpt>
      <trkpt lat="46.01993" lon="3.6999">
        <ele>855.1338</ele>
        <time>2012-09-08T14:56:52Z</time>
      </trkpt>
      <trkpt lat="46.02015" lon="3.69984">
        <ele>854.6297</ele>
        <time>2012-09-08T14:56:54Z</time>
      </trkpt>
      <trkpt lat="46.02036" lon="3.69965">
        <ele>853.9086</ele>
        <time>2012-09-08T14:56:56Z</time>
      </trkpt>
      <trkpt lat="46.02051" lon="3.69937">
        <ele>852.62805</ele>
        <time>2012-09-08T14:56:58Z</time>
      </trkpt>
      <trkpt lat="46.02067" lon="3.69913">
        <ele>851.4702</ele>
        <time>2012-09-08T14:57:00Z</time>
      </trkpt>
      <trkpt lat="46.02082" lon="3.69889">
        <ele>849.9439</ele>
        <time>2012-09-08T14:57:02Z</time>
      </trkpt>
      <trkpt lat="46.02095" lon="3.69868">
        <ele>848.4604</ele>
        <time>2012-09-08T14:57:04Z</time>
      </trkpt>
      <trkpt lat="46.0211" lon="3.69842">
        <ele>846.09204</ele>
        <time>2012-09-08T14:57:07Z</time>
      </trkpt>
      <trkpt lat="46.02126" lon="3.69821">
        <ele>842.84467</ele>
        <time>2012-09-08T14:57:11Z</time>
      </trkpt>
      <trkpt lat="46.0214" lon="3.69804">
        <ele>840.69995</ele>
        <time>2012-09-08T14:57:15Z</time>
      </trkpt>
      <trkpt lat="46.02155" lon="3.69789">
        <ele>839.07355</ele>
        <time>2012-09-08T14:57:21Z</time>
      </trkpt>
      <trkpt lat="46.02171" lon="3.69771">
        <ele>838.6456</ele>
        <time>2012-09-08T14:57:27Z</time>
      </trkpt>
      <trkpt lat="46.02186" lon="3.69756">
        <ele>839.3377</ele>
        <time>2012-09-08T14:57:32Z</time>
      </trkpt>
      <trkpt lat="46.02204" lon="3.69741">
        <ele>839.51465</ele>
        <time>2012-09-08T14:57:38Z</time>
      </trkpt>
      <trkpt lat="46.02223" lon="3.69729">
        <ele>839.5462</ele>
        <time>2012-09-08T14:57:44Z</time>
      </trkpt>
      <trkpt lat="46.0224" lon="3.6972">
        <ele>839.55084</ele>
        <time>2012-09-08T14:57:48Z</time>
      </trkpt>
      <trkpt lat="46.02259" lon="3.69711">
        <ele>838.0406</ele>
        <time>2012-09-08T14:57:52Z</time>
      </trkpt>
      <trkpt lat="46.02278" lon="3.69696">
        <ele>836.906</ele>
        <time>2012-09-08T14:57:57Z</time>
      </trkpt>
      <trkpt lat="46.02297" lon="3.69679">
        <ele>838.0079</ele>
        <time>2012-09-08T14:58:02Z</time>
      </trkpt>
      <trkpt lat="46.02318" lon="3.69664">
        <ele>840.30743</ele>
        <time>2012-09-08T14:58:07Z</time>
      </trkpt>
      <trkpt lat="46.02336" lon="3.69653">
        <ele>841.25745</ele>
        <time>2012-09-08T14:58:12Z</time>
      </trkpt>
      <trkpt lat="46.02351" lon="3.69638">
        <ele>841.48285</ele>
        <time>2012-09-08T14:58:17Z</time>
      </trkpt>
      <trkpt lat="46.02369" lon="3.69626">
        <ele>841.7864</ele>
        <time>2012-09-08T14:58:22Z</time>
      </trkpt>
      <trkpt lat="46.02389" lon="3.69611">
        <ele>842.3711</ele>
        <time>2012-09-08T14:58:27Z</time>
      </trkpt>
      <trkpt lat="46.02406" lon="3.696">
        <ele>842.4954</ele>
        <time>2012-09-08T14:58:31Z</time>
      </trkpt>
      <trkpt lat="46.02423" lon="3.69589">
        <ele>843.6559</ele>
        <time>2012-09-08T14:58:35Z</time>
      </trkpt>
      <trkpt lat="46.02441" lon="3.69581">
        <ele>844.6832</ele>
        <time>2012-09-08T14:58:42Z</time>
      </trkpt>
      <trkpt lat="46.02458" lon="3.6957">
        <ele>845.3982</ele>
        <time>2012-09-08T14:58:48Z</time>
      </trkpt>
      <trkpt lat="46.02476" lon="3.69559">
        <ele>845.5163</ele>
        <time>2012-09-08T14:58:53Z</time>
      </trkpt>
      <trkpt lat="46.02496" lon="3.69548">
        <ele>845.5443</ele>
        <time>2012-09-08T14:58:58Z</time>
      </trkpt>
      <trkpt lat="46.02512" lon="3.69535">
        <ele>845.5509</ele>
        <time>2012-09-08T14:59:03Z</time>
      </trkpt>
      <trkpt lat="46.02529" lon="3.6952">
        <ele>846.2361</ele>
        <time>2012-09-08T14:59:08Z</time>
      </trkpt>
      <trkpt lat="46.02547" lon="3.69503">
        <ele>847.5093</ele>
        <time>2012-09-08T14:59:14Z</time>
      </trkpt>
      <trkpt lat="46.02569" lon="3.6949">
        <ele>849.3473</ele>
        <time>2012-09-08T14:59:21Z</time>
      </trkpt>
      <trkpt lat="46.02585" lon="3.69473">
        <ele>851.522</ele>
        <time>2012-09-08T14:59:27Z</time>
      </trkpt>
      <trkpt lat="46.02601" lon="3.6946">
        <ele>853.8992</ele>
        <time>2012-09-08T14:59:32Z</time>
      </trkpt>
      <trkpt lat="46.02627" lon="3.69445">
        <ele>856.4595</ele>
        <time>2012-09-08T14:59:40Z</time>
      </trkpt>
      <trkpt lat="46.02644" lon="3.69435">
        <ele>858.6079</ele>
        <time>2012-09-08T14:59:50Z</time>
      </trkpt>
      <trkpt lat="46.02665" lon="3.69422">
        <ele>860.553</ele>
        <time>2012-09-08T15:00:39Z</time>
      </trkpt>
      <trkpt lat="46.02666" lon="3.69392">
        <ele>863.5657</ele>
        <time>2012-09-08T15:03:02Z</time>
      </trkpt>
      <trkpt lat="46.02674" lon="3.69359">
        <ele>865.9398</ele>
        <time>2012-09-08T15:03:06Z</time>
      </trkpt>
      <trkpt lat="46.02681" lon="3.69334">
        <ele>867.6207</ele>
        <time>2012-09-08T15:03:10Z</time>
      </trkpt>
      <trkpt lat="46.0269" lon="3.69308">
        <ele>867.47217</ele>
        <time>2012-09-08T15:03:13Z</time>
      </trkpt>
      <trkpt lat="46.02709" lon="3.69287">
        <ele>865.2377</ele>
        <time>2012-09-08T15:03:16Z</time>
      </trkpt>
      <trkpt lat="46.02728" lon="3.69267">
        <ele>861.9825</ele>
        <time>2012-09-08T15:03:19Z</time>
      </trkpt>
      <trkpt lat="46.02746" lon="3.69248">
        <ele>858.267</ele>
        <time>2012-09-08T15:03:23Z</time>
      </trkpt>
      <trkpt lat="46.02762" lon="3.69231">
        <ele>855.8336</ele>
        <time>2012-09-08T15:03:27Z</time>
      </trkpt>
      <trkpt lat="46.02778" lon="3.69218">
        <ele>854.9582</ele>
        <time>2012-09-08T15:03:31Z</time>
      </trkpt>
      <trkpt lat="46.02795" lon="3.69205">
        <ele>853.7476</ele>
        <time>2012-09-08T15:03:35Z</time>
      </trkpt>
      <trkpt lat="46.02805" lon="3.69181">
        <ele>852.93097</ele>
        <time>2012-09-08T15:03:39Z</time>
      </trkpt>
      <trkpt lat="46.02811" lon="3.69153">
        <ele>852.71246</ele>
        <time>2012-09-08T15:03:42Z</time>
      </trkpt>
      <trkpt lat="46.02819" lon="3.69119">
        <ele>852.6203</ele>
        <time>2012-09-08T15:03:45Z</time>
      </trkpt>
      <trkpt lat="46.02825" lon="3.69085">
        <ele>852.00323</ele>
        <time>2012-09-08T15:03:48Z</time>
      </trkpt>
      <trkpt lat="46.02833" lon="3.69053">
        <ele>851.743</ele>
        <time>2012-09-08T15:03:51Z</time>
      </trkpt>
      <trkpt lat="46.02841" lon="3.6902">
        <ele>851.6331</ele>
        <time>2012-09-08T15:03:54Z</time>
      </trkpt>
      <trkpt lat="46.02849" lon="3.68993">
        <ele>851.5868</ele>
        <time>2012-09-08T15:03:57Z</time>
      </trkpt>
      <trkpt lat="46.02854" lon="3.68965">
        <ele>852.1454</ele>
        <time>2012-09-08T15:04:00Z</time>
      </trkpt>
      <trkpt lat="46.02862" lon="3.68935">
        <ele>852.81854</ele>
        <time>2012-09-08T15:04:03Z</time>
      </trkpt>
      <trkpt lat="46.02866" lon="3.68907">
        <ele>853.24316</ele>
        <time>2012-09-08T15:04:06Z</time>
      </trkpt>
      <trkpt lat="46.02871" lon="3.68877">
        <ele>853.45496</ele>
        <time>2012-09-08T15:04:10Z</time>
      </trkpt>
      <trkpt lat="46.02885" lon="3.68847">
        <ele>853.522</ele>
        <time>2012-09-08T15:04:14Z</time>
      </trkpt>
      <trkpt lat="46.02897" lon="3.68825">
        <ele>853.5399</ele>
        <time>2012-09-08T15:04:17Z</time>
      </trkpt>
      <trkpt lat="46.02912" lon="3.68799">
        <ele>853.7989</ele>
        <time>2012-09-08T15:04:21Z</time>
      </trkpt>
      <trkpt lat="46.02922" lon="3.68776">
        <ele>854.3144</ele>
        <time>2012-09-08T15:04:25Z</time>
      </trkpt>
      <trkpt lat="46.02927" lon="3.6875">
        <ele>854.6181</ele>
        <time>2012-09-08T15:04:29Z</time>
      </trkpt>
      <trkpt lat="46.02926" lon="3.68718">
        <ele>854.1361</ele>
        <time>2012-09-08T15:04:33Z</time>
      </trkpt>
      <trkpt lat="46.02929" lon="3.68684">
        <ele>853.2209</ele>
        <time>2012-09-08T15:04:36Z</time>
      </trkpt>
      <trkpt lat="46.02935" lon="3.68658">
        <ele>852.92865</ele>
        <time>2012-09-08T15:04:38Z</time>
      </trkpt>
      <trkpt lat="46.02941" lon="3.6863">
        <ele>852.76434</ele>
        <time>2012-09-08T15:04:40Z</time>
      </trkpt>
      <trkpt lat="46.02949" lon="3.686">
        <ele>852.2344</ele>
        <time>2012-09-08T15:04:42Z</time>
      </trkpt>
      <trkpt lat="46.02957" lon="3.6857">
        <ele>851.2488</ele>
        <time>2012-09-08T15:04:44Z</time>
      </trkpt>
      <trkpt lat="46.02966" lon="3.68542">
        <ele>850.0694</ele>
        <time>2012-09-08T15:04:46Z</time>
      </trkpt>
      <trkpt lat="46.02974" lon="3.68516">
        <ele>848.96844</ele>
        <time>2012-09-08T15:04:48Z</time>
      </trkpt>
      <trkpt lat="46.02983" lon="3.6849">
        <ele>847.9117</ele>
        <time>2012-09-08T15:04:50Z</time>
      </trkpt>
      <trkpt lat="46.0299" lon="3.68467">
        <ele>847.06726</ele>
        <time>2012-09-08T15:04:52Z</time>
      </trkpt>
      <trkpt lat="46.03" lon="3.68433">
        <ele>846.19183</ele>
        <time>2012-09-08T15:04:55Z</time>
      </trkpt>
      <trkpt lat="46.03012" lon="3.684">
        <ele>845.8225</ele>
        <time>2012-09-08T15:04:58Z</time>
      </trkpt>
      <trkpt lat="46.03023" lon="3.68377">
        <ele>845.7046</ele>
        <time>2012-09-08T15:05:00Z</time>
      </trkpt>
      <trkpt lat="46.03038" lon="3.68345">
        <ele>845.61694</ele>
        <time>2012-09-08T15:05:03Z</time>
      </trkpt>
      <trkpt lat="46.0305" lon="3.68317">
        <ele>845.57996</ele>
        <time>2012-09-08T15:05:06Z</time>
      </trkpt>
      <trkpt lat="46.03058" lon="3.68289">
        <ele>844.98627</ele>
        <time>2012-09-08T15:05:09Z</time>
      </trkpt>
      <trkpt lat="46.03074" lon="3.68272">
        <ele>843.47015</ele>
        <time>2012-09-08T15:05:12Z</time>
      </trkpt>
      <trkpt lat="46.03089" lon="3.68257">
        <ele>840.95557</ele>
        <time>2012-09-08T15:05:15Z</time>
      </trkpt>
      <trkpt lat="46.031" lon="3.68231">
        <ele>838.73505</ele>
        <time>2012-09-08T15:05:19Z</time>
      </trkpt>
      <trkpt lat="46.03107" lon="3.68203">
        <ele>838.0517</ele>
        <time>2012-09-08T15:05:22Z</time>
      </trkpt>
      <trkpt lat="46.03124" lon="3.68186">
        <ele>837.76337</ele>
        <time>2012-09-08T15:05:25Z</time>
      </trkpt>
      <trkpt lat="46.03138" lon="3.68162">
        <ele>837.8918</ele>
        <time>2012-09-08T15:05:28Z</time>
      </trkpt>
      <trkpt lat="46.03151" lon="3.68136">
        <ele>838.52405</ele>
        <time>2012-09-08T15:05:31Z</time>
      </trkpt>
      <trkpt lat="46.03163" lon="3.68109">
        <ele>839.1189</ele>
        <time>2012-09-08T15:05:34Z</time>
      </trkpt>
      <trkpt lat="46.03175" lon="3.68083">
        <ele>839.6199</ele>
        <time>2012-09-08T15:05:37Z</time>
      </trkpt>
      <trkpt lat="46.03189" lon="3.68057">
        <ele>840.59686</ele>
        <time>2012-09-08T15:05:40Z</time>
      </trkpt>
      <trkpt lat="46.03203" lon="3.68031">
        <ele>841.7277</ele>
        <time>2012-09-08T15:05:43Z</time>
      </trkpt>
      <trkpt lat="46.03222" lon="3.68014">
        <ele>842.20483</ele>
        <time>2012-09-08T15:05:46Z</time>
      </trkpt>
      <trkpt lat="46.03243" lon="3.68001">
        <ele>841.7186</ele>
        <time>2012-09-08T15:05:49Z</time>
      </trkpt>
      <trkpt lat="46.0326" lon="3.67986">
        <ele>840.4666</ele>
        <time>2012-09-08T15:05:52Z</time>
      </trkpt>
      <trkpt lat="46.03274" lon="3.67963">
        <ele>841.01654</ele>
        <time>2012-09-08T15:05:55Z</time>
      </trkpt>
      <trkpt lat="46.03288" lon="3.67943">
        <ele>843.1704</ele>
        <time>2012-09-08T15:05:58Z</time>
      </trkpt>
      <trkpt lat="46.03305" lon="3.67924">
        <ele>845.81476</ele>
        <time>2012-09-08T15:06:02Z</time>
      </trkpt>
      <trkpt lat="46.0332" lon="3.67905">
        <ele>848.1241</ele>
        <time>2012-09-08T15:06:06Z</time>
      </trkpt>
      <trkpt lat="46.03334" lon="3.67885">
        <ele>850.222</ele>
        <time>2012-09-08T15:06:10Z</time>
      </trkpt>
      <trkpt lat="46.03344" lon="3.67855">
        <ele>851.45306</ele>
        <time>2012-09-08T15:06:19Z</time>
      </trkpt>
      <trkpt lat="46.0335" lon="3.67825">
        <ele>850.8418</ele>
        <time>2012-09-08T15:06:24Z</time>
      </trkpt>
      <trkpt lat="46.03351" lon="3.67789">
        <ele>848.26154</ele>
        <time>2012-09-08T15:06:28Z</time>
      </trkpt>
      <trkpt lat="46.03353" lon="3.67761">
        <ele>846.2582</ele>
        <time>2012-09-08T15:06:31Z</time>
      </trkpt>
      <trkpt lat="46.03355" lon="3.67727">
        <ele>844.0068</ele>
        <time>2012-09-08T15:06:34Z</time>
      </trkpt>
      <trkpt lat="46.03358" lon="3.67697">
        <ele>842.9332</ele>
        <time>2012-09-08T15:06:36Z</time>
      </trkpt>
      <trkpt lat="46.03359" lon="3.67662">
        <ele>842.3294</ele>
        <time>2012-09-08T15:06:38Z</time>
      </trkpt>
      <trkpt lat="46.03361" lon="3.67624">
        <ele>841.9897</ele>
        <time>2012-09-08T15:06:40Z</time>
      </trkpt>
      <trkpt lat="46.03361" lon="3.67587">
        <ele>841.79865</ele>
        <time>2012-09-08T15:06:42Z</time>
      </trkpt>
      <trkpt lat="46.03357" lon="3.67553">
        <ele>841.69116</ele>
        <time>2012-09-08T15:06:44Z</time>
      </trkpt>
      <trkpt lat="46.03354" lon="3.67521">
        <ele>841.19324</ele>
        <time>2012-09-08T15:06:46Z</time>
      </trkpt>
      <trkpt lat="46.03349" lon="3.67488">
        <ele>840.47565</ele>
        <time>2012-09-08T15:06:48Z</time>
      </trkpt>
      <trkpt lat="46.03346" lon="3.67458">
        <ele>838.94696</ele>
        <time>2012-09-08T15:06:50Z</time>
      </trkpt>
      <trkpt lat="46.03349" lon="3.67428">
        <ele>837.4621</ele>
        <time>2012-09-08T15:06:52Z</time>
      </trkpt>
      <trkpt lat="46.03354" lon="3.674">
        <ele>836.1894</ele>
        <time>2012-09-08T15:06:54Z</time>
      </trkpt>
      <trkpt lat="46.03358" lon="3.67375">
        <ele>834.78595</ele>
        <time>2012-09-08T15:06:56Z</time>
      </trkpt>
      <trkpt lat="46.03361" lon="3.67338">
        <ele>832.22943</ele>
        <time>2012-09-08T15:06:59Z</time>
      </trkpt>
      <trkpt lat="46.03361" lon="3.67302">
        <ele>829.854</ele>
        <time>2012-09-08T15:07:02Z</time>
      </trkpt>
      <trkpt lat="46.03358" lon="3.67267">
        <ele>828.08624</ele>
        <time>2012-09-08T15:07:05Z</time>
      </trkpt>
      <trkpt lat="46.03353" lon="3.67239">
        <ele>827.1998</ele>
        <time>2012-09-08T15:07:08Z</time>
      </trkpt>
      <trkpt lat="46.03342" lon="3.67214">
        <ele>826.57587</ele>
        <time>2012-09-08T15:07:11Z</time>
      </trkpt>
      <trkpt lat="46.03327" lon="3.67188">
        <ele>825.73456</ele>
        <time>2012-09-08T15:07:14Z</time>
      </trkpt>
      <trkpt lat="46.03311" lon="3.67158">
        <ele>825.05145</ele>
        <time>2012-09-08T15:07:17Z</time>
      </trkpt>
      <trkpt lat="46.03296" lon="3.67128">
        <ele>824.1852</ele>
        <time>2012-09-08T15:07:20Z</time>
      </trkpt>
      <trkpt lat="46.03282" lon="3.67098">
        <ele>823.2416</ele>
        <time>2012-09-08T15:07:23Z</time>
      </trkpt>
      <trkpt lat="46.0327" lon="3.67066">
        <ele>822.5935</ele>
        <time>2012-09-08T15:07:26Z</time>
      </trkpt>
      <trkpt lat="46.03267" lon="3.67036">
        <ele>821.74194</ele>
        <time>2012-09-08T15:07:29Z</time>
      </trkpt>
      <trkpt lat="46.03273" lon="3.67003">
        <ele>820.6792</ele>
        <time>2012-09-08T15:07:33Z</time>
      </trkpt>
      <trkpt lat="46.0328" lon="3.66971">
        <ele>819.08124</ele>
        <time>2012-09-08T15:07:37Z</time>
      </trkpt>
      <trkpt lat="46.0329" lon="3.66939">
        <ele>817.7602</ele>
        <time>2012-09-08T15:07:40Z</time>
      </trkpt>
      <trkpt lat="46.03296" lon="3.66911">
        <ele>817.23206</ele>
        <time>2012-09-08T15:07:42Z</time>
      </trkpt>
      <trkpt lat="46.033" lon="3.66883">
        <ele>816.4975</ele>
        <time>2012-09-08T15:07:44Z</time>
      </trkpt>
      <trkpt lat="46.03299" lon="3.66855">
        <ele>815.8343</ele>
        <time>2012-09-08T15:07:46Z</time>
      </trkpt>
      <trkpt lat="46.03298" lon="3.66827">
        <ele>815.2737</ele>
        <time>2012-09-08T15:07:48Z</time>
      </trkpt>
      <trkpt lat="46.033" lon="3.66802">
        <ele>814.9584</ele>
        <time>2012-09-08T15:07:50Z</time>
      </trkpt>
      <trkpt lat="46.03305" lon="3.66776">
        <ele>814.78107</ele>
        <time>2012-09-08T15:07:52Z</time>
      </trkpt>
      <trkpt lat="46.03309" lon="3.66748">
        <ele>814.4313</ele>
        <time>2012-09-08T15:07:54Z</time>
      </trkpt>
      <trkpt lat="46.03314" lon="3.6672">
        <ele>814.047</ele>
        <time>2012-09-08T15:07:56Z</time>
      </trkpt>
      <trkpt lat="46.0332" lon="3.6669">
        <ele>813.3934</ele>
        <time>2012-09-08T15:07:58Z</time>
      </trkpt>
      <trkpt lat="46.03325" lon="3.66658">
        <ele>812.7757</ele>
        <time>2012-09-08T15:08:00Z</time>
      </trkpt>
      <trkpt lat="46.03333" lon="3.66626">
        <ele>812.2408</ele>
        <time>2012-09-08T15:08:02Z</time>
      </trkpt>
      <trkpt lat="46.03339" lon="3.66589">
        <ele>811.5024</ele>
        <time>2012-09-08T15:08:04Z</time>
      </trkpt>
      <trkpt lat="46.03346" lon="3.66557">
        <ele>810.83704</ele>
        <time>2012-09-08T15:08:06Z</time>
      </trkpt>
      <trkpt lat="46.03352" lon="3.66531">
        <ele>810.27527</ele>
        <time>2012-09-08T15:08:08Z</time>
      </trkpt>
      <trkpt lat="46.03358" lon="3.66501">
        <ele>809.5218</ele>
        <time>2012-09-08T15:08:10Z</time>
      </trkpt>
      <trkpt lat="46.03364" lon="3.66471">
        <ele>808.41046</ele>
        <time>2012-09-08T15:08:12Z</time>
      </trkpt>
      <trkpt lat="46.03367" lon="3.66435">
        <ele>806.4728</ele>
        <time>2012-09-08T15:08:14Z</time>
      </trkpt>
      <trkpt lat="46.0337" lon="3.66396">
        <ele>804.2579</ele>
        <time>2012-09-08T15:08:16Z</time>
      </trkpt>
      <trkpt lat="46.03372" lon="3.66351">
        <ele>800.8245</ele>
        <time>2012-09-08T15:08:18Z</time>
      </trkpt>
      <trkpt lat="46.0337" lon="3.66302">
        <ele>796.45575</ele>
        <time>2012-09-08T15:08:20Z</time>
      </trkpt>
      <trkpt lat="46.03367" lon="3.66252">
        <ele>791.3733</ele>
        <time>2012-09-08T15:08:22Z</time>
      </trkpt>
      <trkpt lat="46.03366" lon="3.66203">
        <ele>785.8894</ele>
        <time>2012-09-08T15:08:24Z</time>
      </trkpt>
      <trkpt lat="46.03365" lon="3.66154">
        <ele>780.17975</ele>
        <time>2012-09-08T15:08:26Z</time>
      </trkpt>
      <trkpt lat="46.03363" lon="3.66104">
        <ele>774.343</ele>
        <time>2012-09-08T15:08:28Z</time>
      </trkpt>
      <trkpt lat="46.03361" lon="3.66079">
        <ele>771.6455</ele>
        <time>2012-09-08T15:08:29Z</time>
      </trkpt>
      <trkpt lat="46.03354" lon="3.66031">
        <ele>766.73004</ele>
        <time>2012-09-08T15:08:31Z</time>
      </trkpt>
      <trkpt lat="46.03347" lon="3.66006">
        <ele>762.4651</ele>
        <time>2012-09-08T15:08:33Z</time>
      </trkpt>
      <trkpt lat="46.03338" lon="3.65978">
        <ele>756.7659</ele>
        <time>2012-09-08T15:08:36Z</time>
      </trkpt>
      <trkpt lat="46.03351" lon="3.65997">
        <ele>741.803</ele>
        <time>2012-09-08T15:10:07Z</time>
      </trkpt>
      <trkpt lat="46.0337" lon="3.66008">
        <ele>729.5742</ele>
        <time>2012-09-08T15:10:12Z</time>
      </trkpt>
      <trkpt lat="46.0339" lon="3.66023">
        <ele>722.6776</ele>
        <time>2012-09-08T15:10:18Z</time>
      </trkpt>
      <trkpt lat="46.0341" lon="3.6604">
        <ele>718.1549</ele>
        <time>2012-09-08T15:10:22Z</time>
      </trkpt>
      <trkpt lat="46.03429" lon="3.66051">
        <ele>713.5413</ele>
        <time>2012-09-08T15:10:25Z</time>
      </trkpt>
      <trkpt lat="46.03446" lon="3.66061">
        <ele>709.29645</ele>
        <time>2012-09-08T15:10:27Z</time>
      </trkpt>
      <trkpt lat="46.03464" lon="3.66072">
        <ele>705.2212</ele>
        <time>2012-09-08T15:10:29Z</time>
      </trkpt>
      <trkpt lat="46.03482" lon="3.66083">
        <ele>701.61633</ele>
        <time>2012-09-08T15:10:31Z</time>
      </trkpt>
      <trkpt lat="46.03497" lon="3.66098">
        <ele>698.7136</ele>
        <time>2012-09-08T15:10:33Z</time>
      </trkpt>
      <trkpt lat="46.03514" lon="3.66122">
        <ele>695.1833</ele>
        <time>2012-09-08T15:10:36Z</time>
      </trkpt>
      <trkpt lat="46.03533" lon="3.66139">
        <ele>692.0064</ele>
        <time>2012-09-08T15:10:39Z</time>
      </trkpt>
      <trkpt lat="46.03553" lon="3.66152">
        <ele>688.74426</ele>
        <time>2012-09-08T15:10:42Z</time>
      </trkpt>
      <trkpt lat="46.03573" lon="3.66162">
        <ele>685.63367</ele>
        <time>2012-09-08T15:10:45Z</time>
      </trkpt>
      <trkpt lat="46.03595" lon="3.66171">
        <ele>682.01605</ele>
        <time>2012-09-08T15:10:49Z</time>
      </trkpt>
      <trkpt lat="46.03614" lon="3.66171">
        <ele>679.7414</ele>
        <time>2012-09-08T15:10:55Z</time>
      </trkpt>
      <trkpt lat="46.03636" lon="3.6616">
        <ele>678.585</ele>
        <time>2012-09-08T15:11:00Z</time>
      </trkpt>
      <trkpt lat="46.03658" lon="3.66147">
        <ele>677.3014</ele>
        <time>2012-09-08T15:11:04Z</time>
      </trkpt>
      <trkpt lat="46.03676" lon="3.66137">
        <ele>676.0406</ele>
        <time>2012-09-08T15:11:07Z</time>
      </trkpt>
      <trkpt lat="46.03697" lon="3.6613">
        <ele>674.44556</ele>
        <time>2012-09-08T15:11:11Z</time>
      </trkpt>
      <trkpt lat="46.03716" lon="3.66122">
        <ele>672.7143</ele>
        <time>2012-09-08T15:11:15Z</time>
      </trkpt>
      <trkpt lat="46.03737" lon="3.66111">
        <ele>671.09235</ele>
        <time>2012-09-08T15:11:19Z</time>
      </trkpt>
      <trkpt lat="46.03755" lon="3.661">
        <ele>669.60254</ele>
        <time>2012-09-08T15:11:23Z</time>
      </trkpt>
      <trkpt lat="46.03771" lon="3.66085">
        <ele>668.11847</ele>
        <time>2012-09-08T15:11:28Z</time>
      </trkpt>
      <trkpt lat="46.03786" lon="3.66068">
        <ele>667.1872</ele>
        <time>2012-09-08T15:11:33Z</time>
      </trkpt>
      <trkpt lat="46.03797" lon="3.66046">
        <ele>664.12085</ele>
        <time>2012-09-08T15:11:37Z</time>
      </trkpt>
      <trkpt lat="46.0381" lon="3.66025">
        <ele>660.66626</ele>
        <time>2012-09-08T15:11:41Z</time>
      </trkpt>
      <trkpt lat="46.03819" lon="3.65995">
        <ele>658.1006</ele>
        <time>2012-09-08T15:11:45Z</time>
      </trkpt>
      <trkpt lat="46.03828" lon="3.65967">
        <ele>656.46454</ele>
        <time>2012-09-08T15:11:49Z</time>
      </trkpt>
      <trkpt lat="46.03839" lon="3.65941">
        <ele>655.84143</ele>
        <time>2012-09-08T15:11:53Z</time>
      </trkpt>
      <trkpt lat="46.0385" lon="3.65918">
        <ele>654.7372</ele>
        <time>2012-09-08T15:11:56Z</time>
      </trkpt>
      <trkpt lat="46.03859" lon="3.65894">
        <ele>652.4588</ele>
        <time>2012-09-08T15:11:59Z</time>
      </trkpt>
      <trkpt lat="46.03868" lon="3.6587">
        <ele>649.4568</ele>
        <time>2012-09-08T15:12:03Z</time>
      </trkpt>
      <trkpt lat="46.03882" lon="3.65853">
        <ele>646.8937</ele>
        <time>2012-09-08T15:12:07Z</time>
      </trkpt>
      <trkpt lat="46.03896" lon="3.65836">
        <ele>645.54047</ele>
        <time>2012-09-08T15:12:10Z</time>
      </trkpt>
      <trkpt lat="46.03908" lon="3.65813">
        <ele>644.2821</ele>
        <time>2012-09-08T15:12:13Z</time>
      </trkpt>
      <trkpt lat="46.03915" lon="3.65782">
        <ele>641.729</ele>
        <time>2012-09-08T15:12:17Z</time>
      </trkpt>
      <trkpt lat="46.03921" lon="3.65757">
        <ele>637.1712</ele>
        <time>2012-09-08T15:12:21Z</time>
      </trkpt>
      <trkpt lat="46.03921" lon="3.65725">
        <ele>632.52783</ele>
        <time>2012-09-08T15:12:26Z</time>
      </trkpt>
      <trkpt lat="46.03909" lon="3.65703">
        <ele>630.053</ele>
        <time>2012-09-08T15:13:32Z</time>
      </trkpt>
      <trkpt lat="46.03888" lon="3.65703">
        <ele>626.0647</ele>
        <time>2012-09-08T15:14:45Z</time>
      </trkpt>
      <trkpt lat="46.03866" lon="3.65703">
        <ele>621.61487</ele>
        <time>2012-09-08T15:14:50Z</time>
      </trkpt>
      <trkpt lat="46.03843" lon="3.65692">
        <ele>616.2054</ele>
        <time>2012-09-08T15:14:54Z</time>
      </trkpt>
      <trkpt lat="46.03825" lon="3.65682">
        <ele>613.6564</ele>
        <time>2012-09-08T15:14:57Z</time>
      </trkpt>
      <trkpt lat="46.03804" lon="3.65662">
        <ele>612.00287</ele>
        <time>2012-09-08T15:15:00Z</time>
      </trkpt>
      <trkpt lat="46.03784" lon="3.65639">
        <ele>609.89905</ele>
        <time>2012-09-08T15:15:03Z</time>
      </trkpt>
      <trkpt lat="46.03769" lon="3.65617">
        <ele>608.1052</ele>
        <time>2012-09-08T15:15:06Z</time>
      </trkpt>
      <trkpt lat="46.03758" lon="3.65596">
        <ele>606.6297</ele>
        <time>2012-09-08T15:15:09Z</time>
      </trkpt>
      <trkpt lat="46.03747" lon="3.65572">
        <ele>605.42914</ele>
        <time>2012-09-08T15:15:12Z</time>
      </trkpt>
      <trkpt lat="46.03745" lon="3.6554">
        <ele>604.4851</ele>
        <time>2012-09-08T15:15:15Z</time>
      </trkpt>
      <trkpt lat="46.03748" lon="3.65514">
        <ele>603.63983</ele>
        <time>2012-09-08T15:15:17Z</time>
      </trkpt>
      <trkpt lat="46.03745" lon="3.65486">
        <ele>602.7268</ele>
        <time>2012-09-08T15:15:19Z</time>
      </trkpt>
      <trkpt lat="46.03739" lon="3.65458">
        <ele>601.52576</ele>
        <time>2012-09-08T15:15:21Z</time>
      </trkpt>
      <trkpt lat="46.03734" lon="3.65433">
        <ele>599.97516</ele>
        <time>2012-09-08T15:15:23Z</time>
      </trkpt>
      <trkpt lat="46.03739" lon="3.65403">
        <ele>597.55927</ele>
        <time>2012-09-08T15:15:26Z</time>
      </trkpt>
      <trkpt lat="46.03751" lon="3.65379">
        <ele>595.3837</ele>
        <time>2012-09-08T15:15:29Z</time>
      </trkpt>
      <trkpt lat="46.03765" lon="3.65358">
        <ele>593.8879</ele>
        <time>2012-09-08T15:15:32Z</time>
      </trkpt>
      <trkpt lat="46.03773" lon="3.6533">
        <ele>593.11615</ele>
        <time>2012-09-08T15:15:35Z</time>
      </trkpt>
      <trkpt lat="46.03779" lon="3.65302">
        <ele>592.21246</ele>
        <time>2012-09-08T15:15:38Z</time>
      </trkpt>
      <trkpt lat="46.03784" lon="3.65268">
        <ele>591.8312</ele>
        <time>2012-09-08T15:15:41Z</time>
      </trkpt>
      <trkpt lat="46.03783" lon="3.65237">
        <ele>591.0922</ele>
        <time>2012-09-08T15:15:44Z</time>
      </trkpt>
      <trkpt lat="46.03779" lon="3.6521">
        <ele>589.9524</ele>
        <time>2012-09-08T15:15:47Z</time>
      </trkpt>
      <trkpt lat="46.03778" lon="3.65182">
        <ele>588.7059</ele>
        <time>2012-09-08T15:15:50Z</time>
      </trkpt>
      <trkpt lat="46.03779" lon="3.65154">
        <ele>587.21124</ele>
        <time>2012-09-08T15:15:53Z</time>
      </trkpt>
      <trkpt lat="46.03779" lon="3.65124">
        <ele>586.25256</ele>
        <time>2012-09-08T15:15:56Z</time>
      </trkpt>
      <trkpt lat="46.03779" lon="3.65096">
        <ele>585.59814</ele>
        <time>2012-09-08T15:15:59Z</time>
      </trkpt>
      <trkpt lat="46.03778" lon="3.65062">
        <ele>584.63367</ele>
        <time>2012-09-08T15:16:03Z</time>
      </trkpt>
      <trkpt lat="46.03773" lon="3.65029">
        <ele>582.87933</ele>
        <time>2012-09-08T15:16:07Z</time>
      </trkpt>
      <trkpt lat="46.03782" lon="3.64999">
        <ele>580.85156</ele>
        <time>2012-09-08T15:16:11Z</time>
      </trkpt>
      <trkpt lat="46.03791" lon="3.64976">
        <ele>579.5227</ele>
        <time>2012-09-08T15:16:14Z</time>
      </trkpt>
      <trkpt lat="46.0381" lon="3.64961">
        <ele>578.1762</ele>
        <time>2012-09-08T15:16:18Z</time>
      </trkpt>
      <trkpt lat="46.03821" lon="3.64935">
        <ele>577.0666</ele>
        <time>2012-09-08T15:16:22Z</time>
      </trkpt>
      <trkpt lat="46.03824" lon="3.64907">
        <ele>575.9415</ele>
        <time>2012-09-08T15:16:25Z</time>
      </trkpt>
      <trkpt lat="46.03834" lon="3.64879">
        <ele>574.7013</ele>
        <time>2012-09-08T15:16:28Z</time>
      </trkpt>
      <trkpt lat="46.03843" lon="3.64853">
        <ele>573.7874</ele>
        <time>2012-09-08T15:16:31Z</time>
      </trkpt>
      <trkpt lat="46.03838" lon="3.64825">
        <ele>572.84595</ele>
        <time>2012-09-08T15:16:36Z</time>
      </trkpt>
      <trkpt lat="46.03853" lon="3.64804">
        <ele>572.575</ele>
        <time>2012-09-08T15:16:45Z</time>
      </trkpt>
      <trkpt lat="46.03853" lon="3.64774">
        <ele>572.5546</ele>
        <time>2012-09-08T15:16:54Z</time>
      </trkpt>
      <trkpt lat="46.03844" lon="3.64748">
        <ele>573.1313</ele>
        <time>2012-09-08T15:17:02Z</time>
      </trkpt>
      <trkpt lat="46.03837" lon="3.64722">
        <ele>573.4967</ele>
        <time>2012-09-08T15:17:09Z</time>
      </trkpt>
      <trkpt lat="46.0383" lon="3.64697">
        <ele>573.54297</ele>
        <time>2012-09-08T15:17:15Z</time>
      </trkpt>
      <trkpt lat="46.03829" lon="3.64667">
        <ele>573.5512</ele>
        <time>2012-09-08T15:17:21Z</time>
      </trkpt>
      <trkpt lat="46.03826" lon="3.64639">
        <ele>572.86896</ele>
        <time>2012-09-08T15:17:26Z</time>
      </trkpt>
      <trkpt lat="46.03815" lon="3.64613">
        <ele>572.60925</ele>
        <time>2012-09-08T15:17:32Z</time>
      </trkpt>
      <trkpt lat="46.03798" lon="3.64598">
        <ele>572.56635</ele>
        <time>2012-09-08T15:17:37Z</time>
      </trkpt>
      <trkpt lat="46.03783" lon="3.64583">
        <ele>572.99475</ele>
        <time>2012-09-08T15:17:41Z</time>
      </trkpt>
      <trkpt lat="46.03766" lon="3.64566">
        <ele>573.42053</ele>
        <time>2012-09-08T15:17:46Z</time>
      </trkpt>
      <trkpt lat="46.03747" lon="3.64547">
        <ele>573.5111</ele>
        <time>2012-09-08T15:17:50Z</time>
      </trkpt>
      <trkpt lat="46.03732" lon="3.64532">
        <ele>572.7072</ele>
        <time>2012-09-08T15:17:53Z</time>
      </trkpt>
      <trkpt lat="46.03718" lon="3.64514">
        <ele>571.2118</ele>
        <time>2012-09-08T15:17:56Z</time>
      </trkpt>
      <trkpt lat="46.03708" lon="3.64486">
        <ele>569.4247</ele>
        <time>2012-09-08T15:17:59Z</time>
      </trkpt>
      <trkpt lat="46.037" lon="3.64456">
        <ele>567.07697</ele>
        <time>2012-09-08T15:18:02Z</time>
      </trkpt>
      <trkpt lat="46.03691" lon="3.64426">
        <ele>564.3522</ele>
        <time>2012-09-08T15:18:05Z</time>
      </trkpt>
      <trkpt lat="46.03687" lon="3.64398">
        <ele>561.46826</ele>
        <time>2012-09-08T15:18:08Z</time>
      </trkpt>
      <trkpt lat="46.03689" lon="3.64373">
        <ele>559.0954</ele>
        <time>2012-09-08T15:18:11Z</time>
      </trkpt>
      <trkpt lat="46.03692" lon="3.64345">
        <ele>556.0918</ele>
        <time>2012-09-08T15:18:15Z</time>
      </trkpt>
      <trkpt lat="46.03695" lon="3.64319">
        <ele>554.1866</ele>
        <time>2012-09-08T15:18:18Z</time>
      </trkpt>
      <trkpt lat="46.03696" lon="3.64291">
        <ele>553.2421</ele>
        <time>2012-09-08T15:18:21Z</time>
      </trkpt>
      <trkpt lat="46.03695" lon="3.64263">
        <ele>552.84375</ele>
        <time>2012-09-08T15:18:24Z</time>
      </trkpt>
      <trkpt lat="46.03692" lon="3.64233">
        <ele>552.67566</ele>
        <time>2012-09-08T15:18:27Z</time>
      </trkpt>
      <trkpt lat="46.0369" lon="3.64208">
        <ele>552.5918</ele>
        <time>2012-09-08T15:18:31Z</time>
      </trkpt>
      <trkpt lat="46.0369" lon="3.64175">
        <ele>553.2435</ele>
        <time>2012-09-08T15:18:37Z</time>
      </trkpt>
      <trkpt lat="46.03692" lon="3.6415">
        <ele>553.47955</ele>
        <time>2012-09-08T15:18:42Z</time>
      </trkpt>
      <trkpt lat="46.03694" lon="3.64117">
        <ele>554.2983</ele>
        <time>2012-09-08T15:18:47Z</time>
      </trkpt>
      <trkpt lat="46.03696" lon="3.64087">
        <ele>554.519</ele>
        <time>2012-09-08T15:18:54Z</time>
      </trkpt>
      <trkpt lat="46.03698" lon="3.64062">
        <ele>554.5496</ele>
        <time>2012-09-08T15:19:02Z</time>
      </trkpt>
      <trkpt lat="46.03703" lon="3.64029">
        <ele>554.5522</ele>
        <time>2012-09-08T15:19:07Z</time>
      </trkpt>
      <trkpt lat="46.0371" lon="3.64002">
        <ele>554.11523</ele>
        <time>2012-09-08T15:19:11Z</time>
      </trkpt>
      <trkpt lat="46.03715" lon="3.63969">
        <ele>553.2934</ele>
        <time>2012-09-08T15:19:15Z</time>
      </trkpt>
      <trkpt lat="46.03718" lon="3.63944">
        <ele>552.17786</ele>
        <time>2012-09-08T15:19:18Z</time>
      </trkpt>
      <trkpt lat="46.03721" lon="3.63914">
        <ele>549.97284</ele>
        <time>2012-09-08T15:19:21Z</time>
      </trkpt>
      <trkpt lat="46.03724" lon="3.63883">
        <ele>548.13635</ele>
        <time>2012-09-08T15:19:24Z</time>
      </trkpt>
      <trkpt lat="46.03726" lon="3.63853">
        <ele>547.221</ele>
        <time>2012-09-08T15:19:27Z</time>
      </trkpt>
      <trkpt lat="46.03726" lon="3.63821">
        <ele>546.8348</ele>
        <time>2012-09-08T15:19:30Z</time>
      </trkpt>
      <trkpt lat="46.03725" lon="3.63793">
        <ele>546.6719</ele>
        <time>2012-09-08T15:19:33Z</time>
      </trkpt>
      <trkpt lat="46.03724" lon="3.63765">
        <ele>546.60315</ele>
        <time>2012-09-08T15:19:36Z</time>
      </trkpt>
      <trkpt lat="46.03725" lon="3.63733">
        <ele>545.9907</ele>
        <time>2012-09-08T15:19:40Z</time>
      </trkpt>
      <trkpt lat="46.0373" lon="3.63705">
        <ele>545.65686</ele>
        <time>2012-09-08T15:19:45Z</time>
      </trkpt>
      <trkpt lat="46.03735" lon="3.63678">
        <ele>544.37744</ele>
        <time>2012-09-08T15:19:50Z</time>
      </trkpt>
      <trkpt lat="46.03751" lon="3.63641">
        <ele>543.663</ele>
        <time>2012-09-08T15:19:57Z</time>
      </trkpt>
      <trkpt lat="46.03749" lon="3.63615">
        <ele>544.16595</ele>
        <time>2012-09-08T15:20:01Z</time>
      </trkpt>
      <trkpt lat="46.03742" lon="3.6359">
        <ele>543.74304</ele>
        <time>2012-09-08T15:20:05Z</time>
      </trkpt>
      <trkpt lat="46.03735" lon="3.63557">
        <ele>540.9803</ele>
        <time>2012-09-08T15:20:09Z</time>
      </trkpt>
      <trkpt lat="46.03732" lon="3.63529">
        <ele>538.6395</ele>
        <time>2012-09-08T15:20:12Z</time>
      </trkpt>
      <trkpt lat="46.03734" lon="3.63499">
        <ele>535.8395</ele>
        <time>2012-09-08T15:20:15Z</time>
      </trkpt>
      <trkpt lat="46.03735" lon="3.63465">
        <ele>532.8145</ele>
        <time>2012-09-08T15:20:18Z</time>
      </trkpt>
      <trkpt lat="46.03735" lon="3.63431">
        <ele>529.0852</ele>
        <time>2012-09-08T15:20:21Z</time>
      </trkpt>
      <trkpt lat="46.03733" lon="3.63405">
        <ele>526.09247</ele>
        <time>2012-09-08T15:20:25Z</time>
      </trkpt>
      <trkpt lat="46.03716" lon="3.63379">
        <ele>523.71814</ele>
        <time>2012-09-08T15:20:36Z</time>
      </trkpt>
      <trkpt lat="46.03698" lon="3.63369">
        <ele>523.5824</ele>
        <time>2012-09-08T15:20:42Z</time>
      </trkpt>
      <trkpt lat="46.03679" lon="3.63358">
        <ele>524.37726</ele>
        <time>2012-09-08T15:20:51Z</time>
      </trkpt>
      <trkpt lat="46.03663" lon="3.63345">
        <ele>524.5398</ele>
        <time>2012-09-08T15:21:00Z</time>
      </trkpt>
      <trkpt lat="46.03645" lon="3.63332">
        <ele>524.30225</ele>
        <time>2012-09-08T15:21:10Z</time>
      </trkpt>
      <trkpt lat="46.03626" lon="3.63332">
        <ele>522.53723</ele>
        <time>2012-09-08T15:21:19Z</time>
      </trkpt>
      <trkpt lat="46.03606" lon="3.63345">
        <ele>520.9248</ele>
        <time>2012-09-08T15:21:29Z</time>
      </trkpt>
      <trkpt lat="46.03587" lon="3.63336">
        <ele>520.64124</ele>
        <time>2012-09-08T15:21:34Z</time>
      </trkpt>
      <trkpt lat="46.03564" lon="3.63321">
        <ele>520.55963</ele>
        <time>2012-09-08T15:21:43Z</time>
      </trkpt>
      <trkpt lat="46.03556" lon="3.63296">
        <ele>521.62555</ele>
        <time>2012-09-08T15:21:52Z</time>
      </trkpt>
      <trkpt lat="46.0356" lon="3.63268">
        <ele>523.6905</ele>
        <time>2012-09-08T15:22:07Z</time>
      </trkpt>
      <trkpt lat="46.03553" lon="3.63242">
        <ele>525.56024</ele>
        <time>2012-09-08T15:22:16Z</time>
      </trkpt>
      <trkpt lat="46.03542" lon="3.63214">
        <ele>526.7036</ele>
        <time>2012-09-08T15:22:24Z</time>
      </trkpt>
      <trkpt lat="46.03531" lon="3.63188">
        <ele>528.33545</ele>
        <time>2012-09-08T15:22:30Z</time>
      </trkpt>
      <trkpt lat="46.03523" lon="3.6316">
        <ele>530.85095</ele>
        <time>2012-09-08T15:22:40Z</time>
      </trkpt>
      <trkpt lat="46.0351" lon="3.6313">
        <ele>535.14777</ele>
        <time>2012-09-08T15:22:51Z</time>
      </trkpt>
      <trkpt lat="46.03498" lon="3.63109">
        <ele>537.425</ele>
        <time>2012-09-08T15:22:59Z</time>
      </trkpt>
      <trkpt lat="46.0348" lon="3.63083">
        <ele>540.1799</ele>
        <time>2012-09-08T15:23:11Z</time>
      </trkpt>
      <trkpt lat="46.03457" lon="3.63062">
        <ele>541.2999</ele>
        <time>2012-09-08T15:23:22Z</time>
      </trkpt>
      <trkpt lat="46.03438" lon="3.63053">
        <ele>543.74554</ele>
        <time>2012-09-08T15:23:33Z</time>
      </trkpt>
      <trkpt lat="46.0342" lon="3.63042">
        <ele>545.937</ele>
        <time>2012-09-08T15:23:42Z</time>
      </trkpt>
      <trkpt lat="46.03405" lon="3.63027">
        <ele>547.9154</ele>
        <time>2012-09-08T15:23:49Z</time>
      </trkpt>
      <trkpt lat="46.03387" lon="3.63012">
        <ele>550.4555</ele>
        <time>2012-09-08T15:23:56Z</time>
      </trkpt>
      <trkpt lat="46.03371" lon="3.62993">
        <ele>553.2066</ele>
        <time>2012-09-08T15:24:03Z</time>
      </trkpt>
      <trkpt lat="46.03355" lon="3.62969">
        <ele>555.43445</ele>
        <time>2012-09-08T15:24:09Z</time>
      </trkpt>
      <trkpt lat="46.03341" lon="3.62948">
        <ele>556.86566</ele>
        <time>2012-09-08T15:24:14Z</time>
      </trkpt>
      <trkpt lat="46.03326" lon="3.62924">
        <ele>558.0735</ele>
        <time>2012-09-08T15:24:19Z</time>
      </trkpt>
      <trkpt lat="46.03313" lon="3.62903">
        <ele>559.0849</ele>
        <time>2012-09-08T15:24:23Z</time>
      </trkpt>
      <trkpt lat="46.03303" lon="3.62881">
        <ele>559.4049</ele>
        <time>2012-09-08T15:24:27Z</time>
      </trkpt>
      <trkpt lat="46.03292" lon="3.62854">
        <ele>560.09595</ele>
        <time>2012-09-08T15:24:32Z</time>
      </trkpt>
      <trkpt lat="46.03284" lon="3.6283">
        <ele>560.9865</ele>
        <time>2012-09-08T15:24:36Z</time>
      </trkpt>
      <trkpt lat="46.03279" lon="3.62804">
        <ele>561.4186</ele>
        <time>2012-09-08T15:24:41Z</time>
      </trkpt>
      <trkpt lat="46.03275" lon="3.62776">
        <ele>562.2838</ele>
        <time>2012-09-08T15:24:46Z</time>
      </trkpt>
      <trkpt lat="46.03271" lon="3.62751">
        <ele>564.2725</ele>
        <time>2012-09-08T15:24:50Z</time>
      </trkpt>
      <trkpt lat="46.0327" lon="3.6272">
        <ele>565.3251</ele>
        <time>2012-09-08T15:24:56Z</time>
      </trkpt>
      <trkpt lat="46.03268" lon="3.62693">
        <ele>565.7489</ele>
        <time>2012-09-08T15:25:01Z</time>
      </trkpt>
      <trkpt lat="46.03265" lon="3.62665">
        <ele>566.8767</ele>
        <time>2012-09-08T15:25:05Z</time>
      </trkpt>
      <trkpt lat="46.03263" lon="3.62639">
        <ele>567.3925</ele>
        <time>2012-09-08T15:25:10Z</time>
      </trkpt>
      <trkpt lat="46.03261" lon="3.62609">
        <ele>567.5244</ele>
        <time>2012-09-08T15:25:16Z</time>
      </trkpt>
      <trkpt lat="46.03255" lon="3.62583">
        <ele>567.54395</ele>
        <time>2012-09-08T15:25:20Z</time>
      </trkpt>
      <trkpt lat="46.03248" lon="3.6256">
        <ele>567.55084</ele>
        <time>2012-09-08T15:25:25Z</time>
      </trkpt>
      <trkpt lat="46.03241" lon="3.62534">
        <ele>567.55273</ele>
        <time>2012-09-08T15:25:32Z</time>
      </trkpt>
      <trkpt lat="46.03244" lon="3.62508">
        <ele>567.553</ele>
        <time>2012-09-08T15:25:38Z</time>
      </trkpt>
      <trkpt lat="46.03256" lon="3.62489">
        <ele>567.553</ele>
        <time>2012-09-08T15:25:44Z</time>
      </trkpt>
      <trkpt lat="46.03275" lon="3.62472">
        <ele>567.803</ele>
        <time>2012-09-08T15:25:51Z</time>
      </trkpt>
      <trkpt lat="46.03293" lon="3.62457">
        <ele>569.5022</ele>
        <time>2012-09-08T15:25:54Z</time>
      </trkpt>
      <trkpt lat="46.03309" lon="3.62442">
        <ele>571.5159</ele>
        <time>2012-09-08T15:25:57Z</time>
      </trkpt>
      <trkpt lat="46.03326" lon="3.62429">
        <ele>573.1311</ele>
        <time>2012-09-08T15:26:00Z</time>
      </trkpt>
      <trkpt lat="46.03343" lon="3.62418">
        <ele>573.9531</ele>
        <time>2012-09-08T15:26:03Z</time>
      </trkpt>
      <trkpt lat="46.03363" lon="3.62411">
        <ele>574.2999</ele>
        <time>2012-09-08T15:26:06Z</time>
      </trkpt>
      <trkpt lat="46.03384" lon="3.62405">
        <ele>574.0087</ele>
        <time>2012-09-08T15:26:09Z</time>
      </trkpt>
      <trkpt lat="46.03409" lon="3.62399">
        <ele>572.7296</ele>
        <time>2012-09-08T15:26:12Z</time>
      </trkpt>
      <trkpt lat="46.03436" lon="3.62394">
        <ele>571.22125</ele>
        <time>2012-09-08T15:26:15Z</time>
      </trkpt>
      <trkpt lat="46.03455" lon="3.62396">
        <ele>569.8039</ele>
        <time>2012-09-08T15:26:17Z</time>
      </trkpt>
      <trkpt lat="46.03476" lon="3.62399">
        <ele>568.13165</ele>
        <time>2012-09-08T15:26:19Z</time>
      </trkpt>
      <trkpt lat="46.035" lon="3.62401">
        <ele>566.7535</ele>
        <time>2012-09-08T15:26:21Z</time>
      </trkpt>
      <trkpt lat="46.03525" lon="3.62399">
        <ele>565.3533</ele>
        <time>2012-09-08T15:26:23Z</time>
      </trkpt>
      <trkpt lat="46.03554" lon="3.62392">
        <ele>564.1282</ele>
        <time>2012-09-08T15:26:25Z</time>
      </trkpt>
      <trkpt lat="46.03583" lon="3.62381">
        <ele>563.0015</ele>
        <time>2012-09-08T15:26:27Z</time>
      </trkpt>
      <trkpt lat="46.03606" lon="3.62369">
        <ele>562.3678</ele>
        <time>2012-09-08T15:26:29Z</time>
      </trkpt>
      <trkpt lat="46.03632" lon="3.62356">
        <ele>562.0113</ele>
        <time>2012-09-08T15:26:31Z</time>
      </trkpt>
      <trkpt lat="46.03657" lon="3.62349">
        <ele>561.5608</ele>
        <time>2012-09-08T15:26:33Z</time>
      </trkpt>
      <trkpt lat="46.03681" lon="3.62349">
        <ele>560.8699</ele>
        <time>2012-09-08T15:26:35Z</time>
      </trkpt>
      <trkpt lat="46.03703" lon="3.62347">
        <ele>559.60626</ele>
        <time>2012-09-08T15:26:37Z</time>
      </trkpt>
      <trkpt lat="46.03721" lon="3.62347">
        <ele>558.02045</ele>
        <time>2012-09-08T15:26:39Z</time>
      </trkpt>
    </trkseg>
  </trk>
</gpx>